Provisional Data: Kishacoquillas Creek near Belleville, PA


Please select a monitoring station.
Please select start date.
Please select start date.

Toggle Unit: C/F Toggle Unit: C/F
Sample Time Temperature (C) Temperature (F) Specific Conductivity (mS/cm) pH   Turbidity (NTU+) DO (mg/L)
5/17/2022 12:00:00 AM 13.71 56.678 0.509 7.59 15.31 8.7
5/17/2022 12:15:00 AM 13.58 56.444 0.511 7.59 16.76 8.7
5/17/2022 12:30:00 AM 13.46 56.228 0.511 7.58 15.25 8.71
5/17/2022 12:45:00 AM 13.35 56.03 0.512 7.58 13.98 8.72
5/17/2022 1:00:00 AM 13.24 55.832 0.511 7.58 15.29 8.72
5/17/2022 1:15:00 AM 13.13 55.634 0.512 7.59 13.63 8.73
5/17/2022 1:30:00 AM 13.01 55.418 0.512 7.58 15.51 8.75
5/17/2022 1:45:00 AM 12.91 55.238 0.513 7.58 14.71 8.76
5/17/2022 2:00:00 AM 12.8 55.04 0.513 7.58 15.62 8.77
5/17/2022 2:15:00 AM 12.69 54.842 0.512 7.58 13.74 8.8
5/17/2022 2:30:00 AM 12.59 54.662 0.512 7.57 13.94 8.82
5/17/2022 2:45:00 AM 12.49 54.482 0.512 7.56 12.77 8.85
5/17/2022 3:00:00 AM 12.39 54.302 0.512 7.56 14.48 8.86
5/17/2022 3:15:00 AM 12.29 54.122 0.513 7.57 14.13 8.89
5/17/2022 3:30:00 AM 12.2 53.96 0.514 7.57 14.51 8.89
5/17/2022 3:45:00 AM 12.11 53.798 0.513 7.57 20.37 8.92
5/17/2022 4:00:00 AM 12.02 53.636 0.514 7.57 13.52 8.94
5/17/2022 4:15:00 AM 11.95 53.51 0.513 7.57 13.72 8.96
5/17/2022 4:30:00 AM 11.87 53.366 0.513 7.57 12.27 8.98
5/17/2022 4:45:00 AM 11.79 53.222 0.513 7.56 15.34 9.01
5/17/2022 5:00:00 AM 11.72 53.096 0.512 7.57 14.07 9.03
5/17/2022 5:15:00 AM 11.64 52.952 0.512 7.57 12.23 9.05
5/17/2022 5:30:00 AM 11.58 52.844 0.512 7.56 12.59 9.06
5/17/2022 5:45:00 AM 11.51 52.718 0.513 7.56 13.51 9.09
5/17/2022 6:00:00 AM 11.44 52.592 0.512 7.57 13.38 9.1
5/17/2022 6:15:00 AM 11.39 52.502 0.512 7.57 11.89 9.14
5/17/2022 6:30:00 AM 11.33 52.394 0.512 7.57 10.73 9.17
5/17/2022 6:45:00 AM 11.29 52.322 0.512 7.57 12.15 9.21
5/17/2022 7:00:00 AM 11.25 52.25 0.512 7.57 12.27 9.26
5/17/2022 7:15:00 AM 11.23 52.214 0.513 7.57 10.06 9.31
5/17/2022 7:30:00 AM 11.22 52.196 0.512 7.58 10.89 9.39
5/17/2022 7:45:00 AM 11.22 52.196 0.513 7.59 10.12 9.47
5/17/2022 8:00:00 AM 11.23 52.214 0.513 7.55 10.69 9.57
5/17/2022 8:15:00 AM 11.26 52.268 0.513 7.56 10.66 9.66
5/17/2022 8:30:00 AM 11.29 52.322 0.513 7.58 9.31 9.78
5/17/2022 8:45:00 AM 11.34 52.412 0.513 7.6 9 9.9
5/17/2022 9:00:00 AM 11.39 52.502 0.513 7.61 10.1 10.01
5/17/2022 9:15:00 AM 11.47 52.646 0.513 7.62 9.52 10.16
5/17/2022 9:30:00 AM 11.56 52.808 0.513 7.63 9.05 10.28
5/17/2022 9:45:00 AM 11.66 52.988 0.513 7.64 7.95 10.42
5/17/2022 10:00:00 AM 11.78 53.204 0.513 7.65 9.49 10.56
5/17/2022 10:15:00 AM 11.92 53.456 0.513 7.66 6.5 10.73
5/17/2022 10:30:00 AM 12.08 53.744 0.513 7.68 6.77 10.85
5/17/2022 10:45:00 AM 12.25 54.05 0.514 7.67 6.44 11
5/17/2022 11:00:00 AM 12.44 54.392 0.514 7.7 7.11 11.12
5/17/2022 11:15:00 AM 12.64 54.752 0.514 7.72 5.97 11.26
5/17/2022 11:30:00 AM 12.85 55.13 0.514 7.74 6.48 11.38
5/17/2022 11:45:00 AM 13.07 55.526 0.514 7.75 6.76 11.5
5/17/2022 12:00:00 PM 13.3 55.94 0.514 7.76 10.54 11.61
5/17/2022 12:15:00 PM 13.55 56.39 0.513 7.77 6.89 11.71
5/17/2022 12:30:00 PM 13.78 56.804 0.514 7.79 5.59 11.75
5/17/2022 12:45:00 PM 14.02 57.236 0.513 7.8 5.6 11.82
5/17/2022 1:00:00 PM 14.3 57.74 0.514 7.81 6.03 11.92
5/17/2022 1:15:00 PM 14.59 58.262 0.513 7.83 8.33 11.98
5/17/2022 1:30:00 PM 14.86 58.748 0.512 7.84 5.84 12.03
5/17/2022 1:45:00 PM 15.14 59.252 0.512 7.85 5.06 12.07
5/17/2022 2:00:00 PM 15.4 59.72 0.512 7.87 5.44 12.05
5/17/2022 2:15:00 PM 15.64 60.152 0.511 7.88 5.33 12.06
5/17/2022 2:30:00 PM 15.86 60.548 0.51 7.88 5.34 12.02
5/17/2022 2:45:00 PM 16.05 60.89 0.511 7.89 5.45 11.97
5/17/2022 3:00:00 PM 16.19 61.142 0.51 7.89 5.86 11.83
5/17/2022 3:15:00 PM 16.26 61.268 0.512 7.88 6.36 11.65
5/17/2022 3:30:00 PM 16.35 61.43 0.511 7.68 5.82 11.58
5/17/2022 3:45:00 PM 16.43 61.574 0.511 7.73 7.42 11.45
5/17/2022 4:00:00 PM 16.59 61.862 0.511 7.74 5.89 11.45
5/17/2022 4:15:00 PM 16.73 62.114 0.511 7.7 5.74 11.42
5/17/2022 4:30:00 PM 16.84 62.312 0.512 7.68 6.42 11.38
5/17/2022 4:45:00 PM 16.95 62.51 0.512 7.69 6.22 11.34
5/17/2022 5:00:00 PM 16.98 62.564 0.512 7.69 6.2 11.23
5/17/2022 5:15:00 PM 16.96 62.528 0.513 7.69 7.19 11.1
5/17/2022 5:30:00 PM 16.94 62.492 0.514 7.65 6.25 11
5/17/2022 5:45:00 PM 16.92 62.456 0.515 7.63 6.41 10.9
5/17/2022 6:00:00 PM 16.85 62.33 0.515 7.63 9 10.74
5/17/2022 6:15:00 PM 16.76 62.168 0.516 7.62 6.37 10.58
5/17/2022 6:30:00 PM 16.66 61.988 0.517 7.6 5.87 10.4
5/17/2022 6:45:00 PM 16.58 61.844 0.517 7.6 6.22 10.28
5/17/2022 7:00:00 PM 16.49 61.682 0.518 7.59 6.55 10.12
5/17/2022 7:15:00 PM 16.41 61.538 0.518 7.59 6.46 9.96
5/17/2022 7:30:00 PM 16.31 61.358 0.519 7.58 7.88 9.81
5/17/2022 7:45:00 PM 16.2 61.16 0.52 7.56 7.13 9.66
5/17/2022 8:00:00 PM 16.09 60.962 0.52 7.56 7.7 9.53
5/17/2022 8:15:00 PM 15.98 60.764 0.521 7.55 6.99 9.4
5/17/2022 8:30:00 PM 15.87 60.566 0.522 7.55 7.15 9.28
5/17/2022 8:45:00 PM 15.75 60.35 0.523 7.55 8.58 9.16
5/17/2022 9:00:00 PM 15.63 60.134 0.523 7.54 8.51 9.07
5/17/2022 9:15:00 PM 15.51 59.918 0.524 7.51 8.99 8.98
5/17/2022 9:30:00 PM 15.38 59.684 0.525 7.49 9.87 8.9
5/17/2022 9:45:00 PM 15.25 59.45 0.525 7.49 10.22 8.84
5/17/2022 10:00:00 PM 15.12 59.216 0.526 7.49 10.41 8.78
5/17/2022 10:15:00 PM 14.99 58.982 0.526 7.47 11.34 8.75
5/17/2022 10:30:00 PM 14.85 58.73 0.527 7.46 9 8.7
5/17/2022 10:45:00 PM 14.7 58.46 0.528 7.45 16.11 8.68
5/17/2022 11:00:00 PM 14.55 58.19 0.528 7.44 12.66 8.66
5/17/2022 11:15:00 PM 14.39 57.902 0.529 7.44 11.45 8.63
5/17/2022 11:30:00 PM 14.24 57.632 0.529 7.42 12.82 8.61
5/17/2022 11:45:00 PM 14.08 57.344 0.529 7.41 11.62 8.6
5/18/2022 12:00:00 AM 13.92 57.056 0.53 7.42 14.56 8.61
5/18/2022 12:15:00 AM 13.77 56.786 0.53 7.41 12.79 8.59
5/18/2022 12:30:00 AM 13.62 56.516 0.531 7.42 12.77 8.63
5/18/2022 12:45:00 AM 13.47 56.246 0.531 7.41 18.06 8.63
5/18/2022 1:00:00 AM 13.32 55.976 0.531 7.4 14.46 8.66
5/18/2022 1:15:00 AM 13.17 55.706 0.532 7.39 11.8 8.68
5/18/2022 1:30:00 AM 13.02 55.436 0.531 7.39 10.77 8.71
5/18/2022 1:45:00 AM 12.88 55.184 0.531 7.4 11.6 8.73
5/18/2022 2:00:00 AM 12.74 54.932 0.532 7.38 12.66 8.75
5/18/2022 2:15:00 AM 12.6 54.68 0.531 7.39 12.98 8.79
5/18/2022 2:30:00 AM 12.47 54.446 0.531 7.38 11.42 8.81
5/18/2022 2:45:00 AM 12.33 54.194 0.532 7.38 11.4 8.84
5/18/2022 3:00:00 AM 12.21 53.978 0.531 7.37 10.06 8.87
5/18/2022 3:15:00 AM 12.09 53.762 0.532 7.38 11.18 8.9
5/18/2022 3:30:00 AM 11.97 53.546 0.531 7.37 10.99 8.93
5/18/2022 3:45:00 AM 11.85 53.33 0.532 7.35 11.28 8.97
5/18/2022 4:00:00 AM 11.74 53.132 0.532 7.35 11.56 8.99
5/18/2022 4:15:00 AM 11.63 52.934 0.532 7.35 14.63 9.01
5/18/2022 4:30:00 AM 11.52 52.736 0.532 7.35 14.06 9.04
5/18/2022 4:45:00 AM 11.42 52.556 0.532 7.36 9.45 9.09
5/18/2022 5:00:00 AM 11.32 52.376 0.532 7.35 12.34 9.12
5/18/2022 5:15:00 AM 11.22 52.196 0.532 7.35 11.72 9.14
5/18/2022 5:30:00 AM 11.13 52.034 0.531 7.36 10.19 9.17
5/18/2022 5:45:00 AM 11.04 51.872 0.532 7.35 9.74 9.2
5/18/2022 6:00:00 AM 10.97 51.746 0.532 7.33 10.17 9.24
5/18/2022 6:15:00 AM 10.89 51.602 0.532 7.32 8.31 9.28
5/18/2022 6:30:00 AM 10.83 51.494 0.532 7.3 9.36 9.32
5/18/2022 6:45:00 AM 10.77 51.386 0.531 7.31 7.67 9.39
5/18/2022 7:00:00 AM 10.73 51.314 0.532 7.32 7.73 9.45
5/18/2022 7:15:00 AM 10.7 51.26 0.531 7.32 7.71 9.5
5/18/2022 7:30:00 AM 10.68 51.224 0.531 7.34 8.63 9.59
5/18/2022 7:45:00 AM 10.68 51.224 0.531 7.33 7.51 9.68
5/18/2022 8:00:00 AM 10.68 51.224 0.531 7.33 7.1 9.79
5/18/2022 8:15:00 AM 10.7 51.26 0.531 7.33 6.89 9.91
5/18/2022 8:30:00 AM 10.74 51.332 0.531 7.35 6.91 10.05
5/18/2022 8:45:00 AM 10.78 51.404 0.531 7.33 7.79 10.18
5/18/2022 9:00:00 AM 10.84 51.512 0.531 7.36 7.57 10.32
5/18/2022 9:15:00 AM 10.92 51.656 0.531 7.36 7.67 10.48
5/18/2022 9:30:00 AM 11 51.8 0.531 7.39 7.49 10.62
5/18/2022 9:45:00 AM 11.09 51.962 0.53 7.41 6.12 10.79
5/18/2022 10:00:00 AM 11.19 52.142 0.529 7.42 5.36 10.95
5/18/2022 10:15:00 AM 11.31 52.358 0.529 7.46 5.45 11.12
5/18/2022 10:30:00 AM 11.43 52.574 0.528 7.47 5.8 11.26
5/18/2022 10:45:00 AM 11.56 52.808 0.528 7.48 4.76 11.42
5/18/2022 11:00:00 AM 11.7 53.06 0.528 7.49 5.21 11.54
5/18/2022 11:15:00 AM 11.87 53.366 0.528 7.52 4.86 11.66
5/18/2022 11:30:00 AM 12.07 53.726 0.527 7.55 7.05 11.78
5/18/2022 11:45:00 AM 12.27 54.086 0.527 7.58 5.36 11.92
5/18/2022 12:00:00 PM 12.47 54.446 0.527 7.59 4.83 12.03
5/18/2022 12:15:00 PM 12.65 54.77 0.526 7.6 5.17 12.11
5/18/2022 12:30:00 PM 12.86 55.148 0.526 7.62 7.17 12.21
5/18/2022 12:45:00 PM 13.08 55.544 0.527 7.67 5.17 12.28
5/18/2022 1:00:00 PM 13.31 55.958 0.526 7.69 6.04 12.36
5/18/2022 1:15:00 PM 13.53 56.354 0.527 7.71 5.59 12.41
5/18/2022 1:30:00 PM 13.73 56.714 0.525 7.74 6 12.47
5/18/2022 1:45:00 PM 13.84 56.912 0.526 7.75 6.12 12.4
5/18/2022 2:00:00 PM 13.93 57.074 0.526 7.76 4.92 12.32
5/18/2022 2:15:00 PM 14.03 57.254 0.525 7.76 5.03 12.21
5/18/2022 2:30:00 PM 14.16 57.488 0.525 7.78 4.91 12.11
5/18/2022 2:45:00 PM 14.28 57.704 0.525 7.83 4.86 12.03
5/18/2022 3:00:00 PM 14.4 57.92 0.524 7.82 6.86 11.99
5/18/2022 3:15:00 PM 14.5 58.1 0.524 7.81 5.4 11.89
5/18/2022 3:30:00 PM 14.58 58.244 0.524 7.8 4.91 11.79
5/18/2022 3:45:00 PM 14.65 58.37 0.525 7.8 5.12 11.6
5/18/2022 4:00:00 PM 14.71 58.478 0.525 7.8 5.03 11.4
5/18/2022 4:15:00 PM 14.76 58.568 0.526 7.79 7.63 11.2
5/18/2022 4:30:00 PM 14.81 58.658 0.527 7.79 5.18 11.03
5/18/2022 4:45:00 PM 14.84 58.712 0.527 7.78 5.12 10.83
5/18/2022 5:00:00 PM 14.85 58.73 0.527 7.77 5.6 10.62
5/18/2022 5:15:00 PM 14.87 58.766 0.526 7.77 5.36 10.52
5/18/2022 5:30:00 PM 14.88 58.784 0.526 7.77 5.26 10.41
5/18/2022 5:45:00 PM 14.9 58.82 0.529 7.74 6.77 10.3
5/18/2022 6:00:00 PM 14.89 58.802 0.526 7.75 5.29 10.17
5/18/2022 6:15:00 PM 14.88 58.784 0.527 7.75 6.36 10.06
5/18/2022 6:30:00 PM 14.88 58.784 0.528 7.75 6.05 9.98
5/18/2022 6:45:00 PM 14.88 58.784 0.528 7.74 5.33 9.92
5/18/2022 7:00:00 PM 14.86 58.748 0.528 7.74 6.81 9.83
5/18/2022 7:15:00 PM 14.82 58.676 0.529 7.73 5.93 9.69
5/18/2022 7:30:00 PM 14.78 58.604 0.529 7.72 7.67 9.55
5/18/2022 7:45:00 PM 14.73 58.514 0.529 7.71 7.36 9.43
5/18/2022 8:00:00 PM 14.67 58.406 0.53 7.71 7.23 9.32
5/18/2022 8:15:00 PM 14.61 58.298 0.531 7.7 6.1 9.22
5/18/2022 8:30:00 PM 14.54 58.172 0.531 7.69 5.83 9.11
5/18/2022 8:45:00 PM 14.46 58.028 0.532 7.68 9.55 9.04
5/18/2022 9:00:00 PM 14.39 57.902 0.532 7.67 5.85 8.97
5/18/2022 9:15:00 PM 14.32 57.776 0.534 7.68 16.03 8.9
5/18/2022 9:30:00 PM 14.25 57.65 0.534 7.66 7.07 8.88
5/18/2022 9:45:00 PM 14.18 57.524 0.534 7.66 7.36 8.83
5/18/2022 10:00:00 PM 14.11 57.398 0.535 7.65 7.96 8.79
5/18/2022 10:15:00 PM 14.03 57.254 0.537 7.64 8.2 8.74
5/18/2022 10:30:00 PM 13.96 57.128 0.537 7.65 10.14 8.71
5/18/2022 10:45:00 PM 13.87 56.966 0.537 7.64 8.56 8.67
5/18/2022 11:00:00 PM 13.78 56.804 0.537 7.63 8.7 8.67
5/18/2022 11:15:00 PM 13.7 56.66 0.536 7.63 9.49 8.66
5/18/2022 11:30:00 PM 13.62 56.516 0.538 7.62 9.06 8.64
5/18/2022 11:45:00 PM 13.53 56.354 0.539 7.62 9.21 8.64
5/19/2022 12:00:00 AM 13.45 56.21 0.538 7.62 8.44 8.62
5/19/2022 12:15:00 AM 13.37 56.066 0.538 7.61 9.01 8.6
5/19/2022 12:30:00 AM 13.28 55.904 0.537 7.61 10.64 8.59
5/19/2022 12:45:00 AM 13.2 55.76 0.536 7.61 11.4 8.56
5/19/2022 1:00:00 AM 13.12 55.616 0.535 7.61 12.38 8.56
5/19/2022 1:15:00 AM 13.04 55.472 0.535 7.6 9.84 8.58
5/19/2022 1:30:00 AM 12.96 55.328 0.534 7.6 9.21 8.57
5/19/2022 1:45:00 AM 12.88 55.184 0.533 7.6 9.17 8.59
5/19/2022 2:00:00 AM 12.81 55.058 0.531 7.6 10.35 8.6
5/19/2022 2:15:00 AM 12.74 54.932 0.53 7.6 8.77 8.61
5/19/2022 2:30:00 AM 12.68 54.824 0.53 7.6 12.22 8.61
5/19/2022 2:45:00 AM 12.62 54.716 0.529 7.6 9.59 8.6
5/19/2022 3:00:00 AM 12.56 54.608 0.528 7.6 12.03 8.61
5/19/2022 3:15:00 AM 12.51 54.518 0.527 7.6 11.72 8.61
5/19/2022 3:30:00 AM 12.46 54.428 0.526 7.6 10.36 8.63
5/19/2022 3:45:00 AM 12.41 54.338 0.526 7.61 10.04 8.65
5/19/2022 4:00:00 AM 12.36 54.248 0.525 7.61 9.54 8.67
5/19/2022 4:15:00 AM 12.32 54.176 0.526 7.61 11.49 8.69
5/19/2022 4:30:00 AM 12.27 54.086 0.525 7.62 9.34 8.71
5/19/2022 4:45:00 AM 12.23 54.014 0.525 7.62 9.86 8.73
5/19/2022 5:00:00 AM 12.2 53.96 0.525 7.63 9.62 8.73
5/19/2022 5:15:00 AM 12.17 53.906 0.524 7.64 10.3 8.75
5/19/2022 5:30:00 AM 12.13 53.834 0.524 7.62 9.62 8.75
5/19/2022 5:45:00 AM 12.11 53.798 0.524 7.63 9.05 8.76
5/19/2022 6:00:00 AM 12.08 53.744 0.523 7.62 8.4 8.78
5/19/2022 6:15:00 AM 12.05 53.69 0.523 7.63 9 8.8
5/19/2022 6:30:00 AM 12.03 53.654 0.526 7.64 8.46 8.81
5/19/2022 6:45:00 AM 12.01 53.618 0.524 7.64 8.1 8.85
5/19/2022 7:00:00 AM 12 53.6 0.522 7.64 7.96 8.89
5/19/2022 7:15:00 AM 11.99 53.582 0.522 7.64 7.23 8.96
5/19/2022 7:30:00 AM 11.98 53.564 0.522 7.64 8.77 8.98
5/19/2022 7:45:00 AM 11.96 53.528 0.522 7.65 7.22 9.01
5/19/2022 8:00:00 AM 11.96 53.528 0.522 7.65 7.31 9.05
5/19/2022 8:15:00 AM 11.97 53.546 0.522 7.66 6 9.18
5/19/2022 8:30:00 AM 11.98 53.564 0.522 7.66 6.32 9.26
5/19/2022 8:45:00 AM 11.98 53.564 0.521 7.66 5.99 9.33
5/19/2022 9:00:00 AM 12 53.6 0.522 7.67 5.51 9.45
5/19/2022 9:15:00 AM 12.02 53.636 0.522 7.68 6.15 9.51
5/19/2022 9:30:00 AM 12.03 53.654 0.523 7.68 4.96 9.56
5/19/2022 9:45:00 AM 12.06 53.708 0.523 7.69 6.27 9.7
5/19/2022 10:00:00 AM 12.11 53.798 0.523 7.7 5.43 9.9
5/19/2022 10:15:00 AM 12.16 53.888 0.523 7.7 5.75 10.01
5/19/2022 10:30:00 AM 12.2 53.96 0.523 7.72 4.88 10.13
5/19/2022 10:45:00 AM 12.28 54.104 0.523 7.74 5.8 10.35
5/19/2022 11:00:00 AM 12.42 54.356 0.523 7.75 5.09 10.61
5/19/2022 11:15:00 AM 12.58 54.644 0.524 7.77 5.01 10.85
5/19/2022 11:30:00 AM 12.72 54.896 0.523 7.79 4.79 11.06
5/19/2022 11:45:00 AM 12.76 54.968 0.524 7.8 5.62 11.07
5/19/2022 12:00:00 PM 12.8 55.04 0.524 7.8 4.75 11.1
5/19/2022 12:15:00 PM 12.85 55.13 0.524 7.82 4.27 11.09
5/19/2022 12:30:00 PM 12.92 55.256 0.525 7.82 4.65 11.18
5/19/2022 12:45:00 PM 13.08 55.544 0.525 7.83 3.97 11.39
5/19/2022 1:00:00 PM 13.26 55.868 0.524 7.86 4.94 11.58
5/19/2022 1:15:00 PM 13.54 56.372 0.524 7.87 4.2 11.78
5/19/2022 1:30:00 PM 13.75 56.75 0.525 7.88 3.86 11.84
5/19/2022 1:45:00 PM 14.03 57.254 0.524 7.9 4.39 12.05
5/19/2022 2:00:00 PM 14.35 57.83 0.523 7.92 6.2 12.22
5/19/2022 2:15:00 PM 14.65 58.37 0.523 7.95 4.13 12.36
5/19/2022 2:30:00 PM 14.83 58.694 0.525 7.96 5.01 12.25
5/19/2022 2:45:00 PM 15.04 59.072 0.523 7.96 3.93 12.32
5/19/2022 3:00:00 PM 15.2 59.36 0.524 7.98 6.23 12.27
5/19/2022 3:15:00 PM 15.46 59.828 0.524 7.99 4.09 12.34
5/19/2022 3:30:00 PM 15.67 60.206 0.523 8 5 12.36
5/19/2022 3:45:00 PM 15.87 60.566 0.523 8.01 5.99 12.37
5/19/2022 4:00:00 PM 15.93 60.674 0.523 8 4.33 12.09
5/19/2022 4:15:00 PM 16.13 61.034 0.523 8 4.99 12.12
5/19/2022 4:30:00 PM 16.26 61.268 0.524 8 4.45 12.03
5/19/2022 4:45:00 PM 16.39 61.502 0.524 8 4.17 11.93
5/19/2022 5:00:00 PM 16.57 61.826 0.525 7.99 10.03 11.89
5/19/2022 5:15:00 PM 16.72 62.096 0.524 8 4.69 11.86
5/19/2022 5:30:00 PM 16.83 62.294 0.523 8.02 7.37 11.74
5/19/2022 5:45:00 PM 16.86 62.348 0.525 8.01 5.24 11.54
5/19/2022 6:00:00 PM 16.86 62.348 0.527 8 4.27 11.25
5/19/2022 6:15:00 PM 16.86 62.348 0.526 7.99 4.44 11.03
5/19/2022 6:30:00 PM 16.88 62.384 0.526 7.98 5.17 10.9
5/19/2022 6:45:00 PM 16.9 62.42 0.527 7.97 5.09 10.76
5/19/2022 7:00:00 PM 16.9 62.42 0.527 7.97 6.51 10.61
5/19/2022 7:15:00 PM 16.89 62.402 0.527 7.96 5.3 10.36
5/19/2022 7:30:00 PM 16.87 62.366 0.527 7.94 4.67 10.15
5/19/2022 7:45:00 PM 16.86 62.348 0.527 7.92 5.7 9.93
5/19/2022 8:00:00 PM 16.84 62.312 0.528 7.91 5.57 9.74
5/19/2022 8:15:00 PM 16.8 62.24 0.528 7.88 6.65 9.52
5/19/2022 8:30:00 PM 16.73 62.114 0.529 7.87 5.76 9.34
5/19/2022 8:45:00 PM 16.65 61.97 0.529 7.84 7.06 9.15
5/19/2022 9:00:00 PM 16.58 61.844 0.531 7.82 7.32 8.98
5/19/2022 9:15:00 PM 16.49 61.682 0.531 7.8 7.04 8.86
5/19/2022 9:30:00 PM 16.41 61.538 0.532 7.77 7.47 8.76
5/19/2022 9:45:00 PM 16.33 61.394 0.532 7.77 7.41 8.68
5/19/2022 10:00:00 PM 16.24 61.232 0.532 7.74 8.32 8.59
5/19/2022 10:15:00 PM 16.15 61.07 0.533 7.75 8.39 8.51
5/19/2022 10:30:00 PM 16.06 60.908 0.534 7.73 7.81 8.44
5/19/2022 10:45:00 PM 15.96 60.728 0.534 7.72 9.28 8.36
5/19/2022 11:00:00 PM 15.86 60.548 0.535 7.71 9.12 8.31
5/19/2022 11:15:00 PM 15.74 60.332 0.536 7.7 9.39 8.26
5/19/2022 11:30:00 PM 15.63 60.134 0.536 7.67 9.98 8.22
5/19/2022 11:45:00 PM 15.5 59.9 0.536 7.66 10.91 8.19
5/20/2022 12:00:00 AM 15.38 59.684 0.536 7.65 8.75 8.16
5/20/2022 12:15:00 AM 15.26 59.468 0.537 7.64 9.22 8.15
5/20/2022 12:30:00 AM 15.14 59.252 0.537 7.63 8.72 8.13
5/20/2022 12:45:00 AM 15.01 59.018 0.538 7.63 9.3 8.12
5/20/2022 1:00:00 AM 14.89 58.802 0.538 7.63 8.64 8.14
5/20/2022 1:15:00 AM 14.77 58.586 0.539 7.62 9.87 8.14
5/20/2022 1:30:00 AM 14.64 58.352 0.538 7.62 9.17 8.16
5/20/2022 1:45:00 AM 14.51 58.118 0.539 7.61 8.77 8.16
5/20/2022 2:00:00 AM 14.38 57.884 0.539 7.6 8.68 8.17
5/20/2022 2:15:00 AM 14.25 57.65 0.539 7.6 10.05 8.21
5/20/2022 2:30:00 AM 14.13 57.434 0.538 7.6 13.55 8.23
5/20/2022 2:45:00 AM 14 57.2 0.539 7.6 7.61 8.26
5/20/2022 3:00:00 AM 13.88 56.984 0.54 7.6 8.67 8.29
5/20/2022 3:15:00 AM 13.75 56.75 0.539 7.6 8.13 8.32
5/20/2022 3:30:00 AM 13.63 56.534 0.539 7.6 7.33 8.35
5/20/2022 3:45:00 AM 13.51 56.318 0.539 7.6 9.88 8.38
5/20/2022 4:00:00 AM 13.39 56.102 0.539 7.59 7.92 8.41
5/20/2022 4:15:00 AM 13.28 55.904 0.538 7.6 8.3 8.44
5/20/2022 4:30:00 AM 13.17 55.706 0.538 7.61 9.53 8.46
5/20/2022 4:45:00 AM 13.08 55.544 0.539 7.6 9.09 8.51
5/20/2022 5:00:00 AM 12.98 55.364 0.538 7.6 10.23 8.54
5/20/2022 5:15:00 AM 12.89 55.202 0.538 7.6 7.05 8.57
5/20/2022 5:30:00 AM 12.81 55.058 0.538 7.61 6.9 8.59
5/20/2022 5:45:00 AM 12.73 54.914 0.538 7.61 7.71 8.62
5/20/2022 6:00:00 AM 12.66 54.788 0.538 7.62 7.37 8.66
5/20/2022 6:15:00 AM 12.58 54.644 0.537 7.62 7.11 8.7
5/20/2022 6:30:00 AM 12.52 54.536 0.537 7.62 7.49 8.73
5/20/2022 6:45:00 AM 12.47 54.446 0.535 7.61 7.27 8.77
5/20/2022 7:00:00 AM 12.44 54.392 0.536 7.61 7.8 8.76
5/20/2022 7:15:00 AM 12.39 54.302 0.536 7.62 6.97 8.79
5/20/2022 7:30:00 AM 12.35 54.23 0.537 7.61 7.34 8.87
5/20/2022 7:45:00 AM 12.31 54.158 0.537 7.62 7.18 8.98
5/20/2022 8:00:00 AM 12.3 54.14 0.536 7.63 7 9.14
5/20/2022 8:15:00 AM 12.3 54.14 0.535 7.63 6.36 9.28
5/20/2022 8:30:00 AM 12.3 54.14 0.533 7.65 5.83 9.41
5/20/2022 8:45:00 AM 12.3 54.14 0.533 7.65 6.05 9.45
5/20/2022 9:00:00 AM 12.29 54.122 0.534 7.65 5.34 9.47
5/20/2022 9:15:00 AM 12.29 54.122 0.531 7.65 5.87 9.48
5/20/2022 9:30:00 AM 12.32 54.176 0.53 7.65 5.47 9.61
5/20/2022 9:45:00 AM 12.37 54.266 0.528 7.66 4.83 9.81
5/20/2022 10:00:00 AM 12.45 54.41 0.529 7.67 4.99 10.04
5/20/2022 10:15:00 AM 12.53 54.554 0.529 7.68 4.59 10.24
5/20/2022 10:30:00 AM 12.62 54.716 0.529 7.69 4.65 10.45
5/20/2022 10:45:00 AM 12.68 54.824 0.53 7.71 4.77 10.62
5/20/2022 11:00:00 AM 12.8 55.04 0.53 7.73 4.57 10.87
5/20/2022 11:15:00 AM 12.96 55.328 0.53 7.75 6.52 11.11
5/20/2022 11:30:00 AM 13.11 55.598 0.529 7.76 3.94 11.3
5/20/2022 11:45:00 AM 13.19 55.742 0.529 7.78 4.66 11.36
5/20/2022 12:00:00 PM 13.22 55.796 0.53 7.78 4.74 11.31
5/20/2022 12:15:00 PM 13.24 55.832 0.531 7.78 4.4 11.1
5/20/2022 12:30:00 PM 13.38 56.084 0.531 7.76 5.3 11.22
5/20/2022 12:45:00 PM 13.58 56.444 0.529 7.78 5.67 11.54
5/20/2022 1:00:00 PM 13.8 56.84 0.527 7.8 4.43 11.79
5/20/2022 1:15:00 PM 13.85 56.93 0.525 7.81 4.19 11.64
5/20/2022 1:30:00 PM 13.87 56.966 0.525 7.82 4.19 11.44
5/20/2022 1:45:00 PM 13.91 57.038 0.523 7.81 4.83 11.26
5/20/2022 2:00:00 PM 13.99 57.182 0.522 7.82 4.85 11.22
5/20/2022 2:15:00 PM 14.1 57.38 0.521 7.82 4.93 11.2
5/20/2022 2:30:00 PM 14.21 57.578 0.52 7.83 4.41 11.18
5/20/2022 2:45:00 PM 14.28 57.704 0.518 7.84 5 11.07
5/20/2022 3:00:00 PM 14.32 57.776 0.518 7.83 4.51 10.92
5/20/2022 3:15:00 PM 14.35 57.83 0.519 7.81 5.36 10.76
5/20/2022 3:30:00 PM 14.4 57.92 0.518 7.81 5.8 10.73
5/20/2022 3:45:00 PM 14.47 58.046 0.518 7.82 6.08 10.75
5/20/2022 4:00:00 PM 14.53 58.154 0.519 7.83 4.97 10.75
5/20/2022 4:15:00 PM 14.63 58.334 0.519 7.84 5.76 10.86
5/20/2022 4:30:00 PM 14.75 58.55 0.518 7.85 5.37 11.01
5/20/2022 4:45:00 PM 14.82 58.676 0.52 7.86 5.36 10.98
5/20/2022 5:00:00 PM 14.87 58.766 0.52 7.86 4.84 10.9
5/20/2022 5:15:00 PM 14.91 58.838 0.519 7.86 5.27 10.82
5/20/2022 5:30:00 PM 15.03 59.054 0.52 7.87 5.74 10.91
5/20/2022 5:45:00 PM 15.14 59.252 0.519 7.87 11.03 11.01
5/20/2022 6:00:00 PM 15.25 59.45 0.518 7.88 6.76 11.03
5/20/2022 6:15:00 PM 15.3 59.54 0.516 7.87 6.16 10.92
5/20/2022 6:30:00 PM 15.32 59.576 0.516 7.87 4.71 10.75
5/20/2022 6:45:00 PM 15.33 59.594 0.516 7.86 5.49 10.55
5/20/2022 7:00:00 PM 15.34 59.612 0.516 7.85 5.74 10.42
5/20/2022 7:15:00 PM 15.36 59.648 0.515 7.85 5.2 10.27
5/20/2022 7:30:00 PM 15.37 59.666 0.516 7.83 5.54 10.14
5/20/2022 7:45:00 PM 15.37 59.666 0.516 7.82 5.09 9.96
5/20/2022 8:00:00 PM 15.37 59.666 0.517 7.81 7.23 9.83
5/20/2022 8:15:00 PM 15.36 59.648 0.518 7.8 5.39 9.67
5/20/2022 8:30:00 PM 15.34 59.612 0.518 7.79 5.93 9.54
5/20/2022 8:45:00 PM 15.33 59.594 0.519 7.78 6.71 9.41
5/20/2022 9:00:00 PM 15.31 59.558 0.521 7.76 7.61 9.27
5/20/2022 9:15:00 PM 15.28 59.504 0.521 7.75 6.71 9.17
5/20/2022 9:30:00 PM 15.25 59.45 0.522 7.74 7.79 9.05
5/20/2022 9:45:00 PM 15.22 59.396 0.523 7.73 8.27 8.97
5/20/2022 10:00:00 PM 15.19 59.342 0.524 7.71 9.5 8.88
5/20/2022 10:15:00 PM 15.16 59.288 0.526 7.71 10.44 8.79
5/20/2022 10:30:00 PM 15.13 59.234 0.526 7.7 8.71 8.73
5/20/2022 10:45:00 PM 15.09 59.162 0.526 7.69 8.18 8.66
5/20/2022 11:00:00 PM 15.03 59.054 0.526 7.69 10.15 8.61
5/20/2022 11:15:00 PM 14.97 58.946 0.527 7.68 12.15 8.56
5/20/2022 11:30:00 PM 14.9 58.82 0.527 7.68 8.37 8.5
5/20/2022 11:45:00 PM 14.82 58.676 0.527 7.66 9.75 8.45
5/21/2022 12:00:00 AM 14.75 58.55 0.528 7.65 10.37 8.42
5/21/2022 12:15:00 AM 14.67 58.406 0.529 7.65 15.74 8.38
5/21/2022 12:30:00 AM 14.59 58.262 0.529 7.64 9.35 8.36
5/21/2022 12:45:00 AM 14.52 58.136 0.53 7.64 9.85 8.34
5/21/2022 1:00:00 AM 14.45 58.01 0.53 7.63 9.53 8.33
5/21/2022 1:15:00 AM 14.38 57.884 0.531 7.62 9.09 8.31
5/21/2022 1:30:00 AM 14.31 57.758 0.532 7.62 9.33 8.31
5/21/2022 1:45:00 AM 14.23 57.614 0.532 7.62 16.29 8.3
5/21/2022 2:00:00 AM 14.16 57.488 0.533 7.61 8.08 8.31
5/21/2022 2:15:00 AM 14.09 57.362 0.533 7.6 7.52 8.32
5/21/2022 2:30:00 AM 14.02 57.236 0.534 7.6 8.54 8.31
5/21/2022 2:45:00 AM 13.96 57.128 0.534 7.6 8.7 8.32
5/21/2022 3:00:00 AM 13.9 57.02 0.534 7.6 9.3 8.33
5/21/2022 3:15:00 AM 13.84 56.912 0.534 7.6 8.17 8.34
5/21/2022 3:30:00 AM 13.78 56.804 0.534 7.6 9.28 8.35
5/21/2022 3:45:00 AM 13.72 56.696 0.535 7.6 7.61 8.38
5/21/2022 4:00:00 AM 13.66 56.588 0.535 7.59 8.52 8.39
5/21/2022 4:15:00 AM 13.59 56.462 0.535 7.6 9.27 8.41
5/21/2022 4:30:00 AM 13.53 56.354 0.535 7.6 8.77 8.44
5/21/2022 4:45:00 AM 13.46 56.228 0.535 7.6 7.83 8.46
5/21/2022 5:00:00 AM 13.4 56.12 0.535 7.6 9.72 8.47
5/21/2022 5:15:00 AM 13.34 56.012 0.535 7.6 8.83 8.49
5/21/2022 5:30:00 AM 13.27 55.886 0.535 7.6 10.15 8.51
5/21/2022 5:45:00 AM 13.21 55.778 0.535 7.61 7.09 8.53
5/21/2022 6:00:00 AM 13.15 55.67 0.535 7.61 8.31 8.55
5/21/2022 6:15:00 AM 13.09 55.562 0.535 7.61 8.52 8.59
5/21/2022 6:30:00 AM 13.04 55.472 0.535 7.6 6.54 8.65
5/21/2022 6:45:00 AM 12.99 55.382 0.535 7.61 5.92 8.72
5/21/2022 7:00:00 AM 12.96 55.328 0.535 7.62 7.61 8.8
5/21/2022 7:15:00 AM 12.93 55.274 0.535 7.62 6.95 8.9
5/21/2022 7:30:00 AM 12.91 55.238 0.519 7.62 7.09 9.01
5/21/2022 7:45:00 AM 12.89 55.202 0.535 7.63 6.98 9.08
5/21/2022 8:00:00 AM 12.89 55.202 0.535 7.64 6.41 9.22
5/21/2022 8:15:00 AM 12.91 55.238 0.534 7.65 5.43 9.4
5/21/2022 8:30:00 AM 12.94 55.292 0.534 7.66 5.19 9.58
5/21/2022 8:45:00 AM 12.96 55.328 0.534 7.67 4.86 9.76
5/21/2022 9:00:00 AM 13.01 55.418 0.534 7.68 5.26 9.93
5/21/2022 9:15:00 AM 13.04 55.472 0.534 7.7 5.11 10.05
5/21/2022 9:30:00 AM 13.12 55.616 0.534 7.71 5.02 10.22
5/21/2022 9:45:00 AM 13.21 55.778 0.534 7.72 4.62 10.4
5/21/2022 10:00:00 AM 13.33 55.994 0.533 7.72 4.49 10.55
5/21/2022 10:15:00 AM 13.45 56.21 0.533 7.73 5.49 10.72
5/21/2022 10:30:00 AM 13.6 56.48 0.533 7.75 4.8 10.89
5/21/2022 10:45:00 AM 13.76 56.768 0.532 7.77 3.95 11.09
5/21/2022 11:00:00 AM 13.95 57.11 0.533 7.78 5.46 11.27
5/21/2022 11:15:00 AM 14.16 57.488 0.531 7.79 4.7 11.43
5/21/2022 11:30:00 AM 14.34 57.812 0.53 7.82 5.57 11.53
5/21/2022 11:45:00 AM 14.54 58.172 0.53 7.83 5.07 11.63
5/21/2022 12:00:00 PM 14.68 58.424 0.53 7.84 4.13 11.68
5/21/2022 12:15:00 PM 14.97 58.946 0.53 7.85 3.74 11.9
5/21/2022 12:30:00 PM 15.28 59.504 0.528 7.87 5.54 12.09
5/21/2022 12:45:00 PM 15.58 60.044 0.53 7.9 4.29 12.24
5/21/2022 1:00:00 PM 15.76 60.368 0.53 7.91 3.9 12.22
5/21/2022 1:15:00 PM 15.93 60.674 0.53 7.92 4.36 12.17
5/21/2022 1:30:00 PM 16.1 60.98 0.529 7.93 4.01 12.22
5/21/2022 1:45:00 PM 16.4 61.52 0.528 7.95 5.47 12.36
5/21/2022 2:00:00 PM 16.7 62.06 0.528 7.96 4.29 12.47
5/21/2022 2:15:00 PM 17.02 62.636 0.526 7.98 5.17 12.54
5/21/2022 2:30:00 PM 17.17 62.906 0.525 7.99 4.22 12.35
5/21/2022 2:45:00 PM 17.34 63.212 0.525 8 4.91 12.26
5/21/2022 3:00:00 PM 17.57 63.626 0.526 8 5.83 12.28
5/21/2022 3:15:00 PM 17.83 64.094 0.523 8.01 52.22 12.33
5/21/2022 3:30:00 PM 18.08 64.544 0.523 8.03 5.83 12.31
5/21/2022 3:45:00 PM 18.29 64.922 0.522 8.04 4.92 12.18
5/21/2022 4:00:00 PM 18.48 65.264 0.522 8.06 3.96 12.13
5/21/2022 4:15:00 PM 18.55 65.39 0.524 8.06 5.1 11.89
5/21/2022 4:30:00 PM 18.7 65.66 0.523 8.06 5.1 11.82
5/21/2022 4:45:00 PM 18.79 65.82201 0.52 8.08 5.8 11.59
5/21/2022 5:00:00 PM 18.94 66.092 0.519 8.08 4.78 11.53
5/21/2022 5:15:00 PM 19.05 66.29 0.519 8.09 4.02 11.42
5/21/2022 5:30:00 PM 19.15 66.47 0.519 8.07 4.8 11.28
5/21/2022 5:45:00 PM 19.2 66.56 0.519 8.07 6.36 11.08
5/21/2022 6:00:00 PM 19.24 66.632 0.518 8.06 6.29 10.89
5/21/2022 6:15:00 PM 19.27 66.686 0.521 8.03 5.15 10.65
5/21/2022 6:30:00 PM 19.3 66.74 0.521 8.01 5.03 10.43
5/21/2022 6:45:00 PM 19.31 66.758 0.521 8.01 6.21 10.23
5/21/2022 7:00:00 PM 19.31 66.758 0.521 8 5.12 10.04
5/21/2022 7:15:00 PM 19.3 66.74 0.522 7.98 5.55 9.76
5/21/2022 7:30:00 PM 19.27 66.686 0.523 7.97 6.12 9.52
5/21/2022 7:45:00 PM 19.24 66.632 0.524 7.95 5.82 9.28
5/21/2022 8:00:00 PM 19.19 66.542 0.525 7.91 6.71 9.06
5/21/2022 8:15:00 PM 19.13 66.434 0.525 7.9 7.18 8.86
5/21/2022 8:30:00 PM 19.07 66.326 0.526 7.87 5.66 8.66
5/21/2022 8:45:00 PM 19 66.2 0.527 7.85 7.66 8.48
5/21/2022 9:00:00 PM 18.93 66.074 0.528 7.82 6.75 8.33
5/21/2022 9:15:00 PM 18.86 65.948 0.528 7.81 7.08 8.2
5/21/2022 9:30:00 PM 18.78 65.804 0.528 7.78 8.19 8.05
5/21/2022 9:45:00 PM 18.7 65.66 0.528 7.77 7.85 7.96
5/21/2022 10:00:00 PM 18.62 65.516 0.529 7.76 8.53 7.88
5/21/2022 10:15:00 PM 18.53 65.354 0.53 7.74 8.57 7.79
5/21/2022 10:30:00 PM 18.43 65.174 0.53 7.77 8.64 7.73
5/21/2022 10:45:00 PM 18.32 64.976 0.463 7.71 6.91 7.68
5/21/2022 11:00:00 PM 18.22 64.796 0.461 7.74 8.02 7.61
5/21/2022 11:15:00 PM 18.11 64.598 0.476 7.69 6.65 7.55
5/21/2022 11:30:00 PM 17.99 64.382 0.477 7.7 7 7.51
5/21/2022 11:45:00 PM 17.88 64.184 0.481 7.67 7.6 7.48
5/22/2022 12:00:00 AM 17.78 64.004 0.483 7.65 6.8 7.44
5/22/2022 12:15:00 AM 17.67 63.806 0.484 7.69 7.51 7.42
5/22/2022 12:30:00 AM 17.54 63.572 0.484 7.64 7.76 7.41
5/22/2022 12:45:00 AM 17.41 63.338 0.486 7.64 8.83 7.39
5/22/2022 1:00:00 AM 17.28 63.104 0.486 7.67 6.96 7.39
5/22/2022 1:15:00 AM 17.14 62.852 0.486 7.66 10.27 7.4
5/22/2022 1:30:00 AM 17.01 62.618 0.486 7.67 8.16 7.39
5/22/2022 1:45:00 AM 16.88 62.384 0.485 7.63 8.3 7.4
5/22/2022 2:00:00 AM 16.76 62.168 0.487 7.63 7.19 7.42
5/22/2022 2:15:00 AM 16.63 61.934 0.485 7.62 10.79 7.43
5/22/2022 2:30:00 AM 16.5 61.7 0.486 7.62 8.29 7.47
5/22/2022 2:45:00 AM 16.38 61.484 0.485 7.65 7.97 7.5
5/22/2022 3:00:00 AM 16.25 61.25 0.486 7.65 8.39 7.52
5/22/2022 3:15:00 AM 16.12 61.016 0.485 7.62 6.89 7.56
5/22/2022 3:30:00 AM 15.99 60.782 0.487 7.61 7.47 7.58
5/22/2022 3:45:00 AM 15.86 60.548 0.486 7.61 7.44 7.62
5/22/2022 4:00:00 AM 15.74 60.332 0.485 7.63 6.46 7.66
5/22/2022 4:15:00 AM 15.62 60.116 0.485 7.62 6.65 7.69
5/22/2022 4:30:00 AM 15.5 59.9 0.486 7.63 9.73 7.73
5/22/2022 4:45:00 AM 15.38 59.684 0.484 7.65 10.72 7.76
5/22/2022 5:00:00 AM 15.26 59.468 0.487 7.61 7.72 7.8
5/22/2022 5:15:00 AM 15.14 59.252 0.484 7.65 9.2 7.85
5/22/2022 5:30:00 AM 15.02 59.036 0.485 7.63 8.18 7.87
5/22/2022 5:45:00 AM 14.9 58.82 0.485 7.64 8.45 7.91
5/22/2022 6:00:00 AM 14.79 58.622 0.485 7.66 8.61 7.96
5/22/2022 6:15:00 AM 14.69 58.442 0.484 7.63 7.09 8.01
5/22/2022 6:30:00 AM 14.59 58.262 0.485 7.63 5.39 8.09
5/22/2022 6:45:00 AM 14.48 58.064 0.484 7.62 6.05 8.16
5/22/2022 7:00:00 AM 14.4 57.92 0.484 7.63 9.32 8.26
5/22/2022 7:15:00 AM 14.33 57.794 0.485 7.64 6.11 8.35
5/22/2022 7:30:00 AM 14.26 57.668 0.484 7.64 5.09 8.43
5/22/2022 7:45:00 AM 14.21 57.578 0.483 7.66 11.8 8.54
5/22/2022 8:00:00 AM 14.17 57.506 0.485 7.66 5.15 8.69
5/22/2022 8:15:00 AM 14.14 57.452 0.484 7.67 7.07 8.82
5/22/2022 8:30:00 AM 14.13 57.434 0.483 7.68 5.67 9.01
5/22/2022 8:45:00 AM 14.11 57.398 0.484 7.69 5.97 9.18
5/22/2022 9:00:00 AM 14.13 57.434 0.482 7.69 4.49 9.34
5/22/2022 9:15:00 AM 14.16 57.488 0.483 7.7 5.15 9.53
5/22/2022 9:30:00 AM 14.21 57.578 0.482 7.75 4.66 9.71
5/22/2022 9:45:00 AM 14.28 57.704 0.483 7.76 4.85 9.9
5/22/2022 10:00:00 AM 14.37 57.866 0.482 7.78 4.33 10.11
5/22/2022 10:15:00 AM 14.46 58.028 0.481 7.79 4.52 10.3
5/22/2022 10:30:00 AM 14.58 58.244 0.48 7.8 5.15 10.48
5/22/2022 10:45:00 AM 14.72 58.496 0.48 7.81 6.62 10.65
5/22/2022 11:00:00 AM 14.87 58.766 0.481 7.79 4.21 10.84
5/22/2022 11:15:00 AM 15.03 59.054 0.48 7.82 5.02 11.01
5/22/2022 11:30:00 AM 15.2 59.36 0.48 7.83 6.31 11.16
5/22/2022 11:45:00 AM 15.39 59.702 0.479 7.87 6.75 11.33
5/22/2022 12:00:00 PM 15.61 60.098 0.479 7.88 4.47 11.5
5/22/2022 12:15:00 PM 15.84 60.512 0.479 7.9 4.36 11.61
5/22/2022 12:30:00 PM 16.09 60.962 0.475 7.92 5.19 11.77
5/22/2022 12:45:00 PM 16.36 61.448 0.472 7.97 6.28 11.9
5/22/2022 1:00:00 PM 16.63 61.934 0.471 7.97 3.97 12.03
5/22/2022 1:15:00 PM 16.72 62.096 0.47 7.96 4.1 11.83
5/22/2022 1:30:00 PM 16.71 62.078 0.47 7.96 4.31 11.37
5/22/2022 1:45:00 PM 16.98 62.564 0.481 7.92 7.77 11.07
5/22/2022 2:00:00 PM 17.11 62.798 0.474 7.92 5.82 11.39
5/22/2022 2:15:00 PM 17.4 63.32 0.468 7.95 6.19 11.74
5/22/2022 2:30:00 PM 17.67 63.806 0.467 8 4.74 11.91
5/22/2022 2:45:00 PM 17.87 64.166 0.465 8.02 4.51 11.94
5/22/2022 3:00:00 PM 18.05 64.49 0.462 8.04 6.45 11.9
5/22/2022 3:15:00 PM 18.2 64.76 0.461 8.06 5.22 11.77
5/22/2022 3:30:00 PM 18.31 64.958 0.46 8.04 6.29 11.61
5/22/2022 3:45:00 PM 18.54 65.372 0.457 8.07 5.7 11.65
5/22/2022 4:00:00 PM 18.77 65.786 0.45 8.07 8.22 11.7
5/22/2022 4:15:00 PM 18.96 66.128 0.447 8.09 7.67 11.62
5/22/2022 4:30:00 PM 19.03 66.254 0.442 8.06 7.02 11.35
5/22/2022 4:45:00 PM 19.08 66.344 0.437 8.05 5.85 11.13
5/22/2022 5:00:00 PM 19.18 66.524 0.429 8.04 10.51 11.06
5/22/2022 5:15:00 PM 19.22 66.596 0.466 8.05 7.76 10.94
5/22/2022 5:30:00 PM 19.24 66.632 0.467 8.04 7.18 10.71
5/22/2022 5:45:00 PM 19.24 66.632 0.466 8.06 6.61 10.46
5/22/2022 6:00:00 PM 19.23 66.614 0.468 8.05 7.79 10.15
5/22/2022 6:15:00 PM 19.22 66.596 0.468 8.01 11.84 9.86
5/22/2022 6:30:00 PM 19.2 66.56 0.468 8.03 5.74 9.69
5/22/2022 6:45:00 PM 19.2 66.56 0.469 7.97 7.59 9.59
5/22/2022 7:00:00 PM 19.18 66.524 0.467 7.96 6.34 9.41
5/22/2022 7:15:00 PM 19.14 66.452 0.467 7.97 5.5 9.19
5/22/2022 7:30:00 PM 19.08 66.344 0.465 7.92 6.29 8.92
5/22/2022 7:45:00 PM 19.03 66.254 0.465 7.9 7.22 8.72
5/22/2022 8:00:00 PM 18.99 66.182 0.464 7.87 6.3 8.52
5/22/2022 8:15:00 PM 18.94 66.092 0.462 7.86 7.14 8.37
5/22/2022 8:30:00 PM 18.87 65.966 0.465 7.83 7.04 8.2
5/22/2022 8:45:00 PM 18.79 65.82201 0.465 7.81 9.37 8.03
5/22/2022 9:00:00 PM 18.69 65.642 0.467 7.78 8.35 7.86
5/22/2022 9:15:00 PM 18.59 65.462 0.469 7.75 7.87 7.75
5/22/2022 9:30:00 PM 18.48 65.264 0.47 7.74 8.4 7.68
5/22/2022 9:45:00 PM 18.37 65.066 0.471 7.73 10.51 7.64
5/22/2022 10:00:00 PM 18.25 64.85 0.472 7.73 10.42 7.6
5/22/2022 10:15:00 PM 18.12 64.616 0.471 7.71 9.39 7.55
5/22/2022 10:30:00 PM 17.97 64.346 0.474 7.71 10.03 7.52
5/22/2022 10:45:00 PM 17.82 64.076 0.475 7.69 10.05 7.48
5/22/2022 11:00:00 PM 17.68 63.824 0.476 7.68 9.08 7.45
5/22/2022 11:15:00 PM 17.53 63.554 0.476 7.67 11.26 7.43
5/22/2022 11:30:00 PM 17.37 63.266 0.477 7.67 8.36 7.43
5/22/2022 11:45:00 PM 17.21 62.978 0.478 7.66 8.97 7.43
5/23/2022 12:00:00 AM 17.06 62.708 0.479 7.66 9.31 7.43
5/23/2022 12:15:00 AM 16.91 62.438 0.48 7.65 10.4 7.44
5/23/2022 12:30:00 AM 16.76 62.168 0.482 7.65 8.91 7.44
5/23/2022 12:45:00 AM 16.61 61.898 0.482 7.64 10.75 7.43
5/23/2022 1:00:00 AM 16.46 61.628 0.484 7.64 13.49 7.47
5/23/2022 1:15:00 AM 16.31 61.358 0.485 7.64 9.06 7.48
5/23/2022 1:30:00 AM 16.16 61.088 0.485 7.64 8.97 7.52
5/23/2022 1:45:00 AM 16.02 60.836 0.486 7.63 9.03 7.53
5/23/2022 2:00:00 AM 15.87 60.566 0.486 7.64 9.77 7.56
5/23/2022 2:15:00 AM 15.73 60.314 0.487 7.63 10.08 7.62
5/23/2022 2:30:00 AM 15.58 60.044 0.487 7.64 8.66 7.65
5/23/2022 2:45:00 AM 15.43 59.774 0.487 7.63 8.34 7.69
5/23/2022 3:00:00 AM 15.29 59.522 0.487 7.62 8.13 7.73
5/23/2022 3:15:00 AM 15.15 59.27 0.488 7.63 9.27 7.77
5/23/2022 3:30:00 AM 15 59 0.488 7.62 8.94 7.83
5/23/2022 3:45:00 AM 14.86 58.748 0.489 7.63 7.99 7.86
5/23/2022 4:00:00 AM 14.72 58.496 0.488 7.62 7.52 7.89
5/23/2022 4:15:00 AM 14.58 58.244 0.489 7.63 17.76 7.97
5/23/2022 4:30:00 AM 14.45 58.01 0.49 7.63 8.49 8
5/23/2022 4:45:00 AM 14.32 57.776 0.49 7.64 6.96 8.04
5/23/2022 5:00:00 AM 14.2 57.56 0.491 7.63 8.52 8.08
5/23/2022 5:15:00 AM 14.08 57.344 0.49 7.64 6.4 8.14
5/23/2022 5:30:00 AM 13.97 57.146 0.491 7.64 7.34 8.17
5/23/2022 5:45:00 AM 13.84 56.912 0.491 7.64 6.56 8.2
5/23/2022 6:00:00 AM 13.73 56.714 0.49 7.64 6.51 8.25
5/23/2022 6:15:00 AM 13.61 56.498 0.49 7.64 7.03 8.3
5/23/2022 6:30:00 AM 13.51 56.318 0.491 7.64 11.54 8.37
5/23/2022 6:45:00 AM 13.41 56.138 0.49 7.65 5.8 8.45
5/23/2022 7:00:00 AM 13.32 55.976 0.49 7.65 5.81 8.53
5/23/2022 7:15:00 AM 13.23 55.814 0.494 7.64 6.95 8.58
5/23/2022 7:30:00 AM 13.15 55.67 0.49 7.64 6.94 8.67
5/23/2022 7:45:00 AM 13.09 55.562 0.491 7.66 6.99 8.78
5/23/2022 8:00:00 AM 13.03 55.454 0.392 7.06 9.12 9.23
5/23/2022 8:15:00 AM 12.99 55.382 0.392 7.24 8.56 9.37
5/23/2022 8:30:00 AM 12.97 55.346 0.392 7.32 6.62 9.54
5/23/2022 8:45:00 AM 12.94 55.292 0.391 7.42 5.91 9.66
5/23/2022 9:00:00 AM 12.94 55.292 0.391 7.71 6.87 9.85
5/23/2022 9:15:00 AM 12.96 55.328 0.391 9.19 6.06 10.02
5/23/2022 9:30:00 AM 13.01 55.418 0.391 9.77 10.12 10.21
5/23/2022 9:45:00 AM 13.09 55.562 0.392 10.15 5.67 10.41
5/23/2022 10:00:00 AM 13.18 55.724 0.391 10.33 8.18 10.62
5/23/2022 10:15:00 AM 13.29 55.922 0.391 10.33 11.66 10.8
5/23/2022 10:30:00 AM 13.37 56.066 0.391 10.43 8.67 11.02
5/23/2022 10:45:00 AM 13.47 56.246 0.391 10.24 12.74 11.26
5/23/2022 11:00:00 AM 13.56 56.408 0.39 10.15 13.34 11.47
5/23/2022 11:15:00 AM 13.66 56.588 0.39 10.01 11.24 11.64
5/23/2022 11:30:00 AM 13.76 56.768 0.39 9.95 9.56 11.76
5/23/2022 11:45:00 AM 13.88 56.984 0.39 9.92 12.23 11.95
5/23/2022 12:00:00 PM 13.96 57.128 0.39 9.79 18.84 12.01
5/23/2022 12:15:00 PM 14.08 57.344 0.389 9.53 8.05 12.19
5/23/2022 12:30:00 PM 14.22 57.596 0.389 9.63 17.76 12.26
5/23/2022 12:45:00 PM 14.36 57.848 0.389 9.4 5.95 12.35
5/23/2022 1:00:00 PM 14.49 58.082 0.388 9.48 6.04 12.41
5/23/2022 1:15:00 PM 14.57 58.226 0.388 9.39 7.26 12.4
5/23/2022 1:30:00 PM 14.65 58.37 0.387 9.33 10.5 12.38
5/23/2022 1:45:00 PM 14.81 58.658 0.386 9.24 12.1 12.46
5/23/2022 2:00:00 PM 14.99 58.982 0.386 9.17 12.69 12.6
5/23/2022 2:15:00 PM 15.14 59.252 0.386 9.14 5.28 12.64
5/23/2022 2:30:00 PM 15.21 59.378 0.386 9.11 6.58 12.77
5/23/2022 2:45:00 PM 15.26 59.468 0.385 9.08 6.13 12.64
5/23/2022 3:00:00 PM 15.32 59.576 0.385 9.04 6.24 12.56
5/23/2022 3:15:00 PM 15.37 59.666 0.384 9.1 10.34 12.4
5/23/2022 3:30:00 PM 15.45 59.81 0.384 9.08 14.16 12.34
5/23/2022 3:45:00 PM 15.52 59.936 0.383 9.06 21.62 12.27
5/23/2022 4:00:00 PM 15.58 60.044 0.383 9.11 6.04 12.14
5/23/2022 4:15:00 PM 15.63 60.134 0.383 9.06 5.67 11.94
5/23/2022 4:30:00 PM 15.65 60.17 0.383 9.06 6.1 11.8
5/23/2022 4:45:00 PM 15.67 60.206 0.383 9.07 5.64 11.59
5/23/2022 5:00:00 PM 15.68 60.224 0.383 9.05 6.95 11.42
5/23/2022 5:15:00 PM 15.7 60.26 0.383 9.04 5.43 11.28
5/23/2022 5:30:00 PM 15.72 60.296 0.383 9.07 5.15 11.12
5/23/2022 5:45:00 PM 15.73 60.314 0.383 9.05 5.39 10.96
5/23/2022 6:00:00 PM 15.74 60.332 0.383 8.99 5.58 10.81
5/23/2022 6:15:00 PM 15.74 60.332 0.384 8.96 6.25 10.67
5/23/2022 6:30:00 PM 15.73 60.314 0.384 8.96 5.67 10.48
5/23/2022 6:45:00 PM 15.72 60.296 0.384 8.97 6.18 10.33
5/23/2022 7:00:00 PM 15.71 60.278 0.385 8.94 5.45 10.14
5/23/2022 7:15:00 PM 15.68 60.224 0.385 8.95 8 10.01
5/23/2022 7:30:00 PM 15.65 60.17 0.385 8.85 5.35 9.84
5/23/2022 7:45:00 PM 15.62 60.116 0.386 8.77 6.27 9.7
5/23/2022 8:00:00 PM 15.57 60.026 0.386 8.71 6.86 9.57
5/23/2022 8:15:00 PM 15.52 59.936 0.386 8.66 7.64 9.44
5/23/2022 8:30:00 PM 15.48 59.864 0.387 8.66 7.76 9.29
5/23/2022 8:45:00 PM 15.42 59.756 0.387 8.58 6.88 9.15
5/23/2022 9:00:00 PM 15.37 59.666 0.388 8.6 6.14 9.04
5/23/2022 9:15:00 PM 15.32 59.576 0.389 8.57 8.1 8.93
5/23/2022 9:30:00 PM 15.26 59.468 0.389 8.55 33.17 8.85
5/23/2022 9:45:00 PM 15.21 59.378 0.39 8.55 44.9 8.74
5/23/2022 10:00:00 PM 15.15 59.27 0.39 8.59 15.78 8.71
5/23/2022 10:15:00 PM 15.09 59.162 0.391 8.61 46.85 8.65
5/23/2022 10:30:00 PM 15.03 59.054 0.391 8.62 36.22 8.59
5/23/2022 10:45:00 PM 14.97 58.946 0.392 8.59 132.6 8.54
5/23/2022 11:00:00 PM 14.91 58.838 0.392 8.57 85.03 8.47
5/23/2022 11:15:00 PM 14.84 58.712 0.393 8.51 10.47 8.43
5/23/2022 11:30:00 PM 14.77 58.586 0.393 8.52 39.09 8.43
5/23/2022 11:45:00 PM 14.71 58.478 0.394 8.39 13.37 8.41
5/24/2022 12:00:00 AM 14.63 58.334 0.394 8.52 115.7 8.38
5/24/2022 12:15:00 AM 14.56 58.208 0.395 8.49 109.6 8.38
5/24/2022 12:30:00 AM 14.5 58.1 0.395 8.42 109.2 8.36
5/24/2022 12:45:00 AM 14.42 57.956 0.396 8.42 93.95 8.36
5/24/2022 1:00:00 AM 14.36 57.848 0.396 8.42 159 8.36
5/24/2022 1:15:00 AM 14.28 57.704 0.396 8.24 69.31 8.37
5/24/2022 1:30:00 AM 14.21 57.578 0.397 8.31 116.6 8.37
5/24/2022 1:45:00 AM 14.14 57.452 0.398 8.22 68.38 8.37
5/24/2022 2:00:00 AM 14.07 57.326 0.398 8.39 19.93 8.38
5/24/2022 2:15:00 AM 14 57.2 0.399 8.29 20.85 8.41
5/24/2022 2:30:00 AM 13.92 57.056 0.399 8.25 218.4 8.41
5/24/2022 2:45:00 AM 13.84 56.912 0.398 8.24 25.39 8.44
5/24/2022 3:00:00 AM 13.76 56.768 0.398 8.21 75.77 8.43
5/24/2022 3:15:00 AM 13.69 56.642 0.398 8.3 10.75 8.46
5/24/2022 3:30:00 AM 13.59 56.462 0.398 8.29 87.25 8.51
5/24/2022 3:45:00 AM 13.52 56.336 0.398 8.27 34.44 8.5
5/24/2022 4:00:00 AM 13.45 56.21 0.398 8.28 11.94 8.5
5/24/2022 4:15:00 AM 13.37 56.066 0.398 8.27 78.6 8.54
5/24/2022 4:30:00 AM 13.31 55.958 0.398 8.23 15.74 8.56
5/24/2022 4:45:00 AM 13.24 55.832 0.398 8.24 24.04 8.6
5/24/2022 5:00:00 AM 13.18 55.724 0.398 8.28 23.15 8.61
5/24/2022 5:15:00 AM 13.12 55.616 0.398 8.3 42.69 8.63
5/24/2022 5:30:00 AM 13.06 55.508 0.397 8.24 43.75 8.67
5/24/2022 5:45:00 AM 13 55.4 0.398 8.14 110 8.67
5/24/2022 6:00:00 AM 12.95 55.31 0.397 8.17 50.19 8.71
5/24/2022 6:15:00 AM 12.89 55.202 0.397 8.16 170.8 8.72
5/24/2022 6:30:00 AM 12.84 55.112 0.397 8.17 101.7 8.8
5/24/2022 6:45:00 AM 12.81 55.058 0.397 8.31 214.9 8.8
5/24/2022 7:00:00 AM 12.76 54.968 0.397 8.24 39.72 8.87
5/24/2022 7:15:00 AM 12.73 54.914 0.397 8.24 22.72 8.94
5/24/2022 7:30:00 AM 12.7 54.86 0.397 8.18 28.18 9.01
5/24/2022 7:45:00 AM 12.67 54.806 0.397 8.25 70.49 9.09
5/24/2022 8:00:00 AM 12.66 54.788 0.397 8.23 38.59 9.23
5/24/2022 8:15:00 AM 12.65 54.77 0.397 8.21 102.2 9.37
5/24/2022 8:30:00 AM 12.64 54.752 0.397 8.23 16.46 9.48
5/24/2022 8:45:00 AM 12.64 54.752 0.397 8.31 259.4 9.55
5/24/2022 9:00:00 AM 12.64 54.752 0.396 8.2 33.57 9.68
5/24/2022 9:15:00 AM 12.65 54.77 0.396 8.19 34.77 9.81
5/24/2022 9:30:00 AM 12.66 54.788 0.396 8.21 5.66 9.99
5/24/2022 9:45:00 AM 12.69 54.842 0.396 8.21 177.1 10.07
5/24/2022 10:00:00 AM 12.72 54.896 0.396 8.22 85.38 10.23
5/24/2022 10:15:00 AM 12.78 55.004 0.396 8.23 70.44 10.42
5/24/2022 10:30:00 AM 12.86 55.148 0.396 8.21 68.8 10.64
5/24/2022 10:45:00 AM 12.95 55.31 0.395 8.25 190.3 10.85
5/24/2022 11:00:00 AM 13.02 55.436 0.395 8.19 225.8 11.06
5/24/2022 11:15:00 AM 13.11 55.598 0.395 8.21 119.1 11.24
5/24/2022 11:30:00 AM 13.16 55.688 0.394 8.19 51.34 11.32
5/24/2022 11:45:00 AM 13.18 55.724 0.394 8.28 53.45 11.27
5/24/2022 12:00:00 PM 13.2 55.76 0.394 8.28 52.29 11.25
5/24/2022 12:15:00 PM 13.26 55.868 0.394 8.25 31.12 11.36
5/24/2022 12:30:00 PM 13.3 55.94 0.393 8.21 127.2 11.38
5/24/2022 12:45:00 PM 13.33 55.994 0.393 8.24 206.9 11.32
5/24/2022 1:00:00 PM 13.33 55.994 0.393 8.33 300.7 11.26
5/24/2022 1:15:00 PM 13.36 56.048 0.393 8.32 24.75 11.28
5/24/2022 1:30:00 PM 13.4 56.12 0.393 8.31 142.8 11.34
5/24/2022 1:45:00 PM 13.42 56.156 0.393 8.25 173.1 11.31
5/24/2022 2:00:00 PM 13.43 56.174 0.393 8.31 58.76 11.26
5/24/2022 2:15:00 PM 13.45 56.21 0.392 8.31 36.71 11.24
5/24/2022 2:30:00 PM 13.51 56.318 0.392 8.36 197 11.36
5/24/2022 2:45:00 PM 13.59 56.462 0.392 8.3 58.23 11.49
5/24/2022 3:00:00 PM 13.64 56.552 0.392 8.33 21.46 11.55
5/24/2022 3:15:00 PM 13.67 56.606 0.391 8.36 225 11.52
5/24/2022 3:30:00 PM 13.7 56.66 0.392 8.38 32.73 11.42
5/24/2022 3:45:00 PM 13.73 56.714 0.391 8.39 22.71 11.43
5/24/2022 4:00:00 PM 13.76 56.768 0.391 8.35 105.6 11.41
5/24/2022 4:15:00 PM 13.8 56.84 0.391 8.33 98.32 11.37
5/24/2022 4:30:00 PM 13.82 56.876 0.391 8.35 37.14 11.31
5/24/2022 4:45:00 PM 13.87 56.966 0.391 8.38 101.5 11.34
5/24/2022 5:00:00 PM 13.89 57.002 0.391 8.37 248.5 11.18
5/24/2022 5:15:00 PM 13.89 57.002 0.391 8.33 86.38 10.99
5/24/2022 5:30:00 PM 13.89 57.002 0.391 8.34 23.74 10.87
5/24/2022 5:45:00 PM 13.89 57.002 0.391 8.35 25.71 10.7
5/24/2022 6:00:00 PM 13.89 57.002 0.391 8.31 267.8 10.61
5/24/2022 6:15:00 PM 13.9 57.02 0.391 8.34 62.8 10.48
5/24/2022 6:30:00 PM 13.89 57.002 0.391 8.34 96.18 10.32
5/24/2022 6:45:00 PM 13.9 57.02 0.391 8.35 264 10.27
5/24/2022 7:00:00 PM 13.91 57.038 0.391 8.33 156.2 10.19
5/24/2022 7:15:00 PM 13.92 57.056 0.391 8.38 10.13 10.12
5/24/2022 7:30:00 PM 13.92 57.056 0.391 8.35 43.87 10.03
5/24/2022 7:45:00 PM 13.91 57.038 0.392 8.32 309 9.94
5/24/2022 8:00:00 PM 13.9 57.02 0.392 8.33 222.2 9.86
5/24/2022 8:15:00 PM 13.88 56.984 0.392 8.34 85.6 9.75
5/24/2022 8:30:00 PM 13.87 56.966 0.393 8.31 250.3 9.63
5/24/2022 8:45:00 PM 13.86 56.948 0.393 8.34 182.1 9.5
5/24/2022 9:00:00 PM 13.84 56.912 0.393 8.32 48.43 9.42
5/24/2022 9:15:00 PM 13.83 56.894 0.394 8.37 215.1 9.34
5/24/2022 9:30:00 PM 13.81 56.858 0.394 8.32 131.6 9.25
5/24/2022 9:45:00 PM 13.79 56.822 0.394 8.33 347.6 9.16
5/24/2022 10:00:00 PM 13.77 56.786 0.394 8.26 288.9 9.09
5/24/2022 10:15:00 PM 13.75 56.75 0.395 8.29 114.8 9.01
5/24/2022 10:30:00 PM 13.73 56.714 0.395 8.28 136 8.94
5/24/2022 10:45:00 PM 13.71 56.678 0.395 8.29 155 8.92
5/24/2022 11:00:00 PM 13.69 56.642 0.396 8.32 193.5 8.85
5/24/2022 11:15:00 PM 13.66 56.588 0.396 8.31 315.4 8.84
5/24/2022 11:30:00 PM 13.63 56.534 0.397 8.41 184.9 8.8
5/24/2022 11:45:00 PM 13.59 56.462 0.399 8.36 64.13 8.77
5/25/2022 12:00:00 AM 13.56 56.408 0.401 8.26 208.6 8.75
5/25/2022 12:15:00 AM 13.52 56.336 0.403 8.36 524.8 8.74
5/25/2022 12:30:00 AM 13.49 56.282 0.403 8.26 635.8 8.73
5/25/2022 12:45:00 AM 13.45 56.21 0.401 8.26 444.1 8.68
5/25/2022 1:00:00 AM 13.41 56.138 0.4 8.27 23.18 8.7
5/25/2022 1:15:00 AM 13.37 56.066 0.399 8.29 21.55 8.67
5/25/2022 1:30:00 AM 13.32 55.976 0.399 8.26 162 8.64
5/25/2022 1:45:00 AM 13.26 55.868 0.399 8.31 198.9 8.69
5/25/2022 2:00:00 AM 13.21 55.778 0.399 8.33 29.04 8.68
5/25/2022 2:15:00 AM 13.15 55.67 0.399 8.28 384.4 8.7
5/25/2022 2:30:00 AM 13.1 55.58 0.399 8.33 60.86 8.69
5/25/2022 2:45:00 AM 13.05 55.49 0.399 8.25 551.8 8.71
5/25/2022 3:00:00 AM 12.99 55.382 0.399 8.56 149.6 8.73
5/25/2022 3:15:00 AM 12.95 55.31 0.4 8.35 192.6 8.73
5/25/2022 3:30:00 AM 12.89 55.202 0.4 8.31 210.1 8.76
5/25/2022 3:45:00 AM 12.85 55.13 0.4 8.48 96.52 8.78
5/25/2022 4:00:00 AM 12.8 55.04 0.4 8.42 398.5 8.79
5/25/2022 4:15:00 AM 12.76 54.968 0.4 8.37 174.5 8.79
5/25/2022 4:30:00 AM 12.71 54.878 0.4 8.4 250.1 8.81
5/25/2022 4:45:00 AM 12.66 54.788 0.4 8.37 61.94 8.82
5/25/2022 5:00:00 AM 12.6 54.68 0.4 8.36 230.8 8.82
5/25/2022 5:15:00 AM 12.54 54.572 0.4 8.44 72.69 8.87
5/25/2022 5:30:00 AM 12.49 54.482 0.4 8.37 244.4 8.87
5/25/2022 5:45:00 AM 12.43 54.374 0.4 8.35 134.1 8.89
5/25/2022 6:00:00 AM 12.39 54.302 0.4 8.45 204.5 8.9
5/25/2022 6:15:00 AM 12.35 54.23 0.4 8.46 84.16 8.96
5/25/2022 6:30:00 AM 12.31 54.158 0.4 8.4 238.7 9
5/25/2022 6:45:00 AM 12.28 54.104 0.4 8.41 88.08 9.08
5/25/2022 7:00:00 AM 12.25 54.05 0.4 8.41 163.8 9.16
5/25/2022 7:15:00 AM 12.23 54.014 0.399 8.36 240.1 9.25
5/25/2022 7:30:00 AM 12.22 53.996 0.399 8.39 191.9 9.37
5/25/2022 7:45:00 AM 12.21 53.978 0.399 8.42 109 9.46
5/25/2022 8:00:00 AM 12.21 53.978 0.399 8.46 256.6 9.59
5/25/2022 8:15:00 AM 12.22 53.996 0.399 8.39 17.94 9.71
5/25/2022 8:30:00 AM 12.25 54.05 0.399 8.38 570.4 9.87
5/25/2022 8:45:00 AM 12.29 54.122 0.399 8.37 379.9 10.03
5/25/2022 9:00:00 AM 12.36 54.248 0.399 8.38 309.3 10.22
5/25/2022 9:15:00 AM 12.44 54.392 0.399 8.41 21.17 10.42
5/25/2022 9:30:00 AM 12.51 54.518 0.399 8.4 211.8 10.59
5/25/2022 9:45:00 AM 12.6 54.68 0.398 8.42 205.7 10.77
5/25/2022 10:00:00 AM 12.74 54.932 0.398 8.49 168 11.01
5/25/2022 10:15:00 AM 12.92 55.256 0.398 8.43 699.5 11.24
5/25/2022 10:30:00 AM 13.09 55.562 0.398 8.46 476.7 11.37
5/25/2022 10:45:00 AM 13.25 55.85 0.398 8.38 66.59 11.5
5/25/2022 11:00:00 AM 13.41 56.138 0.397 8.41 1033 11.68
5/25/2022 11:15:00 AM 13.56 56.408 0.397 8.34 369.3 11.8
5/25/2022 11:30:00 AM 13.73 56.714 0.396 8.33 46.23 12.02
5/25/2022 11:45:00 AM 13.93 57.074 0.396 8.35 582.7 12.17
5/25/2022 12:00:00 PM 14.09 57.362 0.395 8.36 40.83 12.28
5/25/2022 12:15:00 PM 14.33 57.794 0.395 8.3 238.2 12.4
5/25/2022 12:30:00 PM 14.5 58.1 0.395 8.35 512.9 12.49
5/25/2022 12:45:00 PM 14.67 58.406 0.394 8.56 151.7 12.57
5/25/2022 1:00:00 PM 14.82 58.676 0.394 8.34 103.9 12.65
5/25/2022 1:15:00 PM 14.95 58.91 0.394 8.24 17.62 12.66
5/25/2022 1:30:00 PM 15.15 59.27 0.394 8.28 107.2 12.76
5/25/2022 1:45:00 PM 15.34 59.612 0.393 8.28 288.6 12.75
5/25/2022 2:00:00 PM 15.49 59.882 0.392 8.27 140.2 12.79
5/25/2022 2:15:00 PM 15.62 60.116 0.392 8.25 406 12.77
5/25/2022 2:30:00 PM 15.71 60.278 0.392 8.2 472.9 12.71
5/25/2022 2:45:00 PM 15.78 60.404 0.391 8.26 429.6 12.66
5/25/2022 3:00:00 PM 15.83 60.494 0.391 8.22 185.4 12.59
5/25/2022 3:15:00 PM 15.86 60.548 0.391 8.28 185.9 12.56
5/25/2022 3:30:00 PM 15.97 60.746 0.39 8.2 125.8 12.55
5/25/2022 3:45:00 PM 16.18 61.124 0.39 8.25 231.8 12.47
5/25/2022 4:00:00 PM 16.24 61.232 0.39 8.28 10.17 12.34
5/25/2022 4:15:00 PM 16.31 61.358 0.39 8.26 436.9 12.12
5/25/2022 4:30:00 PM 16.3 61.34 0.39 8.27 166.6 11.91
5/25/2022 4:45:00 PM 16.28 61.304 0.39 8.29 674.5 11.78
5/25/2022 5:00:00 PM 16.27 61.286 0.389 8.3 492.7 11.63
5/25/2022 5:15:00 PM 16.29 61.322 0.389 8.31 240.9 11.58
5/25/2022 5:30:00 PM 16.29 61.322 0.389 8.5 38.01 11.33
5/25/2022 5:45:00 PM 16.32 61.376 0.389 8.51 120.5 11.21
5/25/2022 6:00:00 PM 16.32 61.376 0.39 8.49 367.1 11.01
5/25/2022 6:15:00 PM 16.33 61.394 0.39 8.4 84.03 10.86
5/25/2022 6:30:00 PM 16.34 61.412 0.391 8.41 471.6 10.71
5/25/2022 6:45:00 PM 16.33 61.394 0.391 8.38 1008 10.51
5/25/2022 7:00:00 PM 16.33 61.394 0.391 8.34 761.7 10.36
5/25/2022 7:15:00 PM 16.33 61.394 0.391 8.4 519.1 10.18
5/25/2022 7:30:00 PM 16.32 61.376 0.391 8.37 91.1 9.97
5/25/2022 7:45:00 PM 16.3 61.34 0.391 8.31 74.86 9.78
5/25/2022 8:00:00 PM 16.28 61.304 0.391 8.34 431.9 9.62
5/25/2022 8:15:00 PM 16.25 61.25 0.391 8.38 12.21 9.43
5/25/2022 8:30:00 PM 16.21 61.178 0.391 8.31 28.72 9.31
5/25/2022 8:45:00 PM 16.18 61.124 0.391 8.45 349.3 9.18
5/25/2022 9:00:00 PM 16.15 61.07 0.392 8.44 803.4 9.05
5/25/2022 9:15:00 PM 16.11 60.998 0.392 8.39 222.3 8.89
5/25/2022 9:30:00 PM 16.08 60.944 0.393 8.29 87.23 8.77
5/25/2022 9:45:00 PM 16.04 60.872 0.393 8.32 163.2 8.69
5/25/2022 10:00:00 PM 15.99 60.782 0.394 8.48 118.3 8.59
5/25/2022 10:15:00 PM 15.94 60.692 0.394 8.3 286.1 8.47
5/25/2022 10:30:00 PM 15.89 60.602 0.395 8.51 399.3 8.41
5/25/2022 10:45:00 PM 15.84 60.512 0.395 8.56 527.2 8.32
5/25/2022 11:00:00 PM 15.78 60.404 0.396 8.44 205.4 8.28
5/25/2022 11:15:00 PM 15.71 60.278 0.396 8.53 163.6 8.23
5/25/2022 11:30:00 PM 15.65 60.17 0.397 8.27 206.6 8.17
5/25/2022 11:45:00 PM 15.6 60.08 0.398 8.38 848.1 8.11
5/26/2022 12:00:00 AM 15.54 59.972 0.398 8.17 259.9 8.08
5/26/2022 12:15:00 AM 15.49 59.882 0.399 8.29 582.9 8.05
5/26/2022 12:30:00 AM 15.42 59.756 0.399 8.23 922.7 8.01
5/26/2022 12:45:00 AM 15.35 59.63 0.399 8.31 279.3 8.02
5/26/2022 1:00:00 AM 15.26 59.468 0.4 8.33 940 7.99
5/26/2022 1:15:00 AM 15.18 59.324 0.401 8.41 106.3 7.99
5/26/2022 1:30:00 AM 15.09 59.162 0.401 8.38 430.2 7.96
5/26/2022 1:45:00 AM 15 59 0.402 8.3 169.7 7.98
5/26/2022 2:00:00 AM 14.92 58.856 0.402 8.3 102.4 8
5/26/2022 2:15:00 AM 14.85 58.73 0.403 8.3 351.6 8.01
5/26/2022 2:30:00 AM 14.76 58.568 0.403 8.31 989.4 7.99
5/26/2022 2:45:00 AM 14.69 58.442 0.404 8.34 142.5 8.05
5/26/2022 3:00:00 AM 14.61 58.298 0.404 8.37 621.5 8.07
5/26/2022 3:15:00 AM 14.52 58.136 0.404 8.43 601.5 8.06
5/26/2022 3:30:00 AM 14.43 57.974 0.404 8.42 124.2 8.09
5/26/2022 3:45:00 AM 14.36 57.848 0.404 8.34 1223 8.11
5/26/2022 4:00:00 AM 14.27 57.686 0.404 8.24 287.3 8.13
5/26/2022 4:15:00 AM 14.19 57.542 0.404 8.28 396 8.17
5/26/2022 4:30:00 AM 14.12 57.416 0.404 8.35 706.4 8.19
5/26/2022 4:45:00 AM 14.05 57.29 0.404 8.33 75.04 8.21
5/26/2022 5:00:00 AM 13.97 57.146 0.404 8.33 18.68 8.25
5/26/2022 5:15:00 AM 13.9 57.02 0.404 8.3 38.21 8.27
5/26/2022 5:30:00 AM 13.82 56.876 0.404 8.42 748.5 8.29
5/26/2022 5:45:00 AM 13.76 56.768 0.404 8.37 109.1 8.3
5/26/2022 6:00:00 AM 13.69 56.642 0.404 8.24 186.8 8.34
5/26/2022 6:15:00 AM 13.62 56.516 0.404 8.27 71.11 8.4
5/26/2022 6:30:00 AM 13.56 56.408 0.422 8.22 58.37 8.42
5/26/2022 6:45:00 AM 13.5 56.3 0.409 8.23 129.9 8.49
5/26/2022 7:00:00 AM 13.45 56.21 0.406 8.25 211 8.56
5/26/2022 7:15:00 AM 13.4 56.12 0.405 8.29 829.5 8.66
5/26/2022 7:30:00 AM 13.35 56.03 0.405 8.37 480.9 8.78
5/26/2022 7:45:00 AM 13.32 55.976 0.405 8.38 124.5 8.87
5/26/2022 8:00:00 AM 13.3 55.94 0.404 8.34 30.04 9.02
5/26/2022 8:15:00 AM 13.27 55.886 0.404 8.31 446.7 9.1
5/26/2022 8:30:00 AM 13.28 55.904 0.404 8.34 978 9.26
5/26/2022 8:45:00 AM 13.29 55.922 0.404 8.33 1229 9.41
5/26/2022 9:00:00 AM 13.34 56.012 0.404 8.37 582.2 9.58
5/26/2022 9:15:00 AM 13.41 56.138 0.403 8.38 1491 9.81
5/26/2022 9:30:00 AM 13.52 56.336 0.403 8.49 1177 10.08
5/26/2022 9:45:00 AM 13.6 56.48 0.403 8.42 481.1 10.34
5/26/2022 10:00:00 AM 13.71 56.678 0.403 8.38 447.1 10.48
5/26/2022 10:15:00 AM 13.8 56.84 0.403 8.4 598 10.54
5/26/2022 10:30:00 AM 13.92 57.056 0.403 8.45 521.8 10.75
5/26/2022 10:45:00 AM 13.99 57.182 0.402 8.52 326.4 10.81
5/26/2022 11:00:00 AM 14.13 57.434 0.402 8.42 175 10.98
5/26/2022 11:15:00 AM 14.21 57.578 0.402 8.39 501.4 11.08
5/26/2022 11:30:00 AM 14.34 57.812 0.401 8.4 21.77 11.23
5/26/2022 11:45:00 AM 14.42 57.956 0.401 8.37 123.5 11.33
5/26/2022 12:00:00 PM 14.53 58.154 0.401 8.34 449.3 11.45
5/26/2022 12:15:00 PM 14.71 58.478 0.4 8.31 152.5 11.55
5/26/2022 12:30:00 PM 14.84 58.712 0.4 8.3 667.6 11.67
5/26/2022 12:45:00 PM 15.06 59.108 0.4 8.3 425.6 11.79
5/26/2022 1:00:00 PM 15.2 59.36 0.4 8.27 116.2 11.82
5/26/2022 1:15:00 PM 15.18 59.324 0.4 8.3 504.5 11.64
5/26/2022 1:30:00 PM 15.08 59.144 0.399 8.32 15.89 11.49
5/26/2022 1:45:00 PM 14.98 58.964 0.399 8.54 443.4 11.33
5/26/2022 2:00:00 PM 14.97 58.946 0.399 8.28 1318 11.29
5/26/2022 2:15:00 PM 15.06 59.108 0.398 8.35 297.8 11.33
5/26/2022 2:30:00 PM 15.22 59.396 0.398 8.66 636.1 11.41
5/26/2022 2:45:00 PM 15.35 59.63 0.398 8.37 928.6 11.33
5/26/2022 3:00:00 PM 15.46 59.828 0.398 8.42 1360 11.21
5/26/2022 3:15:00 PM 15.54 59.972 0.398 8.76 603.8 11.04
5/26/2022 3:30:00 PM 15.61 60.098 0.398 8.62 1072 10.9
5/26/2022 3:45:00 PM 15.66 60.188 0.398 8.45 878.8 10.73
5/26/2022 4:00:00 PM 15.72 60.296 0.397 8.42 302 10.63
5/26/2022 4:15:00 PM 15.77 60.386 0.397 8.45 711.1 10.48
5/26/2022 4:30:00 PM 15.81 60.458 0.397 8.39 545.3 10.34
5/26/2022 4:45:00 PM 15.87 60.566 0.397 8.66 1234 10.23
5/26/2022 5:00:00 PM 15.9 60.62 0.397 8.55 368.5 10.18
5/26/2022 5:15:00 PM 15.94 60.692 0.397 8.7 782.4 10.18
5/26/2022 5:30:00 PM 15.96 60.728 0.397 8.49 1827 10.1
5/26/2022 5:45:00 PM 15.97 60.746 0.397 8.48 662.5 9.98
5/26/2022 6:00:00 PM 15.95 60.71 0.397 8.38 454.6 9.85
5/26/2022 6:15:00 PM 15.93 60.674 0.397 8.35 534 9.67
5/26/2022 6:30:00 PM 15.91 60.638 0.397 8.44 1145 9.51
5/26/2022 6:45:00 PM 15.9 60.62 0.397 8.37 545.2 9.39
5/26/2022 7:00:00 PM 15.88 60.584 0.397 8.38 140.9 9.28
5/26/2022 7:15:00 PM 15.86 60.548 0.398 8.36 1282 9.17
5/26/2022 7:30:00 PM 15.85 60.53 0.398 8.38 35.49 9.05
5/26/2022 7:45:00 PM 15.83 60.494 0.398 8.5 225.5 8.97
5/26/2022 8:00:00 PM 15.81 60.458 0.398 8.54 996.7 8.88
5/26/2022 8:15:00 PM 15.8 60.44 0.398 8.4 304 8.77
5/26/2022 8:30:00 PM 15.78 60.404 0.398 8.53 19.6 8.69
5/26/2022 8:45:00 PM 15.76 60.368 0.398 8.33 392 8.56
5/26/2022 9:00:00 PM 15.75 60.35 0.399 8.52 34.61 8.5
5/26/2022 9:15:00 PM 15.73 60.314 0.399 8.52 114.1 8.42
5/26/2022 9:30:00 PM 15.71 60.278 0.399 8.59 362.6 8.35
5/26/2022 9:45:00 PM 15.7 60.26 0.4 8.64 216.6 8.23
5/26/2022 10:00:00 PM 15.68 60.224 0.4 8.62 992.6 8.21
5/26/2022 10:15:00 PM 15.65 60.17 0.4 8.61 150.5 8.19
5/26/2022 10:30:00 PM 15.63 60.134 0.4 8.59 312.3 8.11
5/26/2022 10:45:00 PM 15.61 60.098 0.401 8.59 520.4 8.04
5/26/2022 11:00:00 PM 15.59 60.062 0.401 8.55 220.5 8.04
5/26/2022 11:15:00 PM 15.56 60.008 0.402 8.56 367.2 7.98
5/26/2022 11:30:00 PM 15.53 59.954 0.402 8.51 193 7.96
5/26/2022 11:45:00 PM 15.5 59.9 0.402 8.48 216.2 7.92
5/27/2022 12:00:00 AM 15.46 59.828 0.403 8.47 567.6 7.93
5/27/2022 12:15:00 AM 15.43 59.774 0.403 8.49 273.6 7.9
5/27/2022 12:30:00 AM 15.4 59.72 0.403 8.46 1064 7.89
5/27/2022 12:45:00 AM 15.36 59.648 0.404 8.49 854.3 7.89
5/27/2022 1:00:00 AM 15.32 59.576 0.404 8.53 28.29 7.88
5/27/2022 1:15:00 AM 15.28 59.504 0.404 8.48 171.7 7.89
5/27/2022 1:30:00 AM 15.23 59.414 0.405 8.41 520.4 7.89
5/27/2022 1:45:00 AM 15.18 59.324 0.405 8.48 114.8 7.9
5/27/2022 2:00:00 AM 15.14 59.252 0.405 8.44 235.5 7.91
5/27/2022 2:15:00 AM 15.08 59.144 0.405 8.51 359.6 7.91
5/27/2022 2:30:00 AM 15.04 59.072 0.405 8.5 1043 7.92
5/27/2022 2:45:00 AM 14.99 58.982 0.405 8.47 92.19 7.92
5/27/2022 3:00:00 AM 14.94 58.892 0.405 8.46 440.7 7.92
5/27/2022 3:15:00 AM 14.89 58.802 0.406 8.49 1269 7.93
5/27/2022 3:30:00 AM 14.84 58.712 0.406 8.52 545.9 7.95
5/27/2022 3:45:00 AM 14.78 58.604 0.406 8.51 1006 7.98
5/27/2022 4:00:00 AM 14.74 58.532 0.406 8.46 1074 8.01
5/27/2022 4:15:00 AM 14.69 58.442 0.406 8.52 17.09 8
5/27/2022 4:30:00 AM 14.64 58.352 0.406 8.53 102.2 8.02
5/27/2022 4:45:00 AM 14.59 58.262 0.407 8.47 451.6 8.02
5/27/2022 5:00:00 AM 14.55 58.19 0.406 8.44 15.3 7.99
5/27/2022 5:15:00 AM 14.5 58.1 0.406 8.5 17.05 8.04
5/27/2022 5:30:00 AM 14.46 58.028 0.406 8.48 1654 8.06
5/27/2022 5:45:00 AM 14.41 57.938 0.406 8.6 99.21 8.06
5/27/2022 6:00:00 AM 14.37 57.866 0.406 8.55 792.1 8.11
5/27/2022 6:15:00 AM 14.33 57.794 0.406 8.48 217.3 8.14
5/27/2022 6:30:00 AM 14.29 57.722 0.406 8.5 80.8 8.18
5/27/2022 6:45:00 AM 14.26 57.668 0.406 8.5 70.37 8.21
5/27/2022 7:00:00 AM 14.23 57.614 0.406 8.52 365.9 8.25
5/27/2022 7:15:00 AM 14.21 57.578 0.406 8.51 617.7 8.3
5/27/2022 7:30:00 AM 14.2 57.56 0.406 8.59 1235 8.4
5/27/2022 7:45:00 AM 14.19 57.542 0.405 8.55 730.4 8.51
5/27/2022 8:00:00 AM 14.19 57.542 0.406 8.56 231.2 8.56
5/27/2022 8:15:00 AM 14.21 57.578 0.405 8.51 628.6 8.73
5/27/2022 8:30:00 AM 14.24 57.632 0.405 8.53 1182 8.89
5/27/2022 8:45:00 AM 14.26 57.668 0.405 8.6 479.2 9.04
5/27/2022 9:00:00 AM 14.26 57.668 0.404 8.6 1396 9.08
5/27/2022 9:15:00 AM 14.28 57.704 0.404 8.6 19.15 9.22
5/27/2022 9:30:00 AM 14.32 57.776 0.404 8.58 496.5 9.29
5/27/2022 9:45:00 AM 14.36 57.848 0.404 8.57 17.35 9.45
5/27/2022 10:00:00 AM 14.42 57.956 0.404 8.61 1065 9.7
5/27/2022 10:15:00 AM 14.45 58.01 0.404 8.6 883.1 9.73
5/27/2022 10:30:00 AM 14.49 58.082 0.404 8.59 479.4 9.78
5/27/2022 10:45:00 AM 14.49 58.082 0.404 8.62 300.1 9.71
5/27/2022 11:00:00 AM 14.5 58.1 0.404 8.61 754.4 9.7
5/27/2022 11:15:00 AM 14.48 58.064 0.404 8.73 570.5 9.59
5/27/2022 11:30:00 AM 14.46 58.028 0.403 8.66 162.8 9.52
5/27/2022 11:45:00 AM 14.47 58.046 0.403 8.67 1339 9.47
5/27/2022 12:00:00 PM 14.51 58.118 0.404 8.65 60.65 9.51
5/27/2022 12:15:00 PM 14.54 58.172 0.406 8.72 256.7 9.48
5/27/2022 12:30:00 PM 14.55 58.19 0.408 8.63 529.9 9.46
5/27/2022 12:45:00 PM 14.54 58.172 0.405 8.67 757.4 9.41
5/27/2022 1:00:00 PM 14.54 58.172 0.404 8.69 2089 9.5
5/27/2022 1:15:00 PM 14.64 58.352 0.411 8.52 1146 9.67
5/27/2022 1:30:00 PM 14.68 58.424 0.404 8.51 257.6 9.85
5/27/2022 1:45:00 PM 14.73 58.514 0.402 8.51 24.78 10.03
5/27/2022 2:00:00 PM 14.79 58.622 0.401 8.53 600.4 10.22
5/27/2022 2:15:00 PM 14.87 58.766 0.4 8.51 21.54 10.4
5/27/2022 2:30:00 PM 15 59 0.4 8.49 419.6 10.63
5/27/2022 2:45:00 PM 15.1 59.18 0.4 8.48 140.1 10.75
5/27/2022 3:00:00 PM 15.2 59.36 0.399 8.51 494.6 10.85
5/27/2022 3:15:00 PM 15.31 59.558 0.401 8.54 24.76 10.9
5/27/2022 3:30:00 PM 15.42 59.756 0.399 8.49 63.86 11.01
5/27/2022 3:45:00 PM 15.54 59.972 0.398 8.51 477.1 11.11
5/27/2022 4:00:00 PM 15.66 60.188 0.398 8.48 266.6 11.15
5/27/2022 4:15:00 PM 15.8 60.44 0.398 8.49 673.9 11.21
5/27/2022 4:30:00 PM 15.9 60.62 0.397 8.4 21.14 11.22
5/27/2022 4:45:00 PM 16.02 60.836 0.397 8.34 486.3 11.24
5/27/2022 5:00:00 PM 16.06 60.908 0.397 8.38 615.8 11.11
5/27/2022 5:15:00 PM 16.08 60.944 0.397 8.46 320.4 10.95
5/27/2022 5:30:00 PM 16.14 61.052 0.397 8.38 1214 10.92
5/27/2022 5:45:00 PM 16.21 61.178 0.398 8.43 297.6 10.84
5/27/2022 6:00:00 PM 16.35 61.43 0.398 8.32 1334 10.9
5/27/2022 6:15:00 PM 16.46 61.628 0.398 8.35 432.4 10.86
5/27/2022 6:30:00 PM 16.57 61.826 0.398 8.3 122 10.79
5/27/2022 6:45:00 PM 16.6 61.88 0.398 8.25 333.5 10.6
5/27/2022 7:00:00 PM 16.63 61.934 0.398 8.28 858.1 10.44
5/27/2022 7:15:00 PM 16.62 61.916 0.397 8.29 324 10.25
5/27/2022 7:30:00 PM 16.59 61.862 0.397 8.25 840.3 9.99
5/27/2022 7:45:00 PM 16.58 61.844 0.396 8.24 870.4 9.8
5/27/2022 8:00:00 PM 16.57 61.826 0.396 8.31 810 9.64
5/27/2022 8:15:00 PM 16.56 61.808 0.396 8.34 881.1 9.45
5/27/2022 8:30:00 PM 16.55 61.79 0.395 8.32 53.54 9.3
5/27/2022 8:45:00 PM 16.53 61.754 0.395 8.38 1093 9.14
5/27/2022 9:00:00 PM 16.51 61.718 0.395 8.36 1183 9
5/27/2022 9:15:00 PM 16.48 61.664 0.395 8.41 44.87 8.87
5/27/2022 9:30:00 PM 16.47 61.646 0.395 8.38 1641 8.74
5/27/2022 9:45:00 PM 16.46 61.628 0.394 8.42 94.66 8.6
5/27/2022 10:00:00 PM 16.43 61.574 0.395 8.41 1207 8.47
5/27/2022 10:15:00 PM 16.41 61.538 0.395 8.36 416.1 8.37
5/27/2022 10:30:00 PM 16.38 61.484 0.395 8.38 167 8.26
5/27/2022 10:45:00 PM 16.34 61.412 0.395 8.37 1965 8.2
5/27/2022 11:00:00 PM 16.3 61.34 0.395 8.38 137.3 8.13
5/27/2022 11:15:00 PM 16.26 61.268 0.395 8.44 941 8.08
5/27/2022 11:30:00 PM 16.22 61.196 0.396 8.42 286.2 8.02
5/27/2022 11:45:00 PM 16.18 61.124 0.396 8.47 236.3 7.95
5/28/2022 12:00:00 AM 16.13 61.034 0.397 8.44 150.5 7.94
5/28/2022 12:15:00 AM 16.08 60.944 0.397 8.38 133 7.87
5/28/2022 12:30:00 AM 16.02 60.836 0.397 8.28 216.7 7.84
5/28/2022 12:45:00 AM 15.95 60.71 0.398 8.26 699.3 7.83
5/28/2022 1:00:00 AM 15.89 60.602 0.399 8.4 76.94 7.78
5/28/2022 1:15:00 AM 15.82 60.476 0.399 8.38 1144 7.77
5/28/2022 1:30:00 AM 15.76 60.368 0.4 8.4 302 7.75
5/28/2022 1:45:00 AM 15.68 60.224 0.401 8.3 281.1 7.75
5/28/2022 2:00:00 AM 15.61 60.098 0.401 8.33 1874 7.74
5/28/2022 2:15:00 AM 15.52 59.936 0.401 8.47 56.05 7.73
5/28/2022 2:30:00 AM 15.44 59.792 0.401 8.46 974.1 7.75
5/28/2022 2:45:00 AM 15.35 59.63 0.401 8.44 1089 7.75
5/28/2022 3:00:00 AM 15.26 59.468 0.401 8.42 243.2 7.75
5/28/2022 3:15:00 AM 15.18 59.324 0.402 8.51 1268 7.77
5/28/2022 3:30:00 AM 15.1 59.18 0.402 8.48 801.2 7.8
5/28/2022 3:45:00 AM 15.02 59.036 0.402 8.51 46 7.8
5/28/2022 4:00:00 AM 14.95 58.91 0.402 8.46 1968 7.82
5/28/2022 4:15:00 AM 14.89 58.802 0.403 8.48 2038 7.83
5/28/2022 4:30:00 AM 14.82 58.676 0.403 8.49 929.3 7.85
5/28/2022 4:45:00 AM 14.75 58.55 0.403 8.47 534.9 7.86
5/28/2022 5:00:00 AM 14.68 58.424 0.403 8.47 517.4 7.88
5/28/2022 5:15:00 AM 14.62 58.316 0.403 8.55 1158 7.9
5/28/2022 5:30:00 AM 14.57 58.226 0.403 8.58 189.2 7.92
5/28/2022 5:45:00 AM 14.51 58.118 0.403 8.56 60.39 7.95
5/28/2022 6:00:00 AM 14.47 58.046 0.403 8.47 408.1 7.97
5/28/2022 6:15:00 AM 14.42 57.956 0.404 8.53 295.3 8.04
5/28/2022 6:30:00 AM 14.38 57.884 0.403 8.46 230.5 8.09
5/28/2022 6:45:00 AM 14.34 57.812 0.404 8.54 487.4 8.19
5/28/2022 7:00:00 AM 14.3 57.74 0.404 8.41 684 8.3
5/28/2022 7:15:00 AM 14.26 57.668 0.404 8.43 683.4 8.33
5/28/2022 7:30:00 AM 14.22 57.596 0.404 8.4 498.5 8.34
5/28/2022 7:45:00 AM 14.18 57.524 0.404 8.42 158.5 8.37
5/28/2022 8:00:00 AM 14.15 57.47 0.404 8.38 63.56 8.37
5/28/2022 8:15:00 AM 14.11 57.398 0.404 8.4 50.52 8.4
5/28/2022 8:30:00 AM 14.08 57.344 0.404 8.41 58.58 8.54
5/28/2022 8:45:00 AM 14.06 57.308 0.404 8.47 1279 8.67
5/28/2022 9:00:00 AM 14.04 57.272 0.404 8.5 1116 8.8
5/28/2022 9:15:00 AM 14.03 57.254 0.404 8.49 82.67 8.96
5/28/2022 9:30:00 AM 14.02 57.236 0.404 8.66 829.3 9.1
5/28/2022 9:45:00 AM 14.04 57.272 0.404 8.69 1015 9.27
5/28/2022 10:00:00 AM 14.08 57.344 0.403 8.51 366.1 9.5
5/28/2022 10:15:00 AM 14.14 57.452 0.403 8.56 916.7 9.74
5/28/2022 10:30:00 AM 14.17 57.506 0.403 8.67 119.8 9.88
5/28/2022 10:45:00 AM 14.22 57.596 0.403 8.65 321.4 9.99
5/28/2022 11:00:00 AM 14.24 57.632 0.403 8.6 67.68 10.08
5/28/2022 11:15:00 AM 14.28 57.704 0.403 8.56 94.96 10.16
5/28/2022 11:30:00 AM 14.29 57.722 0.403 8.64 80.97 10.13
5/28/2022 11:45:00 AM 14.3 57.74 0.403 8.62 589.3 10.11
5/28/2022 12:00:00 PM 14.34 57.812 0.403 8.59 77.8 10.23
5/28/2022 12:15:00 PM 14.4 57.92 0.403 8.62 657.9 10.31
5/28/2022 12:30:00 PM 14.61 58.298 0.402 8.61 118.5 10.56
5/28/2022 12:45:00 PM 14.87 58.766 0.402 8.66 1493 10.83
5/28/2022 1:00:00 PM 15.01 59.018 0.401 8.76 181.6 10.84
5/28/2022 1:15:00 PM 15.16 59.288 0.401 8.7 482.2 10.9
5/28/2022 1:30:00 PM 15.3 59.54 0.401 8.68 664.4 11.03
5/28/2022 1:45:00 PM 15.44 59.792 0.401 8.61 186.2 11.09
5/28/2022 2:00:00 PM 15.62 60.116 0.4 8.56 183.8 11.2
5/28/2022 2:15:00 PM 15.73 60.314 0.4 8.55 116.6 11.19
5/28/2022 2:30:00 PM 15.92 60.656 0.4 8.6 197 11.29
5/28/2022 2:45:00 PM 16.1 60.98 0.4 8.56 340.4 11.42
5/28/2022 3:00:00 PM 16.3 61.34 0.4 8.53 428.9 11.37
5/28/2022 3:15:00 PM 16.33 61.394 0.4 8.54 1007 11.21
5/28/2022 3:30:00 PM 16.39 61.502 0.4 8.51 1018 11.14
5/28/2022 3:45:00 PM 16.36 61.448 0.4 8.52 161.6 10.93
5/28/2022 4:00:00 PM 16.35 61.43 0.4 8.47 153.9 10.75
5/28/2022 4:15:00 PM 16.39 61.502 0.4 8.5 846.9 10.69
5/28/2022 4:30:00 PM 16.57 61.826 0.4 8.51 115.9 10.86
5/28/2022 4:45:00 PM 16.55 61.79 0.399 8.51 713.5 10.62
5/28/2022 5:00:00 PM 16.62 61.916 0.399 8.48 120.7 10.58
5/28/2022 5:15:00 PM 16.71 62.078 0.399 8.45 356.1 10.6
5/28/2022 5:30:00 PM 16.68 62.024 0.399 8.49 662.1 10.41
5/28/2022 5:45:00 PM 16.74 62.132 0.399 8.49 470.5 10.34
5/28/2022 6:00:00 PM 16.84 62.312 0.399 8.44 449.3 10.35
5/28/2022 6:15:00 PM 16.82 62.276 0.399 8.44 100.7 10.09
5/28/2022 6:30:00 PM 16.87 62.366 0.399 8.47 104 9.93
5/28/2022 6:45:00 PM 16.91 62.438 0.399 8.43 133.9 9.9
5/28/2022 7:00:00 PM 16.91 62.438 0.399 8.37 526.1 9.59
5/28/2022 7:15:00 PM 16.93 62.474 0.399 8.38 288.5 9.47
5/28/2022 7:30:00 PM 16.93 62.474 0.399 8.46 128.4 9.27
5/28/2022 7:45:00 PM 16.94 62.492 0.399 8.43 2365 9.11
5/28/2022 8:00:00 PM 16.94 62.492 0.399 8.45 952.7 8.98
5/28/2022 8:15:00 PM 16.91 62.438 0.399 8.43 1407 8.83
5/28/2022 8:30:00 PM 16.88 62.384 0.399 8.46 1189 8.68
5/28/2022 8:45:00 PM 16.84 62.312 0.4 8.46 204.3 8.51
5/28/2022 9:00:00 PM 16.79 62.222 0.4 8.37 460.8 8.35
5/28/2022 9:15:00 PM 16.75 62.15 0.4 8.42 549.9 8.24
5/28/2022 9:30:00 PM 16.7 62.06 0.4 8.43 434.9 8.16
5/28/2022 9:45:00 PM 16.65 61.97 0.4 8.49 616.5 8.11
5/28/2022 10:00:00 PM 16.59 61.862 0.4 8.49 523.3 8.05
5/28/2022 10:15:00 PM 16.53 61.754 0.4 8.49 226.9 7.99
5/28/2022 10:30:00 PM 16.47 61.646 0.401 8.42 1618 7.95
5/28/2022 10:45:00 PM 16.4 61.52 0.401 8.47 1301 7.89
5/28/2022 11:00:00 PM 16.32 61.376 0.401 8.51 1888 7.86
5/28/2022 11:15:00 PM 16.24 61.232 0.402 8.48 1626 7.83
5/28/2022 11:30:00 PM 16.16 61.088 0.402 8.5 1084 7.78
5/28/2022 11:45:00 PM 16.09 60.962 0.402 8.48 893.9 7.78
5/29/2022 12:00:00 AM 16.01 60.818 0.403 8.48 520 7.78
5/29/2022 12:15:00 AM 15.93 60.674 0.403 8.46 347.7 7.76
5/29/2022 12:30:00 AM 15.84 60.512 0.403 8.52 1255 7.76
5/29/2022 12:45:00 AM 15.75 60.35 0.404 8.61 1245 7.77
5/29/2022 1:00:00 AM 15.67 60.206 0.404 8.73 427.3 7.76
5/29/2022 1:15:00 AM 15.57 60.026 0.404 8.78 1251 7.77
5/29/2022 1:30:00 AM 15.48 59.864 0.405 8.82 2541 7.77
5/29/2022 1:45:00 AM 15.38 59.684 0.405 8.88 1987 7.78
5/29/2022 2:00:00 AM 15.28 59.504 0.405 8.93 467.4 7.8
5/29/2022 2:15:00 AM 15.18 59.324 0.406 8.94 255.7 7.83
5/29/2022 2:30:00 AM 15.07 59.126 0.406 8.86 501 7.84
5/29/2022 2:45:00 AM 14.98 58.964 0.406 8.89 262.3 7.82
5/29/2022 3:00:00 AM 14.87 58.766 0.407 8.9 1846 7.87
5/29/2022 3:15:00 AM 14.78 58.604 0.407 8.9 645 7.88
5/29/2022 3:30:00 AM 14.68 58.424 0.407 8.87 297.1 7.92
5/29/2022 3:45:00 AM 14.58 58.244 0.408 8.91 1013 7.93
5/29/2022 4:00:00 AM 14.48 58.064 0.408 8.92 362.8 7.97
5/29/2022 4:15:00 AM 14.39 57.902 0.408 9 275.9 8.01
5/29/2022 4:30:00 AM 14.3 57.74 0.408 8.98 2681 8.02
5/29/2022 4:45:00 AM 14.2 57.56 0.408 9.01 355.9 8.06
5/29/2022 5:00:00 AM 14.1 57.38 0.408 9.04 712.4 8.1
5/29/2022 5:15:00 AM 14.01 57.218 0.408 8.99 660.1 8.12
5/29/2022 5:30:00 AM 13.91 57.038 0.408 9.06 1800 8.16
5/29/2022 5:45:00 AM 13.81 56.858 0.409 9.13 869.2 8.19
5/29/2022 6:00:00 AM 13.72 56.696 0.409 9.12 848.7 8.23
5/29/2022 6:15:00 AM 13.63 56.534 0.409 9.08 1621 8.26
5/29/2022 6:30:00 AM 13.54 56.372 0.409 9.12 293.5 8.37
5/29/2022 6:45:00 AM 13.47 56.246 0.409 9.12 486 8.43
5/29/2022 7:00:00 AM 13.4 56.12 0.41 9.15 685.6 8.51
5/29/2022 7:15:00 AM 13.36 56.048 0.41 9.11 584.2 8.6
5/29/2022 7:30:00 AM 13.31 55.958 0.41 9.12 319.7 8.71
5/29/2022 7:45:00 AM 13.29 55.922 0.41 9.16 543 8.82
5/29/2022 8:00:00 AM 13.28 55.904 0.41 9.17 1098 8.94
5/29/2022 8:15:00 AM 13.26 55.868 0.409 9.12 827.6 9.05
5/29/2022 8:30:00 AM 13.27 55.886 0.409 9.09 381 9.17
5/29/2022 8:45:00 AM 13.29 55.922 0.409 9.09 366.7 9.31
5/29/2022 9:00:00 AM 13.32 55.976 0.408 9.01 1271 9.46
5/29/2022 9:15:00 AM 13.36 56.048 0.408 8.97 1267 9.59
5/29/2022 9:30:00 AM 13.42 56.156 0.408 8.91 403.8 9.75
5/29/2022 9:45:00 AM 13.5 56.3 0.407 8.78 455.7 9.9
5/29/2022 10:00:00 AM 13.62 56.516 0.407 8.75 1840 10.12
5/29/2022 10:15:00 AM 13.68 56.624 0.407 8.81 1705 10.28
5/29/2022 10:30:00 AM 13.76 56.768 0.407 8.88 353.2 10.42
5/29/2022 10:45:00 AM 13.9 57.02 0.407 8.89 352.8 10.56
5/29/2022 11:00:00 AM 14.06 57.308 0.407 8.65 259.9 10.68
5/29/2022 11:15:00 AM 14.24 57.632 0.407 8.61 277.4 10.78
5/29/2022 11:30:00 AM 14.43 57.974 0.407 8.7 1009 10.81
5/29/2022 11:45:00 AM 14.61 58.298 0.407 8.73 680.9 10.91
5/29/2022 12:00:00 PM 14.81 58.658 0.406 8.77 1267 11.04
5/29/2022 12:15:00 PM 15.01 59.018 0.406 8.66 820.3 11.13
5/29/2022 12:30:00 PM 15.22 59.396 0.406 8.6 606.6 11.23
5/29/2022 12:45:00 PM 15.43 59.774 0.405 8.6 389.3 11.31
5/29/2022 1:00:00 PM 15.66 60.188 0.405 8.64 751.3 11.36
5/29/2022 1:15:00 PM 15.88 60.584 0.405 8.7 978.1 11.43
5/29/2022 1:30:00 PM 16.08 60.944 0.404 8.83 661 11.42
5/29/2022 1:45:00 PM 16.32 61.376 0.404 8.7 422.5 11.5
5/29/2022 2:00:00 PM 16.55 61.79 0.404 8.72 426.7 11.53
5/29/2022 2:15:00 PM 16.79 62.222 0.404 8.66 950.1 11.6
5/29/2022 2:30:00 PM 17.01 62.618 0.403 8.65 536.2 11.62
5/29/2022 2:45:00 PM 17.22 62.996 0.403 8.58 1604 11.59
5/29/2022 3:00:00 PM 17.2 62.96 0.403 8.61 825.1 11.38
5/29/2022 3:15:00 PM 17.41 63.338 0.402 8.51 720.6 11.35
5/29/2022 3:30:00 PM 17.63 63.734 0.402 8.53 536.6 11.42
5/29/2022 3:45:00 PM 17.85 64.13 0.401 8.56 1561 11.43
5/29/2022 4:00:00 PM 18 64.4 0.401 8.47 1252 11.33
5/29/2022 4:15:00 PM 18.02 64.436 0.401 8.25 510.2 11.08
5/29/2022 4:30:00 PM 18.04 64.472 0.402 8.31 869.4 10.82
5/29/2022 4:45:00 PM 18.11 64.598 0.401 8.29 465.1 10.69
5/29/2022 5:00:00 PM 18.33 64.994 0.4 8.31 420.6 10.72
5/29/2022 5:15:00 PM 18.46 65.228 0.4 8.28 137.5 10.68
5/29/2022 5:30:00 PM 18.57 65.426 0.4 8.28 191.6 10.55
5/29/2022 5:45:00 PM 18.67 65.606 0.4 8.19 721 10.41
5/29/2022 6:00:00 PM 18.73 65.714 0.399 8.2 139.3 10.21
5/29/2022 6:15:00 PM 18.77 65.786 0.399 8.21 927.4 10.03
5/29/2022 6:30:00 PM 18.79 65.82201 0.399 8.17 847.4 9.84
5/29/2022 6:45:00 PM 18.82 65.876 0.399 8.1 2127 9.67
5/29/2022 7:00:00 PM 18.84 65.912 0.399 8.16 115.9 9.47
5/29/2022 7:15:00 PM 18.85 65.93 0.399 8.1 357.5 9.27
5/29/2022 7:30:00 PM 18.85 65.93 0.399 8.18 594.8 9.04
5/29/2022 7:45:00 PM 18.85 65.93 0.399 8.17 714.9 8.86
5/29/2022 8:00:00 PM 18.83 65.894 0.399 8.14 181.7 8.67
5/29/2022 8:15:00 PM 18.79 65.82201 0.4 8.19 923.2 8.51
5/29/2022 8:30:00 PM 18.75 65.75 0.4 8.13 452.5 8.36
5/29/2022 8:45:00 PM 18.69 65.642 0.4 8.19 577.3 8.2
5/29/2022 9:00:00 PM 18.61 65.498 0.4 8.12 159.8 8.05
5/29/2022 9:15:00 PM 18.53 65.354 0.4 8.16 120.9 7.95
5/29/2022 9:30:00 PM 18.44 65.192 0.4 8.16 975.4 7.86
5/29/2022 9:45:00 PM 18.35 65.03 0.401 8.18 348.4 7.72
5/29/2022 10:00:00 PM 18.26 64.868 0.401 8.18 1478 7.68
5/29/2022 10:15:00 PM 18.17 64.706 0.401 8.1 586.9 7.59
5/29/2022 10:30:00 PM 18.08 64.544 0.401 8.15 186.9 7.51
5/29/2022 10:45:00 PM 17.99 64.382 0.402 8.13 107 7.45
5/29/2022 11:00:00 PM 17.9 64.22 0.402 8.18 1040 7.4
5/29/2022 11:15:00 PM 17.82 64.076 0.402 8.22 605.3 7.33
5/29/2022 11:30:00 PM 17.74 63.932 0.402 8.16 748.1 7.33
5/29/2022 11:45:00 PM 17.66 63.788 0.402 8.23 109.3 7.3
5/30/2022 12:00:00 AM 17.57 63.626 0.402 8.19 1097 7.28
5/30/2022 12:15:00 AM 17.49 63.482 0.402 8.18 2259 7.27
5/30/2022 12:30:00 AM 17.4 63.32 0.403 8.19 1580 7.23
5/30/2022 12:45:00 AM 17.3 63.14 0.403 8.22 575.6 7.23
5/30/2022 1:00:00 AM 17.2 62.96 0.403 8.19 108.5 7.23
5/30/2022 1:15:00 AM 17.09 62.762 0.404 8.2 720.3 7.21
5/30/2022 1:30:00 AM 16.98 62.564 0.404 8.2 408.9 7.24
5/30/2022 1:45:00 AM 16.87 62.366 0.405 8.23 323.6 7.25
5/30/2022 2:00:00 AM 16.77 62.186 0.405 8.22 1036 7.24
5/30/2022 2:15:00 AM 16.65 61.97 0.406 8.23 205.2 7.27
5/30/2022 2:30:00 AM 16.54 61.772 0.406 8.29 577.5 7.29
5/30/2022 2:45:00 AM 16.43 61.574 0.406 8.28 277.7 7.31
5/30/2022 3:00:00 AM 16.32 61.376 0.406 8.28 381 7.34
5/30/2022 3:15:00 AM 16.22 61.196 0.407 8.28 1018 7.36
5/30/2022 3:30:00 AM 16.11 60.998 0.407 8.28 375.4 7.4
5/30/2022 3:45:00 AM 16.01 60.818 0.407 8.26 388.8 7.41
5/30/2022 4:00:00 AM 15.9 60.62 0.408 8.28 227.6 7.45
5/30/2022 4:15:00 AM 15.81 60.458 0.408 8.28 342.1 7.49
5/30/2022 4:30:00 AM 15.71 60.278 0.408 8.29 460 7.52
5/30/2022 4:45:00 AM 15.61 60.098 0.408 8.3 342.3 7.53
5/30/2022 5:00:00 AM 15.52 59.936 0.409 8.35 1029 7.59
5/30/2022 5:15:00 AM 15.42 59.756 0.409 8.36 191 7.61
5/30/2022 5:30:00 AM 15.32 59.576 0.41 8.38 497.3 7.66
5/30/2022 5:45:00 AM 15.22 59.396 0.41 8.37 1807 7.66
5/30/2022 6:00:00 AM 15.13 59.234 0.41 8.4 210.9 7.72
5/30/2022 6:15:00 AM 15.04 59.072 0.41 8.34 1325 7.79
5/30/2022 6:30:00 AM 14.94 58.892 0.41 8.38 1101 7.84
5/30/2022 6:45:00 AM 14.86 58.748 0.411 8.35 1017 7.93
5/30/2022 7:00:00 AM 14.79 58.622 0.411 8.4 310.2 8.03
5/30/2022 7:15:00 AM 14.73 58.514 0.411 8.45 158 8.11
5/30/2022 7:30:00 AM 14.68 58.424 0.411 8.51 291 8.22
5/30/2022 7:45:00 AM 14.63 58.334 0.41 8.51 879.7 8.35
5/30/2022 8:00:00 AM 14.6 58.28 0.411 8.33 657.2 8.44
5/30/2022 8:15:00 AM 14.58 58.244 0.411 8.32 359.5 8.54
5/30/2022 8:30:00 AM 14.57 58.226 0.41 8.35 1975 8.66
5/30/2022 8:45:00 AM 14.57 58.226 0.41 8.4 1505 8.84
5/30/2022 9:00:00 AM 14.58 58.244 0.41 8.42 435.2 8.98
5/30/2022 9:15:00 AM 14.61 58.298 0.41 8.52 592.5 9.15
5/30/2022 9:30:00 AM 14.65 58.37 0.41 8.53 253.7 9.32
5/30/2022 9:45:00 AM 14.71 58.478 0.41 8.53 765.4 9.45
5/30/2022 10:00:00 AM 14.79 58.622 0.41 8.55 1156 9.6
5/30/2022 10:15:00 AM 14.89 58.802 0.409 8.57 121.1 9.74
5/30/2022 10:30:00 AM 15.01 59.018 0.409 8.68 1028 9.92
5/30/2022 10:45:00 AM 15.15 59.27 0.409 8.7 428 10.06
5/30/2022 11:00:00 AM 15.31 59.558 0.409 8.81 476.7 10.19
5/30/2022 11:15:00 AM 15.47 59.846 0.409 8.84 216 10.28
5/30/2022 11:30:00 AM 15.65 60.17 0.409 8.91 456.2 10.38
5/30/2022 11:45:00 AM 15.84 60.512 0.409 8.82 139.9 10.52
5/30/2022 12:00:00 PM 16.04 60.872 0.409 8.81 746.7 10.67
5/30/2022 12:15:00 PM 16.25 61.25 0.409 8.72 974.5 10.78
5/30/2022 12:30:00 PM 16.45 61.61 0.409 8.78 1534 10.87
5/30/2022 12:45:00 PM 16.68 62.024 0.408 8.72 393.6 10.97
5/30/2022 1:00:00 PM 16.9 62.42 0.408 8.73 126.3 11.05
5/30/2022 1:15:00 PM 17.11 62.798 0.407 8.68 402.2 11.13
5/30/2022 1:30:00 PM 17.35 63.23 0.407 8.64 558.9 11.22
5/30/2022 1:45:00 PM 17.57 63.626 0.407 8.55 213.1 11.3
5/30/2022 2:00:00 PM 17.8 64.04 0.406 8.57 229.1 11.32
5/30/2022 2:15:00 PM 18.02 64.436 0.406 8.57 202.4 11.35
5/30/2022 2:30:00 PM 18.22 64.796 0.406 8.48 989.4 11.34
5/30/2022 2:45:00 PM 18.37 65.066 0.406 8.5 490.8 11.31
5/30/2022 3:00:00 PM 18.56 65.408 0.405 8.5 359.6 11.3
5/30/2022 3:15:00 PM 18.72 65.696 0.405 8.47 144.2 11.27
5/30/2022 3:30:00 PM 18.9 66.02 0.405 8.48 487.7 11.25
5/30/2022 3:45:00 PM 19.05 66.29 0.404 8.42 1427 11.14
5/30/2022 4:00:00 PM 19.22 66.596 0.404 8.27 178.9 11.1
5/30/2022 4:15:00 PM 19.38 66.884 0.404 8.26 253.1 11.01
5/30/2022 4:30:00 PM 19.5 67.1 0.403 8.21 122 10.89
5/30/2022 4:45:00 PM 19.62 67.316 0.403 8.2 216 10.76
5/30/2022 5:00:00 PM 19.72 67.496 0.403 8.25 271.1 10.61
5/30/2022 5:15:00 PM 19.84 67.712 0.403 8.26 565 10.48
5/30/2022 5:30:00 PM 19.93 67.874 0.403 8.22 785.7 10.31
5/30/2022 5:45:00 PM 20.01 68.018 0.403 8.22 226.6 10.12
5/30/2022 6:00:00 PM 20.07 68.126 0.403 8.18 291.2 9.9
5/30/2022 6:15:00 PM 20.12 68.216 0.403 8.16 106.8 9.68
5/30/2022 6:30:00 PM 20.17 68.306 0.403 8.11 187.3 9.53
5/30/2022 6:45:00 PM 20.2 68.36 0.403 8.16 131.3 9.34
5/30/2022 7:00:00 PM 20.23 68.414 0.402 8.09 240.8 9.13
5/30/2022 7:15:00 PM 20.23 68.414 0.402 8.06 728.4 8.88
5/30/2022 7:30:00 PM 20.25 68.45 0.402 8.06 100.4 8.68
5/30/2022 7:45:00 PM 20.26 68.468 0.402 8.08 144.9 8.46
5/30/2022 8:00:00 PM 20.26 68.468 0.402 8.09 242.2 8.28
5/30/2022 8:15:00 PM 20.25 68.45 0.402 8.1 186.6 8.07
5/30/2022 8:30:00 PM 20.22 68.396 0.402 8.11 255.1 7.88
5/30/2022 8:45:00 PM 20.19 68.342 0.402 8.12 101.6 7.68
5/30/2022 9:00:00 PM 20.15 68.27 0.402 8.09 294.1 7.56
5/30/2022 9:15:00 PM 20.1 68.18 0.403 8.1 101.5 7.44
5/30/2022 9:30:00 PM 20.04 68.07201 0.403 8.11 251.3 7.32
5/30/2022 9:45:00 PM 19.97 67.946 0.402 8.1 445.8 7.23
5/30/2022 10:00:00 PM 19.89 67.802 0.402 8.1 104.5 7.11
5/30/2022 10:15:00 PM 19.81 67.658 0.402 8.1 902.7 7.02
5/30/2022 10:30:00 PM 19.73 67.514 0.403 8.09 345.6 6.94
5/30/2022 10:45:00 PM 19.65 67.37 0.403 8.07 100 6.9
5/30/2022 11:00:00 PM 19.56 67.208 0.403 8.08 104.8 6.84
5/30/2022 11:15:00 PM 19.46 67.028 0.403 8.09 136.1 6.78
5/30/2022 11:30:00 PM 19.37 66.866 0.404 8.06 191 6.74
5/30/2022 11:45:00 PM 19.27 66.686 0.404 8.04 126.1 6.68
5/31/2022 12:00:00 AM 19.16 66.488 0.404 8.06 119.6 6.63
5/31/2022 12:15:00 AM 19.06 66.308 0.405 8.07 120.1 6.66
5/31/2022 12:30:00 AM 18.96 66.128 0.406 8.07 127.3 6.65
5/31/2022 12:45:00 AM 18.85 65.93 0.405 8.09 41.05 6.65
5/31/2022 1:00:00 AM 18.74 65.732 0.406 8.12 34.63 6.65
5/31/2022 1:15:00 AM 18.63 65.534 0.407 8.12 43.97 6.65
5/31/2022 1:30:00 AM 18.52 65.336 0.407 8.12 54.52 6.64
5/31/2022 1:45:00 AM 18.41 65.138 0.408 8.16 43.21 6.66
5/31/2022 2:00:00 AM 18.3 64.94 0.408 8.17 36.4 6.68
5/31/2022 2:15:00 AM 18.19 64.742 0.409 8.18 29.71 6.69
5/31/2022 2:30:00 AM 18.08 64.544 0.409 8.16 31.66 6.72
5/31/2022 2:45:00 AM 17.96 64.328 0.411 8.16 24.12 6.74
5/31/2022 3:00:00 AM 17.85 64.13 0.411 8.18 38.27 6.77
5/31/2022 3:15:00 AM 17.73 63.914 0.412 8.18 26.41 6.79
5/31/2022 3:30:00 AM 17.61 63.698 0.413 8.21 28.38 6.82
5/31/2022 3:45:00 AM 17.49 63.482 0.413 8.21 956.7 6.89
5/31/2022 4:00:00 AM 17.37 63.266 0.413 8.22 15.24 6.92
5/31/2022 4:15:00 AM 17.26 63.068 0.414 8.19 14.68 6.95
5/31/2022 4:30:00 AM 17.14 62.852 0.414 8.2 16.05 7
5/31/2022 4:45:00 AM 17.01 62.618 0.414 8.24 17.92 7.04
5/31/2022 5:00:00 AM 16.9 62.42 0.414 8.27 15.1 7.05
5/31/2022 5:15:00 AM 16.78 62.204 0.414 8.24 19.97 7.08
5/31/2022 5:30:00 AM 16.67 62.006 0.414 8.23 20.69 7.14
5/31/2022 5:45:00 AM 16.56 61.808 0.414 8.27 14.56 7.19
5/31/2022 6:00:00 AM 16.45 61.61 0.414 8.29 15.64 7.21
5/31/2022 6:15:00 AM 16.34 61.412 0.414 8.27 16.14 7.28
5/31/2022 6:30:00 AM 16.25 61.25 0.414 8.32 15.75 7.34
5/31/2022 6:45:00 AM 16.16 61.088 0.415 8.28 16.19 7.4
5/31/2022 7:00:00 AM 16.08 60.944 0.414 8.29 15.81 7.49
5/31/2022 7:15:00 AM 16 60.8 0.414 8.32 14.46 7.56
5/31/2022 7:30:00 AM 15.94 60.692 0.414 8.32 20.11 7.68
5/31/2022 7:45:00 AM 15.88 60.584 0.414 8.35 16.51 7.78
5/31/2022 8:00:00 AM 15.84 60.512 0.414 8.38 15.78 7.92
5/31/2022 8:15:00 AM 15.81 60.458 0.414 8.35 14.7 8.05
5/31/2022 8:30:00 AM 15.8 60.44 0.414 8.34 14.62 8.2
5/31/2022 8:45:00 AM 15.79 60.422 0.414 8.34 14.81 8.37
5/31/2022 9:00:00 AM 15.8 60.44 0.414 8.34 15.54 8.5
5/31/2022 9:15:00 AM 15.82 60.476 0.414 8.33 16.24 8.62
5/31/2022 9:30:00 AM 15.87 60.566 0.414 8.32 14.43 8.8
5/31/2022 9:45:00 AM 15.92 60.656 0.414 8.33 17.74 8.94
5/31/2022 10:00:00 AM 16.01 60.818 0.414 8.35 15.39 9.13
5/31/2022 10:15:00 AM 16.1 60.98 0.414 8.36 14.67 9.3
5/31/2022 10:30:00 AM 16.22 61.196 0.414 8.37 14.78 9.45
5/31/2022 10:45:00 AM 16.36 61.448 0.414 8.37 17.71 9.65
5/31/2022 11:00:00 AM 16.51 61.718 0.412 8.34 15.47 9.78
5/31/2022 11:15:00 AM 16.68 62.024 0.412 8.32 15.46 9.93
5/31/2022 11:30:00 AM 16.85 62.33 0.412 8.32 13.89 10.04
5/31/2022 11:45:00 AM 17.03 62.654 0.413 8.33 17.26 10.21
5/31/2022 12:00:00 PM 17.24 63.032 0.413 8.28 14.79 10.38
5/31/2022 12:15:00 PM 17.43 63.374 0.433 8.2 24.88 10.46
5/31/2022 12:30:00 PM 17.58 63.644 0.427 8.16 18.9 10.49
5/31/2022 12:45:00 PM 17.77 63.986 0.418 8.18 17.24 10.55
5/31/2022 1:00:00 PM 17.85 64.13 0.415 8.19 16.2 10.53
5/31/2022 1:15:00 PM 17.93 64.274 0.413 8.17 17.36 10.51
5/31/2022 1:30:00 PM 18.01 64.418 0.412 8.17 19.12 10.51
5/31/2022 1:45:00 PM 18.2 64.76 0.413 8.18 26.38 10.61
5/31/2022 2:00:00 PM 18.26 64.868 0.412 8.26 19.95 10.58
5/31/2022 2:15:00 PM 18.45 65.21 0.412 8.24 17.82 10.69
5/31/2022 2:30:00 PM 18.66 65.588 0.411 8.28 18.05 10.83
5/31/2022 2:45:00 PM 18.9 66.02 0.41 8.32 20.91 10.95
5/31/2022 3:00:00 PM 19.11 66.398 0.41 8.31 26.55 10.98
5/31/2022 3:15:00 PM 19.25 66.65 0.41 8.34 18.69 10.99
5/31/2022 3:30:00 PM 19.4 66.92 0.41 8.34 21.4 11.01
5/31/2022 3:45:00 PM 19.52 67.136 0.41 8.39 21.35 10.92
5/31/2022 4:00:00 PM 19.62 67.316 0.41 8.25 19.18 10.86
5/31/2022 4:15:00 PM 19.75 67.55 0.41 8.25 19.7 10.78
5/31/2022 4:30:00 PM 19.85 67.73 0.409 8.32 18.87 10.7
5/31/2022 4:45:00 PM 19.93 67.874 0.409 8.35 21.64 10.59
5/31/2022 5:00:00 PM 20.02 68.036 0.409 8.36 22.87 10.51
5/31/2022 5:15:00 PM 20.09 68.162 0.409 8.35 24.36 10.36
5/31/2022 5:30:00 PM 20.15 68.27 0.41 8.34 28.96 10.23
5/31/2022 5:45:00 PM 20.2 68.36 0.411 8.34 23.25 10.05
5/31/2022 6:00:00 PM 20.24 68.432 0.411 8.18 23.7 9.84
5/31/2022 6:15:00 PM 20.27 68.486 0.412 8.24 23.37 9.68
5/31/2022 6:30:00 PM 20.28 68.504 0.412 8.11 23.44 9.49
5/31/2022 6:45:00 PM 20.3 68.54 0.412 8.06 24.08 9.22
5/31/2022 7:00:00 PM 20.31 68.558 0.413 8.05 23.68 9
5/31/2022 7:15:00 PM 20.31 68.558 0.412 8.06 24.44 8.78
5/31/2022 7:30:00 PM 20.32 68.576 0.412 8.05 25.81 8.54
5/31/2022 7:45:00 PM 20.33 68.594 0.411 8.06 23.01 8.31
5/31/2022 8:00:00 PM 20.32 68.576 0.411 8.06 18.47 8.16
5/31/2022 8:15:00 PM 20.31 68.558 0.411 8.04 17.88 7.97
5/31/2022 8:30:00 PM 20.29 68.522 0.41 8.02 17.83 7.82
5/31/2022 8:45:00 PM 20.27 68.486 0.41 8.03 18.81 7.63
5/31/2022 9:00:00 PM 20.23 68.414 0.408 8.01 21.15 7.47
5/31/2022 9:15:00 PM 20.19 68.342 0.399 7.93 22.67 7.33
5/31/2022 9:30:00 PM 20.14 68.252 0.41 7.95 22.83 7.23
5/31/2022 9:45:00 PM 20.09 68.162 0.41 8.21 20.61 7.1
5/31/2022 10:00:00 PM 20.02 68.036 0.41 8.26 21.34 7.04
5/31/2022 10:15:00 PM 19.95 67.91 0.41 8.28 23.55 6.95
5/31/2022 10:30:00 PM 19.87 67.766 0.41 8.27 22.5 6.89
5/31/2022 10:45:00 PM 19.8 67.64 0.41 8.28 23.73 6.78
5/31/2022 11:00:00 PM 19.72 67.496 0.41 8.3 34.7 6.74
5/31/2022 11:15:00 PM 19.64 67.352 0.411 8.32 29.34 6.67
5/31/2022 11:30:00 PM 19.56 67.208 0.411 8.21 35.58 6.62
5/31/2022 11:45:00 PM 19.48 67.064 0.411 8.05 43.14 6.59
6/1/2022 12:00:00 AM 19.39 66.902 0.411 7.91 39.27 6.55
6/1/2022 12:15:00 AM 19.31 66.758 0.411 7.91 19.85 6.53
6/1/2022 12:30:00 AM 19.23 66.614 0.411 7.89 20.19 6.52
6/1/2022 12:45:00 AM 19.15 66.47 0.411 7.89 18.99 6.48
6/1/2022 1:00:00 AM 19.07 66.326 0.411 7.87 21.7 6.49
6/1/2022 1:15:00 AM 18.99 66.182 0.411 7.91 21.49 6.49
6/1/2022 1:30:00 AM 18.89 66.002 0.412 7.91 21.58 6.46
6/1/2022 1:45:00 AM 18.79 65.82201 0.412 7.9 20.93 6.46
6/1/2022 2:00:00 AM 18.69 65.642 0.413 7.91 20.8 6.41
6/1/2022 2:15:00 AM 18.59 65.462 0.413 7.9 23.22 6.4
6/1/2022 2:30:00 AM 18.49 65.282 0.414 7.91 23.44 6.44
6/1/2022 2:45:00 AM 18.38 65.084 0.414 7.93 22.2 6.43
6/1/2022 3:00:00 AM 18.28 64.904 0.415 7.92 21.83 6.46
6/1/2022 3:15:00 AM 18.17 64.706 0.415 7.96 21.86 6.5
6/1/2022 3:30:00 AM 18.07 64.526 0.415 8 22.78 6.56
6/1/2022 3:45:00 AM 17.96 64.328 0.416 7.99 25.49 6.57
6/1/2022 4:00:00 AM 17.86 64.148 0.416 8.03 26.72 6.61
6/1/2022 4:15:00 AM 17.75 63.95 0.417 8.06 22.47 6.67
6/1/2022 4:30:00 AM 17.65 63.77 0.417 8.07 22.72 6.73
6/1/2022 4:45:00 AM 17.54 63.572 0.417 8.14 24.12 6.74
6/1/2022 5:00:00 AM 17.44 63.392 0.418 8.11 22.55 6.78
6/1/2022 5:15:00 AM 17.34 63.212 0.418 8.12 23.02 6.81
6/1/2022 5:30:00 AM 17.24 63.032 0.419 8.13 23.26 6.85
6/1/2022 5:45:00 AM 17.14 62.852 0.419 8.24 22.94 6.86
6/1/2022 6:00:00 AM 17.04 62.672 0.419 8.22 23.03 6.91
6/1/2022 6:15:00 AM 16.95 62.51 0.42 8.35 27.36 6.98
6/1/2022 6:30:00 AM 16.86 62.348 0.42 8.39 22.87 7.08
6/1/2022 6:45:00 AM 16.78 62.204 0.42 8.32 23.77 7.14
6/1/2022 7:00:00 AM 16.71 62.078 0.42 8.52 23.58 7.23
6/1/2022 7:15:00 AM 16.65 61.97 0.421 8.6 27.44 7.33
6/1/2022 7:30:00 AM 16.59 61.862 0.421 8.66 28.82 7.44
6/1/2022 7:45:00 AM 16.56 61.808 0.422 8.68 25.09 7.55
6/1/2022 8:00:00 AM 16.53 61.754 0.423 8.64 26.19 7.64
6/1/2022 8:15:00 AM 16.53 61.754 0.422 8.76 26.6 7.75
6/1/2022 8:30:00 AM 16.53 61.754 0.424 8.74 26.02 7.91
6/1/2022 8:45:00 AM 16.54 61.772 0.424 8.74 26.01 8.06
6/1/2022 9:00:00 AM 16.58 61.844 0.424 8.7 26.7 8.19
6/1/2022 9:15:00 AM 16.63 61.934 0.424 8.55 26.03 8.39
6/1/2022 9:30:00 AM 16.68 62.024 0.424 8.61 25.33 8.55
6/1/2022 9:45:00 AM 16.75 62.15 0.425 8.7 25.99 8.7
6/1/2022 10:00:00 AM 16.84 62.312 0.423 8.7 36.32 8.9
6/1/2022 10:15:00 AM 16.94 62.492 0.421 8.58 36.75 9.1
6/1/2022 10:30:00 AM 17.08 62.744 0.422 8.66 35.51 9.28
6/1/2022 10:45:00 AM 17.21 62.978 0.424 8.62 36.65 9.43
6/1/2022 11:00:00 AM 17.34 63.212 0.425 8.6 26.31 9.57
6/1/2022 11:15:00 AM 17.48 63.464 0.423 8.58 24.32 9.7
6/1/2022 11:30:00 AM 17.61 63.698 0.422 8.59 24.71 9.86
6/1/2022 11:45:00 AM 17.77 63.986 0.422 8.51 24.66 10.02
6/1/2022 12:00:00 PM 17.95 64.31 0.421 8.5 26.02 10.16
6/1/2022 12:15:00 PM 18.11 64.598 0.421 8.51 27.27 10.31
6/1/2022 12:30:00 PM 18.19 64.742 0.421 8.49 52.61 10.27
6/1/2022 12:45:00 PM 18.24 64.832 0.421 8.49 53.84 10.24
6/1/2022 1:00:00 PM 18.35 65.03 0.42 8.44 57.02 10.32
6/1/2022 1:15:00 PM 18.52 65.336 0.42 8.48 60.75 10.39
6/1/2022 1:30:00 PM 18.75 65.75 0.42 8.49 64.95 10.52
6/1/2022 1:45:00 PM 18.95 66.11 0.442 8.48 68.16 10.6
6/1/2022 2:00:00 PM 19.17 66.506 0.425 8.37 80.09 10.69
6/1/2022 2:15:00 PM 19.38 66.884 0.423 8.35 40.41 10.68
6/1/2022 2:30:00 PM 19.59 67.262 0.422 8.36 53.82 10.82
6/1/2022 2:45:00 PM 19.68 67.424 0.421 8.39 48.82 10.8
6/1/2022 3:00:00 PM 19.85 67.73 0.419 8.54 55.89 10.86
6/1/2022 3:15:00 PM 19.94 67.892 0.419 8.53 67.62 10.8
6/1/2022 3:30:00 PM 20.02 68.036 0.418 8.54 35.08 10.77
6/1/2022 3:45:00 PM 20.12 68.216 0.418 8.52 40.64 10.81
6/1/2022 4:00:00 PM 20.23 68.414 0.417 8.39 80.15 10.77
6/1/2022 4:15:00 PM 20.31 68.558 0.416 8.3 111.2 10.69
6/1/2022 4:30:00 PM 20.38 68.684 0.416 8.39 77.93 10.61
6/1/2022 4:45:00 PM 20.48 68.864 0.416 8.4 105.9 10.5
6/1/2022 5:00:00 PM 20.55 68.99 0.415 8.43 203.7 10.41
6/1/2022 5:15:00 PM 20.6 69.08 0.415 8.46 236.4 10.28
6/1/2022 5:30:00 PM 20.64 69.152 0.415 8.43 40.81 10.16
6/1/2022 5:45:00 PM 20.68 69.224 0.414 8.38 21.25 10.02
6/1/2022 6:00:00 PM 20.69 69.242 0.415 8.42 20.49 9.81
6/1/2022 6:15:00 PM 20.72 69.296 0.415 8.39 21.75 9.62
6/1/2022 6:30:00 PM 20.74 69.332 0.415 8.41 25.98 9.39
6/1/2022 6:45:00 PM 20.72 69.296 0.418 8.3 27.22 9.08
6/1/2022 7:00:00 PM 20.72 69.296 0.417 8.32 26.75 8.75
6/1/2022 7:15:00 PM 20.71 69.278 0.415 8.35 25.67 8.53
6/1/2022 7:30:00 PM 20.7 69.26 0.415 8.31 25.18 8.36
6/1/2022 7:45:00 PM 20.69 69.242 0.414 8.34 23.87 8.17
6/1/2022 8:00:00 PM 20.68 69.224 0.414 8.34 23.38 7.97
6/1/2022 8:15:00 PM 20.66 69.188 0.415 8.33 22.5 7.78
6/1/2022 8:30:00 PM 20.64 69.152 0.413 8.38 24.65 7.62
6/1/2022 8:45:00 PM 20.61 69.098 0.413 8.42 24.33 7.44
6/1/2022 9:00:00 PM 20.58 69.044 0.413 8.32 22.54 7.27
6/1/2022 9:15:00 PM 20.55 68.99 0.413 8.25 23.15 7.18
6/1/2022 9:30:00 PM 20.5 68.9 0.413 8.24 23.62 7.06
6/1/2022 9:45:00 PM 20.46 68.828 0.413 8.27 24.67 6.9
6/1/2022 10:00:00 PM 20.4 68.72 0.414 8.24 26.88 6.76
6/1/2022 10:15:00 PM 20.35 68.63 0.415 8.26 24.62 6.57
6/1/2022 10:30:00 PM 20.3 68.54 0.414 8.38 23.57 6.49
6/1/2022 10:45:00 PM 20.24 68.432 0.415 8.44 24.02 6.45
6/1/2022 11:00:00 PM 20.17 68.306 0.414 8.32 23.23 6.44
6/1/2022 11:15:00 PM 20.12 68.216 0.423 8.36 24.36 6.23
6/1/2022 11:30:00 PM 20.05 68.09 0.43 8.3 24.5 6.14
6/1/2022 11:45:00 PM 19.94 67.892 0.42 8.33 24.09 6.12
6/2/2022 12:00:00 AM 19.84 67.712 0.416 8.37 24.82 6.17
6/2/2022 12:15:00 AM 19.74 67.532 0.414 8.36 25.82 6.13
6/2/2022 12:30:00 AM 19.64 67.352 0.416 8.42 25.02 6.14
6/2/2022 12:45:00 AM 19.55 67.19 0.417 8.43 25.82 6.23
6/2/2022 1:00:00 AM 19.46 67.028 0.421 8.43 26.68 6.2
6/2/2022 1:15:00 AM 19.37 66.866 0.422 8.45 25.55 6.19
6/2/2022 1:30:00 AM 19.28 66.704 0.42 8.51 25.47 6.17
6/2/2022 1:45:00 AM 19.19 66.542 0.42 8.54 24.91 6.17
6/2/2022 2:00:00 AM 19.1 66.38 0.418 8.75 25.45 6.2
6/2/2022 2:15:00 AM 19.02 66.236 0.416 8.59 25.22 6.2
6/2/2022 2:30:00 AM 18.93 66.074 0.416 8.64 26.45 6.22
6/2/2022 2:45:00 AM 18.84 65.912 0.414 8.6 28.92 6.22
6/2/2022 3:00:00 AM 18.75 65.75 0.414 8.68 29.56 6.24
6/2/2022 3:15:00 AM 18.67 65.606 0.414 8.68 28.26 6.2
6/2/2022 3:30:00 AM 18.58 65.444 0.414 8.71 28.7 6.28
6/2/2022 3:45:00 AM 18.49 65.282 0.415 8.66 28.99 6.25
6/2/2022 4:00:00 AM 18.41 65.138 0.415 8.68 29.36 6.26
6/2/2022 4:15:00 AM 18.32 64.976 0.416 8.64 29.44 6.32
6/2/2022 4:30:00 AM 18.23 64.814 0.418 8.65 32.05 6.35
6/2/2022 4:45:00 AM 18.14 64.652 0.419 8.64 44.1 6.34
6/2/2022 5:00:00 AM 18.06 64.508 0.42 8.63 38.14 6.42
6/2/2022 5:15:00 AM 17.97 64.346 0.42 8.67 43.25 6.47
6/2/2022 5:30:00 AM 17.88 64.184 0.421 8.66 47.78 6.53
6/2/2022 5:45:00 AM 17.79 64.022 0.421 8.64 40.96 6.57
6/2/2022 6:00:00 AM 17.7 63.86 0.421 8.67 36.18 6.62
6/2/2022 6:15:00 AM 17.62 63.716 0.422 8.7 34.28 6.62
6/2/2022 6:30:00 AM 17.54 63.572 0.422 8.69 37.23 6.69
6/2/2022 6:45:00 AM 17.46 63.428 0.422 8.84 33.36 6.72
6/2/2022 7:00:00 AM 17.39 63.302 0.422 8.83 35.08 6.81
6/2/2022 7:15:00 AM 17.31 63.158 0.421 8.85 35.27 6.97
6/2/2022 7:30:00 AM 17.24 63.032 0.429 8.9 49.84 6.98
6/2/2022 7:45:00 AM 17.19 62.942 0.423 8.91 33.97 7.08
6/2/2022 8:00:00 AM 17.14 62.852 0.422 8.92 36.23 7.18
6/2/2022 8:15:00 AM 17.09 62.762 0.421 9.15 37.5 7.3
6/2/2022 8:30:00 AM 17.03 62.654 0.421 9.19 34.99 7.35
6/2/2022 8:45:00 AM 16.98 62.564 0.421 9.2 34.53 7.46
6/2/2022 9:00:00 AM 16.95 62.51 0.421 9.14 36.33 7.57
6/2/2022 9:15:00 AM 16.9 62.42 0.421 9.1 34.35 7.65
6/2/2022 9:30:00 AM 16.88 62.384 0.42 9.12 32.91 7.86
6/2/2022 9:45:00 AM 16.88 62.384 0.42 9.01 34.33 8
6/2/2022 10:00:00 AM 16.88 62.384 0.42 9.02 35.81 8.18
6/2/2022 10:15:00 AM 16.89 62.402 0.42 9.01 36.55 8.36
6/2/2022 10:30:00 AM 16.89 62.402 0.42 9.1 36.05 8.46
6/2/2022 10:45:00 AM 16.89 62.402 0.419 9.01 32.21 8.56
6/2/2022 11:00:00 AM 16.96 62.528 0.419 8.98 36.11 8.83
6/2/2022 11:15:00 AM 17.02 62.636 0.419 9.04 36.57 9.11
6/2/2022 11:30:00 AM 17.03 62.654 0.419 9.04 38.75 9.18
6/2/2022 11:45:00 AM 17.07 62.726 0.419 9 37.62 9.3
6/2/2022 12:00:00 PM 17.08 62.744 0.419 9 37.72 9.47
6/2/2022 12:15:00 PM 17.11 62.798 0.419 8.92 38.74 9.57
6/2/2022 12:30:00 PM 17.13 62.834 0.419 8.96 38.56 9.55
6/2/2022 12:45:00 PM 17.13 62.834 0.418 9.11 36.99 9.5
6/2/2022 1:00:00 PM 17.15 62.87 0.42 8.94 38.03 9.37
6/2/2022 1:15:00 PM 17.12 62.816 0.419 8.93 37.43 9.37
6/2/2022 1:30:00 PM 17.1 62.78 0.418 8.94 35.55 9.34
6/2/2022 1:45:00 PM 17.1 62.78 0.418 8.94 36.61 9.48
6/2/2022 2:00:00 PM 17.11 62.798 0.417 8.96 36.76 9.5
6/2/2022 2:15:00 PM 17.08 62.744 0.417 8.95 37.87 9.52
6/2/2022 2:30:00 PM 17.06 62.708 0.417 9.09 39.67 9.5
6/2/2022 2:45:00 PM 17.05 62.69 0.417 9.04 33.57 9.37
6/2/2022 3:00:00 PM 17.15 62.87 0.422 8.87 36.03 9.38
6/2/2022 3:15:00 PM 17.21 62.978 0.419 8.87 34.42 9.57
6/2/2022 3:30:00 PM 17.2 62.96 0.417 8.93 34.03 9.59
6/2/2022 3:45:00 PM 17.2 62.96 0.415 8.97 38.14 9.64
6/2/2022 4:00:00 PM 17.23 63.014 0.415 8.91 41.66 9.73
6/2/2022 4:15:00 PM 17.24 63.032 0.416 8.89 37.47 9.71
6/2/2022 4:30:00 PM 17.26 63.068 0.415 8.86 36.51 9.71
6/2/2022 4:45:00 PM 17.27 63.086 0.414 8.83 35.97 9.8
6/2/2022 5:00:00 PM 17.3 63.14 0.413 8.83 36.82 9.93
6/2/2022 5:15:00 PM 17.3 63.14 0.413 8.91 37.2 9.8
6/2/2022 5:30:00 PM 17.3 63.14 0.413 8.7 38.64 9.77
6/2/2022 5:45:00 PM 17.31 63.158 0.412 8.76 35.88 9.73
6/2/2022 6:00:00 PM 17.29 63.122 0.412 8.78 38.06 9.55
6/2/2022 6:15:00 PM 17.27 63.086 0.412 8.94 38.22 9.41
6/2/2022 6:30:00 PM 17.25 63.05 0.412 9.07 44.72 9.29
6/2/2022 6:45:00 PM 17.23 63.014 0.412 9.1 37.71 9.09
6/2/2022 7:00:00 PM 17.22 62.996 0.413 9.25 38.02 8.98
6/2/2022 7:15:00 PM 17.2 62.96 0.413 9.14 38.57 8.84
6/2/2022 7:30:00 PM 17.17 62.906 0.413 9.17 37.9 8.78
6/2/2022 7:45:00 PM 17.14 62.852 0.413 9.16 38.91 8.63
6/2/2022 8:00:00 PM 17.1 62.78 0.413 9.17 40.03 8.55
6/2/2022 8:15:00 PM 17.06 62.708 0.413 9.29 39.74 8.43
6/2/2022 8:30:00 PM 17.02 62.636 0.413 9.27 40.11 8.3
6/2/2022 8:45:00 PM 16.98 62.564 0.413 9.19 40.75 8.18
6/2/2022 9:00:00 PM 16.94 62.492 0.413 9.14 38.86 8.08
6/2/2022 9:15:00 PM 16.91 62.438 0.413 9.08 40.32 7.94
6/2/2022 9:30:00 PM 16.88 62.384 0.412 9.11 36.8 7.89
6/2/2022 9:45:00 PM 16.84 62.312 0.412 9.12 38.12 7.87
6/2/2022 10:00:00 PM 16.81 62.258 0.412 9.1 37.26 7.85
6/2/2022 10:15:00 PM 16.79 62.222 0.412 9.17 37.07 7.77
6/2/2022 10:30:00 PM 16.76 62.168 0.412 9.19 37.11 7.72
6/2/2022 10:45:00 PM 16.75 62.15 0.412 9.15 37.8 7.67
6/2/2022 11:00:00 PM 16.73 62.114 0.412 9.26 37.05 7.62
6/2/2022 11:15:00 PM 16.71 62.078 0.411 9.07 36.72 7.58
6/2/2022 11:30:00 PM 16.69 62.042 0.412 9.08 38.32 7.54
6/2/2022 11:45:00 PM 16.66 61.988 0.412 9.08 38.13 7.47
6/3/2022 12:00:00 AM 16.64 61.952 0.412 8.91 38.91 7.48
6/3/2022 12:15:00 AM 16.62 61.916 0.412 8.98 38.68 7.45
6/3/2022 12:30:00 AM 16.59 61.862 0.412 9.07 38.39 7.39
6/3/2022 12:45:00 AM 16.55 61.79 0.412 9.07 39.23 7.4
6/3/2022 1:00:00 AM 16.51 61.718 0.413 8.65 39.65 7.37
6/3/2022 1:15:00 AM 16.47 61.646 0.413 8.66 38.7 7.37
6/3/2022 1:30:00 AM 16.42 61.556 0.413 8.61 39.2 7.39
6/3/2022 1:45:00 AM 16.38 61.484 0.413 8.76 38.99 7.31
6/3/2022 2:00:00 AM 16.33 61.394 0.413 8.69 39.46 7.35
6/3/2022 2:15:00 AM 16.28 61.304 0.413 8.61 111.5 7.34
6/3/2022 2:30:00 AM 16.23 61.214 0.413 8.56 94.07 7.37
6/3/2022 2:45:00 AM 16.18 61.124 0.413 8.52 51.5 7.35
6/3/2022 3:00:00 AM 16.13 61.034 0.413 8.55 56.06 7.4
6/3/2022 3:15:00 AM 16.07 60.926 0.413 8.56 53.71 7.36
6/3/2022 3:30:00 AM 16.01 60.818 0.413 8.57 56.7 7.39
6/3/2022 3:45:00 AM 15.94 60.692 0.414 8.57 57.23 7.41
6/3/2022 4:00:00 AM 15.87 60.566 0.414 8.55 56.67 7.42
6/3/2022 4:15:00 AM 15.8 60.44 0.414 8.58 54.19 7.43
6/3/2022 4:30:00 AM 15.74 60.332 0.414 8.58 53.89 7.44
6/3/2022 4:45:00 AM 15.67 60.206 0.414 8.57 50.61 7.47
6/3/2022 5:00:00 AM 15.59 60.062 0.415 8.59 51.87 7.46
6/3/2022 5:15:00 AM 15.51 59.918 0.415 8.61 51.61 7.47
6/3/2022 5:30:00 AM 15.44 59.792 0.415 8.69 53.09 7.53
6/3/2022 5:45:00 AM 15.36 59.648 0.415 8.74 55.79 7.53
6/3/2022 6:00:00 AM 15.29 59.522 0.416 8.73 54.32 7.54
6/3/2022 6:15:00 AM 15.22 59.396 0.416 8.75 58.05 7.61
6/3/2022 6:30:00 AM 15.14 59.252 0.416 8.82 53.07 7.69
6/3/2022 6:45:00 AM 15.08 59.144 0.416 8.81 55.34 7.72
6/3/2022 7:00:00 AM 15.01 59.018 0.417 8.83 55.54 7.78
6/3/2022 7:15:00 AM 14.96 58.928 0.417 8.84 56.22 7.86
6/3/2022 7:30:00 AM 14.91 58.838 0.419 8.84 57 7.9
6/3/2022 7:45:00 AM 14.87 58.766 0.418 8.81 62.4 7.97
6/3/2022 8:00:00 AM 14.84 58.712 0.418 8.88 60.17 8.04
6/3/2022 8:15:00 AM 14.81 58.658 0.418 8.95 58.79 8.14
6/3/2022 8:30:00 AM 14.8 58.64 0.418 8.96 58 8.25
6/3/2022 8:45:00 AM 14.81 58.658 0.417 8.99 58.38 8.36
6/3/2022 9:00:00 AM 14.82 58.676 0.417 8.83 58.87 8.56
6/3/2022 9:15:00 AM 14.85 58.73 0.418 8.94 57.32 8.67
6/3/2022 9:30:00 AM 14.89 58.802 0.418 9.01 58.55 8.8
6/3/2022 9:45:00 AM 14.95 58.91 0.418 8.91 57.18 8.95
6/3/2022 10:00:00 AM 15.03 59.054 0.418 9 58.99 9.11
6/3/2022 10:15:00 AM 15.13 59.234 0.418 8.89 61.63 9.3
6/3/2022 10:30:00 AM 15.25 59.45 0.418 8.97 61.96 9.51
6/3/2022 10:45:00 AM 15.39 59.702 0.418 8.89 61.24 9.65
6/3/2022 11:00:00 AM 15.54 59.972 0.418 8.94 57.31 9.83
6/3/2022 11:15:00 AM 15.7 60.26 0.417 8.98 57.7 10
6/3/2022 11:30:00 AM 15.87 60.566 0.417 9.04 58.29 10.14
6/3/2022 11:45:00 AM 16.05 60.89 0.418 8.98 59.32 10.27
6/3/2022 12:00:00 PM 16.23 61.214 0.418 8.85 58.16 10.33
6/3/2022 12:15:00 PM 16.43 61.574 0.418 8.78 57.77 10.42
6/3/2022 12:30:00 PM 16.62 61.916 0.418 8.78 57.9 10.57
6/3/2022 12:45:00 PM 16.8 62.24 0.417 8.88 58.19 10.66
6/3/2022 1:00:00 PM 16.99 62.582 0.418 8.73 58.23 10.77
6/3/2022 1:15:00 PM 17.19 62.942 0.417 8.69 62.22 10.88
6/3/2022 1:30:00 PM 17.39 63.302 0.417 8.71 82.57 10.97
6/3/2022 1:45:00 PM 17.51 63.518 0.416 8.67 74.19 11.03
6/3/2022 2:00:00 PM 17.66 63.788 0.416 8.7 75.76 11.05
6/3/2022 2:15:00 PM 17.76 63.968 0.416 8.6 83.09 11.05
6/3/2022 2:30:00 PM 17.92 64.256 0.416 8.59 82.2 11.1
6/3/2022 2:45:00 PM 18.09 64.562 0.415 8.7 84.93 11.16
6/3/2022 3:00:00 PM 18.29 64.922 0.415 8.71 87.32 11.24
6/3/2022 3:15:00 PM 18.39 65.102 0.415 8.63 65.48 11.18
6/3/2022 3:30:00 PM 18.52 65.336 0.415 8.52 72.55 11.17
6/3/2022 3:45:00 PM 18.57 65.426 0.415 8.57 81.6 11.04
6/3/2022 4:00:00 PM 18.5 65.3 0.414 8.65 81.07 10.78
6/3/2022 4:15:00 PM 18.48 65.264 0.414 8.7 109.9 10.55
6/3/2022 4:30:00 PM 18.62 65.516 0.413 8.69 110.9 10.64
6/3/2022 4:45:00 PM 18.66 65.588 0.414 8.52 134 10.65
6/3/2022 5:00:00 PM 18.67 65.606 0.413 8.55 148.4 10.5
6/3/2022 5:15:00 PM 18.64 65.552 0.414 8.64 148.7 10.17
6/3/2022 5:30:00 PM 18.67 65.606 0.412 8.65 154.3 9.98
6/3/2022 5:45:00 PM 18.74 65.732 0.413 8.49 160.1 9.95
6/3/2022 6:00:00 PM 18.71 65.67799 0.413 8.49 157.3 9.79
6/3/2022 6:15:00 PM 18.78 65.804 0.413 8.41 142.5 9.82
6/3/2022 6:30:00 PM 18.78 65.804 0.413 8.37 137.5 9.68
6/3/2022 6:45:00 PM 18.77 65.786 0.413 8.35 141.7 9.48
6/3/2022 7:00:00 PM 18.76 65.768 0.413 8.42 132 9.35
6/3/2022 7:15:00 PM 18.74 65.732 0.413 8.32 123.4 9.08
6/3/2022 7:30:00 PM 18.73 65.714 0.413 8.35 116.2 8.83
6/3/2022 7:45:00 PM 18.7 65.66 0.413 8.48 109.1 8.63
6/3/2022 8:00:00 PM 18.67 65.606 0.413 8.42 98.53 8.45
6/3/2022 8:15:00 PM 18.64 65.552 0.413 8.42 91.54 8.26
6/3/2022 8:30:00 PM 18.6 65.48 0.413 8.47 95.14 8.07
6/3/2022 8:45:00 PM 18.56 65.408 0.412 8.45 77.53 7.95
6/3/2022 9:00:00 PM 18.52 65.336 0.412 8.49 77.49 7.82
6/3/2022 9:15:00 PM 18.46 65.228 0.412 8.44 69.19 7.68
6/3/2022 9:30:00 PM 18.39 65.102 0.412 8.52 60.61 7.63
6/3/2022 9:45:00 PM 18.32 64.976 0.412 8.49 68.69 7.5
6/3/2022 10:00:00 PM 18.24 64.832 0.412 8.46 58.32 7.39
6/3/2022 10:15:00 PM 18.15 64.67 0.412 8.46 61 7.3
6/3/2022 10:30:00 PM 18.06 64.508 0.412 8.53 64.52 7.24
6/3/2022 10:45:00 PM 17.97 64.346 0.412 8.59 65.11 7.18
6/3/2022 11:00:00 PM 17.87 64.166 0.412 8.49 74.2 7.16
6/3/2022 11:15:00 PM 17.77 63.986 0.412 8.48 77.33 7.13
6/3/2022 11:30:00 PM 17.67 63.806 0.412 8.5 88.46 7.11
6/3/2022 11:45:00 PM 17.57 63.626 0.412 8.49 97.21 7.07
6/4/2022 12:00:00 AM 17.46 63.428 0.412 8.5 77.75 7.05
6/4/2022 12:15:00 AM 17.36 63.248 0.413 8.5 79.29 7.01
6/4/2022 12:30:00 AM 17.25 63.05 0.413 8.53 76.03 7.03
6/4/2022 12:45:00 AM 17.14 62.852 0.413 8.51 77.05 7.01
6/4/2022 1:00:00 AM 17.03 62.654 0.413 8.55 74.73 7.06
6/4/2022 1:15:00 AM 16.93 62.474 0.413 8.55 78.57 7.06
6/4/2022 1:30:00 AM 16.82 62.276 0.414 8.56 79.79 7.09
6/4/2022 1:45:00 AM 16.71 62.078 0.414 8.6 80.05 7.08
6/4/2022 2:00:00 AM 16.61 61.898 0.414 8.56 84 7.1
6/4/2022 2:15:00 AM 16.5 61.7 0.414 8.58 88.01 7.11
6/4/2022 2:30:00 AM 16.39 61.502 0.415 8.61 78.95 7.13
6/4/2022 2:45:00 AM 16.28 61.304 0.415 8.63 80.66 7.14
6/4/2022 3:00:00 AM 16.16 61.088 0.415 8.65 88.59 7.19
6/4/2022 3:15:00 AM 16.05 60.89 0.416 8.68 87.18 7.2
6/4/2022 3:30:00 AM 15.94 60.692 0.416 8.69 90.26 7.21
6/4/2022 3:45:00 AM 15.82 60.476 0.417 8.71 96.9 7.24
6/4/2022 4:00:00 AM 15.71 60.278 0.417 8.74 95.32 7.29
6/4/2022 4:15:00 AM 15.61 60.098 0.418 8.74 98.07 7.31
6/4/2022 4:30:00 AM 15.49 59.882 0.418 8.75 104.4 7.36
6/4/2022 4:45:00 AM 15.38 59.684 0.419 8.76 101.1 7.41
6/4/2022 5:00:00 AM 15.27 59.486 0.419 8.78 102.7 7.4
6/4/2022 5:15:00 AM 15.17 59.306 0.42 8.77 101.9 7.45
6/4/2022 5:30:00 AM 15.06 59.108 0.42 8.72 108.8 7.5
6/4/2022 5:45:00 AM 14.95 58.91 0.421 8.63 97.96 7.54
6/4/2022 6:00:00 AM 14.85 58.73 0.421 8.64 85.51 7.61
6/4/2022 6:15:00 AM 14.76 58.568 0.422 8.59 84.42 7.66
6/4/2022 6:30:00 AM 14.67 58.406 0.423 8.54 81.9 7.74
6/4/2022 6:45:00 AM 14.59 58.262 0.423 8.51 82.33 7.8
6/4/2022 7:00:00 AM 14.52 58.136 0.423 8.52 86.14 7.87
6/4/2022 7:15:00 AM 14.47 58.046 0.423 8.5 83.37 8.01
6/4/2022 7:30:00 AM 14.41 57.938 0.423 8.52 82.96 8.07
6/4/2022 7:45:00 AM 14.38 57.884 0.423 8.49 86.05 8.19
6/4/2022 8:00:00 AM 14.35 57.83 0.423 8.55 96.76 8.28
6/4/2022 8:15:00 AM 14.34 57.812 0.423 8.55 91.89 8.44
6/4/2022 8:30:00 AM 14.33 57.794 0.423 8.57 91.99 8.55
6/4/2022 8:45:00 AM 14.35 57.83 0.423 8.53 101 8.68
6/4/2022 9:00:00 AM 14.37 57.866 0.423 8.58 112.1 8.8
6/4/2022 9:15:00 AM 14.41 57.938 0.423 8.58 90.92 8.96
6/4/2022 9:30:00 AM 14.46 58.028 0.423 8.64 107.4 9.12
6/4/2022 9:45:00 AM 14.53 58.154 0.423 8.71 103.9 9.28
6/4/2022 10:00:00 AM 14.62 58.316 0.424 8.68 98.13 9.46
6/4/2022 10:15:00 AM 14.73 58.514 0.424 8.71 90.04 9.63
6/4/2022 10:30:00 AM 14.86 58.748 0.424 8.67 86.06 9.81
6/4/2022 10:45:00 AM 15.01 59.018 0.424 8.65 102.5 9.96
6/4/2022 11:00:00 AM 15.17 59.306 0.424 8.63 103.5 10.1
6/4/2022 11:15:00 AM 15.35 59.63 0.425 8.69 101.5 10.26
6/4/2022 11:30:00 AM 15.52 59.936 0.425 8.65 95.33 10.38
6/4/2022 11:45:00 AM 15.71 60.278 0.424 8.61 104 10.53
6/4/2022 12:00:00 PM 15.91 60.638 0.424 8.61 104.3 10.61
6/4/2022 12:15:00 PM 16.11 60.998 0.424 8.58 108.9 10.72
6/4/2022 12:30:00 PM 16.31 61.358 0.423 8.58 111.5 10.87
6/4/2022 12:45:00 PM 16.5 61.7 0.421 8.6 97.55 10.95
6/4/2022 1:00:00 PM 16.69 62.042 0.422 8.6 92.42 11.08
6/4/2022 1:15:00 PM 16.89 62.402 0.422 8.59 115.3 11.17
6/4/2022 1:30:00 PM 17.09 62.762 0.422 8.56 111.5 11.22
6/4/2022 1:45:00 PM 17.27 63.086 0.421 8.52 115 11.31
6/4/2022 2:00:00 PM 17.45 63.41 0.421 8.46 110.7 11.36
6/4/2022 2:15:00 PM 17.63 63.734 0.421 8.5 132.7 11.42
6/4/2022 2:30:00 PM 17.8 64.04 0.42 8.47 82.93 11.45
6/4/2022 2:45:00 PM 17.96 64.328 0.42 8.44 79.75 11.47
6/4/2022 3:00:00 PM 18.1 64.58 0.42 8.43 81.97 11.46
6/4/2022 3:15:00 PM 18.23 64.814 0.42 8.41 86.62 11.44
6/4/2022 3:30:00 PM 18.33 64.994 0.419 8.41 76.41 11.41
6/4/2022 3:45:00 PM 18.45 65.21 0.419 8.41 172.9 11.29
6/4/2022 4:00:00 PM 18.53 65.354 0.418 8.37 131.8 11.19
6/4/2022 4:15:00 PM 18.6 65.48 0.417 8.38 67.03 11.13
6/4/2022 4:30:00 PM 18.67 65.606 0.417 8.6 72.73 11.01
6/4/2022 4:45:00 PM 18.71 65.67799 0.417 8.46 73.09 10.91
6/4/2022 5:00:00 PM 18.74 65.732 0.417 8.43 77 10.82
6/4/2022 5:15:00 PM 18.78 65.804 0.417 8.43 78.62 10.64
6/4/2022 5:30:00 PM 18.81 65.858 0.417 8.48 83.11 10.46
6/4/2022 5:45:00 PM 18.83 65.894 0.417 8.26 84.67 10.31
6/4/2022 6:00:00 PM 18.83 65.894 0.417 8.25 91.38 10.1
6/4/2022 6:15:00 PM 18.83 65.894 0.417 8.19 100.2 9.86
6/4/2022 6:30:00 PM 18.83 65.894 0.417 8.17 146.2 9.65
6/4/2022 6:45:00 PM 18.83 65.894 0.417 8.09 168.7 9.4
6/4/2022 7:00:00 PM 18.81 65.858 0.417 8.08 198.8 9.21
6/4/2022 7:15:00 PM 18.78 65.804 0.417 8.11 201.5 9
6/4/2022 7:30:00 PM 18.76 65.768 0.417 8.1 197.5 8.79
6/4/2022 7:45:00 PM 18.73 65.714 0.416 8.15 195.5 8.59
6/4/2022 8:00:00 PM 18.7 65.66 0.416 8.41 194.2 8.43
6/4/2022 8:15:00 PM 18.67 65.606 0.416 8.26 190 8.27
6/4/2022 8:30:00 PM 18.63 65.534 0.415 8.24 177.4 8.11
6/4/2022 8:45:00 PM 18.58 65.444 0.415 8.25 179.7 7.93
6/4/2022 9:00:00 PM 18.53 65.354 0.415 8.26 183.8 7.79
6/4/2022 9:15:00 PM 18.47 65.246 0.414 8.26 179.9 7.69
6/4/2022 9:30:00 PM 18.4 65.12 0.415 8.46 179.9 7.54
6/4/2022 9:45:00 PM 18.32 64.976 0.414 8.31 174.1 7.43
6/4/2022 10:00:00 PM 18.24 64.832 0.414 8.27 168.7 7.33
6/4/2022 10:15:00 PM 18.16 64.688 0.414 8.34 159.8 7.26
6/4/2022 10:30:00 PM 18.07 64.526 0.414 8.2 219.7 7.2
6/4/2022 10:45:00 PM 17.98 64.364 0.414 8.2 217.6 7.15
6/4/2022 11:00:00 PM 17.89 64.202 0.414 8.2 213.3 7.11
6/4/2022 11:15:00 PM 17.8 64.04 0.414 8.39 209.5 7.02
6/4/2022 11:30:00 PM 17.7 63.86 0.414 8.2 210.7 7.01
6/4/2022 11:45:00 PM 17.6 63.68 0.414 8.14 205.7 6.92
6/5/2022 12:00:00 AM 17.49 63.482 0.414 8.2 173.1 6.97
6/5/2022 12:15:00 AM 17.37 63.266 0.414 8.16 154.6 6.89
6/5/2022 12:30:00 AM 17.26 63.068 0.414 8.28 179.7 6.92
6/5/2022 12:45:00 AM 17.14 62.852 0.414 8.26 184 6.9
6/5/2022 1:00:00 AM 17.02 62.636 0.414 8.2 190.8 6.89
6/5/2022 1:15:00 AM 16.9 62.42 0.414 8.39 191.1 6.87
6/5/2022 1:30:00 AM 16.79 62.222 0.415 8.23 193.1 6.91
6/5/2022 1:45:00 AM 16.67 62.006 0.415 8.32 208.9 6.94
6/5/2022 2:00:00 AM 16.56 61.808 0.415 8.2 186.5 6.94
6/5/2022 2:15:00 AM 16.45 61.61 0.415 8.37 189.4 6.95
6/5/2022 2:30:00 AM 16.34 61.412 0.415 8.25 193 6.94
6/5/2022 2:45:00 AM 16.25 61.25 0.416 8.4 197.5 6.98
6/5/2022 3:00:00 AM 16.15 61.07 0.416 8.33 180 7.04
6/5/2022 3:15:00 AM 16.06 60.908 0.416 8.32 186.4 7.04
6/5/2022 3:30:00 AM 15.97 60.746 0.417 8.44 176.3 7.09
6/5/2022 3:45:00 AM 15.88 60.584 0.417 8.44 150.1 7.11
6/5/2022 4:00:00 AM 15.8 60.44 0.418 8.31 150.1 7.17
6/5/2022 4:15:00 AM 15.7 60.26 0.418 8.73 151.7 7.19
6/5/2022 4:30:00 AM 15.61 60.098 0.419 8.73 161.5 7.23
6/5/2022 4:45:00 AM 15.52 59.936 0.42 8.78 171.9 7.29
6/5/2022 5:00:00 AM 15.43 59.774 0.42 8.96 182.7 7.32
6/5/2022 5:15:00 AM 15.33 59.594 0.419 9.18 209.2 7.33
6/5/2022 5:30:00 AM 15.22 59.396 0.422 9.29 191.4 7.37
6/5/2022 5:45:00 AM 15.12 59.216 0.422 9.41 188 7.45
6/5/2022 6:00:00 AM 15 59 0.423 9.46 191.8 7.47
6/5/2022 6:15:00 AM 14.89 58.802 0.423 9.51 191.5 7.56
6/5/2022 6:30:00 AM 14.79 58.622 0.424 9.49 185.4 7.6
6/5/2022 6:45:00 AM 14.7 58.46 0.424 9.37 183.3 7.7
6/5/2022 7:00:00 AM 14.62 58.316 0.425 9.26 158.9 7.76
6/5/2022 7:15:00 AM 14.54 58.172 0.425 9.04 155.8 7.87
6/5/2022 7:30:00 AM 14.46 58.028 0.425 8.89 162 7.96
6/5/2022 7:45:00 AM 14.41 57.938 0.425 8.82 147.1 8.11
6/5/2022 8:00:00 AM 14.38 57.884 0.425 8.82 117 8.24
6/5/2022 8:15:00 AM 14.35 57.83 0.426 8.94 121 8.34
6/5/2022 8:30:00 AM 14.32 57.776 0.426 8.84 124.2 8.43
6/5/2022 8:45:00 AM 14.32 57.776 0.426 8.83 126.4 8.61
6/5/2022 9:00:00 AM 14.36 57.848 0.426 8.91 129.4 8.81
6/5/2022 9:15:00 AM 14.39 57.902 0.426 8.88 113.2 9.03
6/5/2022 9:30:00 AM 14.43 57.974 0.426 8.89 114.9 9.26
6/5/2022 9:45:00 AM 14.47 58.046 0.425 8.89 134 9.53
6/5/2022 10:00:00 AM 14.51 58.118 0.425 8.86 121.4 9.71
6/5/2022 10:15:00 AM 14.56 58.208 0.425 8.89 121.4 9.91
6/5/2022 10:30:00 AM 14.65 58.37 0.425 8.91 126.1 10.14
6/5/2022 10:45:00 AM 14.75 58.55 0.425 8.87 126.9 10.33
6/5/2022 11:00:00 AM 14.92 58.856 0.424 8.88 130.5 10.53
6/5/2022 11:15:00 AM 15.07 59.126 0.424 8.93 131.1 10.66
6/5/2022 11:30:00 AM 15.24 59.432 0.424 8.88 132.7 10.82
6/5/2022 11:45:00 AM 15.37 59.666 0.424 8.9 133.2 10.95
6/5/2022 12:00:00 PM 15.5 59.9 0.424 8.86 137 11.07
6/5/2022 12:15:00 PM 15.59 60.062 0.424 8.79 133.5 11.09
6/5/2022 12:30:00 PM 15.69 60.242 0.424 8.79 134.8 11.17
6/5/2022 12:45:00 PM 15.83 60.494 0.424 8.73 135.8 11.31
6/5/2022 1:00:00 PM 15.97 60.746 0.424 8.71 133.1 11.41
6/5/2022 1:15:00 PM 16 60.8 0.423 8.8 133.3 11.44
6/5/2022 1:30:00 PM 16.19 61.142 0.423 8.74 142.6 11.53
6/5/2022 1:45:00 PM 16.35 61.43 0.423 8.79 126.7 11.67
6/5/2022 2:00:00 PM 16.53 61.754 0.422 8.73 159.4 11.71
6/5/2022 2:15:00 PM 16.74 62.132 0.422 8.74 180.8 11.8
6/5/2022 2:30:00 PM 16.95 62.51 0.421 8.72 247.5 11.87
6/5/2022 2:45:00 PM 17.11 62.798 0.421 8.66 269.2 11.88
6/5/2022 3:00:00 PM 17.27 63.086 0.42 8.64 346.9 11.9
6/5/2022 3:15:00 PM 17.39 63.302 0.42 8.61 169.5 11.87
6/5/2022 3:30:00 PM 17.5 63.5 0.42 8.61 165.9 11.77
6/5/2022 3:45:00 PM 17.57 63.626 0.42 8.6 178 11.73
6/5/2022 4:00:00 PM 17.65 63.77 0.42 8.57 155.9 11.63
6/5/2022 4:15:00 PM 17.72 63.896 0.42 8.53 168.7 11.55
6/5/2022 4:30:00 PM 17.8 64.04 0.42 8.66 163.2 11.47
6/5/2022 4:45:00 PM 17.85 64.13 0.42 8.56 165.4 11.32
6/5/2022 5:00:00 PM 17.92 64.256 0.419 8.56 154.2 11.16
6/5/2022 5:15:00 PM 17.96 64.328 0.418 8.53 167.8 10.99
6/5/2022 5:30:00 PM 17.99 64.382 0.419 8.57 158.5 10.9
6/5/2022 5:45:00 PM 18.01 64.418 0.419 8.65 181.1 10.69
6/5/2022 6:00:00 PM 18.02 64.436 0.419 8.54 181.1 10.52
6/5/2022 6:15:00 PM 18.02 64.436 0.418 8.42 189.2 10.35
6/5/2022 6:30:00 PM 18.02 64.436 0.418 8.5 196.8 10.13
6/5/2022 6:45:00 PM 18.01 64.418 0.418 8.48 193.6 9.95
6/5/2022 7:00:00 PM 18 64.4 0.417 8.48 189.6 9.73
6/5/2022 7:15:00 PM 17.98 64.364 0.417 8.38 185.3 9.54
6/5/2022 7:30:00 PM 17.96 64.328 0.417 8.37 184 9.32
6/5/2022 7:45:00 PM 17.93 64.274 0.417 8.4 184.7 9.14
6/5/2022 8:00:00 PM 17.91 64.238 0.417 8.42 178.8 8.94
6/5/2022 8:15:00 PM 17.89 64.202 0.416 8.43 167 8.73
6/5/2022 8:30:00 PM 17.86 64.148 0.416 8.42 160.2 8.55
6/5/2022 8:45:00 PM 17.84 64.112 0.415 8.44 164 8.38
6/5/2022 9:00:00 PM 17.79 64.022 0.416 8.46 164.2 8.19
6/5/2022 9:15:00 PM 17.75 63.95 0.415 8.46 169.8 8
6/5/2022 9:30:00 PM 17.69 63.842 0.415 8.44 177 7.87
6/5/2022 9:45:00 PM 17.63 63.734 0.414 8.43 171 7.78
6/5/2022 10:00:00 PM 17.56 63.608 0.414 8.45 170.4 7.68
6/5/2022 10:15:00 PM 17.5 63.5 0.414 8.43 172 7.57
6/5/2022 10:30:00 PM 17.42 63.356 0.414 8.43 175.5 7.53
6/5/2022 10:45:00 PM 17.35 63.23 0.414 8.41 178.1 7.45
6/5/2022 11:00:00 PM 17.28 63.104 0.414 8.41 187.4 7.38
6/5/2022 11:15:00 PM 17.2 62.96 0.413 8.52 170.6 7.31
6/5/2022 11:30:00 PM 17.12 62.816 0.413 8.54 127.4 7.27
6/5/2022 11:45:00 PM 17.03 62.654 0.413 8.41 134.6 7.2
6/6/2022 12:00:00 AM 16.95 62.51 0.413 8.39 147.4 7.17
6/6/2022 12:15:00 AM 16.86 62.348 0.413 8.38 148.6 7.14
6/6/2022 12:30:00 AM 16.76 62.168 0.413 8.42 141.5 7.13
6/6/2022 12:45:00 AM 16.66 61.988 0.413 8.41 154.4 7.09
6/6/2022 1:00:00 AM 16.57 61.826 0.412 8.41 167.8 7.06
6/6/2022 1:15:00 AM 16.47 61.646 0.412 8.42 158.3 7.1
6/6/2022 1:30:00 AM 16.37 61.466 0.412 8.44 164 7.1
6/6/2022 1:45:00 AM 16.27 61.286 0.412 8.45 174.9 7.08
6/6/2022 2:00:00 AM 16.17 61.106 0.412 8.48 174.3 7.07
6/6/2022 2:15:00 AM 16.07 60.926 0.412 8.46 178.5 7.1
6/6/2022 2:30:00 AM 15.97 60.746 0.412 8.54 173.1 7.13
6/6/2022 2:45:00 AM 15.87 60.566 0.413 8.54 171.9 7.13
6/6/2022 3:00:00 AM 15.77 60.386 0.413 8.63 175.3 7.14
6/6/2022 3:15:00 AM 15.67 60.206 0.413 8.6 185.1 7.19
6/6/2022 3:30:00 AM 15.57 60.026 0.413 8.76 184.3 7.22
6/6/2022 3:45:00 AM 15.47 59.846 0.414 8.69 191.8 7.25
6/6/2022 4:00:00 AM 15.37 59.666 0.414 8.77 198.5 7.26
6/6/2022 4:15:00 AM 15.26 59.468 0.415 8.88 193 7.3
6/6/2022 4:30:00 AM 15.16 59.288 0.416 8.95 202.6 7.35
6/6/2022 4:45:00 AM 15.06 59.108 0.416 9.11 198.3 7.37
6/6/2022 5:00:00 AM 14.96 58.928 0.417 9.13 206 7.39
6/6/2022 5:15:00 AM 14.86 58.748 0.418 9.13 207.9 7.43
6/6/2022 5:30:00 AM 14.77 58.586 0.418 8.72 218.9 7.48
6/6/2022 5:45:00 AM 14.67 58.406 0.419 8.7 216 7.51
6/6/2022 6:00:00 AM 14.57 58.226 0.419 8.7 217.3 7.57
6/6/2022 6:15:00 AM 14.48 58.064 0.42 8.72 210.3 7.64
6/6/2022 6:30:00 AM 14.41 57.938 0.421 8.71 214.6 7.67
6/6/2022 6:45:00 AM 14.33 57.794 0.421 8.74 208.4 7.74
6/6/2022 7:00:00 AM 14.26 57.668 0.422 8.77 212.4 7.83
6/6/2022 7:15:00 AM 14.2 57.56 0.423 8.79 229.5 7.92
6/6/2022 7:30:00 AM 14.15 57.47 0.423 8.79 232.4 8.02
6/6/2022 7:45:00 AM 14.1 57.38 0.423 9.11 229.9 8.14
6/6/2022 8:00:00 AM 14.07 57.326 0.424 8.73 225.3 8.26
6/6/2022 8:15:00 AM 14.06 57.308 0.424 9.12 226.1 8.38
6/6/2022 8:30:00 AM 14.06 57.308 0.424 8.66 237.2 8.56
6/6/2022 8:45:00 AM 14.11 57.398 0.424 8.7 241.3 8.79
6/6/2022 9:00:00 AM 14.13 57.434 0.425 8.84 227.1 8.91
6/6/2022 9:15:00 AM 14.18 57.524 0.425 8.74 224.8 9.11
6/6/2022 9:30:00 AM 14.21 57.578 0.425 8.75 230.2 9.3
6/6/2022 9:45:00 AM 14.26 57.668 0.425 8.64 232.4 9.43
6/6/2022 10:00:00 AM 14.43 57.974 0.425 8.58 227.9 9.69
6/6/2022 10:15:00 AM 14.52 58.136 0.425 8.59 252.1 9.88
6/6/2022 10:30:00 AM 14.6 58.28 0.425 8.56 234 10.07
6/6/2022 10:45:00 AM 14.7 58.46 0.425 8.59 241.2 10.23
6/6/2022 11:00:00 AM 14.79 58.622 0.425 8.54 217.4 10.32
6/6/2022 11:15:00 AM 14.96 58.928 0.425 8.53 217.7 10.52
6/6/2022 11:30:00 AM 15.16 59.288 0.425 8.54 238.9 10.69
6/6/2022 11:45:00 AM 15.39 59.702 0.425 8.55 234.8 10.88
6/6/2022 12:00:00 PM 15.59 60.062 0.425 8.47 244.3 11.02
6/6/2022 12:15:00 PM 15.64 60.152 0.425 8.49 258.3 11.01
6/6/2022 12:30:00 PM 15.77 60.386 0.425 8.48 254.1 11.08
6/6/2022 12:45:00 PM 15.86 60.548 0.425 8.45 256.2 11.09
6/6/2022 1:00:00 PM 15.97 60.746 0.425 8.41 256.4 11.11
6/6/2022 1:15:00 PM 16.16 61.088 0.425 8.43 266.2 11.15
6/6/2022 1:30:00 PM 16.41 61.538 0.424 8.39 279.9 11.31
6/6/2022 1:45:00 PM 16.65 61.97 0.424 8.42 314.2 11.52
6/6/2022 2:00:00 PM 16.89 62.402 0.424 8.37 289 11.59
6/6/2022 2:15:00 PM 17.14 62.852 0.423 8.51 295.3 11.7
6/6/2022 2:30:00 PM 17.37 63.266 0.423 8.39 286.4 11.73
6/6/2022 2:45:00 PM 17.59 63.662 0.423 8.35 296.9 11.78
6/6/2022 3:00:00 PM 17.77 63.986 0.422 8.35 258.7 11.78
6/6/2022 3:15:00 PM 17.93 64.274 0.422 8.29 203.5 11.78
6/6/2022 3:30:00 PM 18.06 64.508 0.422 8.32 265.7 11.76
6/6/2022 3:45:00 PM 18.18 64.724 0.421 8.3 277.3 11.69
6/6/2022 4:00:00 PM 18.25 64.85 0.421 8.29 278 11.65
6/6/2022 4:15:00 PM 18.31 64.958 0.421 8.23 316.7 11.53
6/6/2022 4:30:00 PM 18.37 65.066 0.421 8.36 329.2 11.4
6/6/2022 4:45:00 PM 18.42 65.156 0.42 8.25 291.6 11.29
6/6/2022 5:00:00 PM 18.44 65.192 0.42 8.26 330.2 11.17
6/6/2022 5:15:00 PM 18.5 65.3 0.42 8.28 322.2 10.99
6/6/2022 5:30:00 PM 18.55 65.39 0.42 8.39 328.9 10.85
6/6/2022 5:45:00 PM 18.56 65.408 0.42 8.27 353.8 10.69
6/6/2022 6:00:00 PM 18.59 65.462 0.42 8.23 355.5 10.54
6/6/2022 6:15:00 PM 18.59 65.462 0.419 8.2 374.5 10.36
6/6/2022 6:30:00 PM 18.6 65.48 0.42 8.2 373.2 10.15
6/6/2022 6:45:00 PM 18.61 65.498 0.439 8.17 330.9 9.88
6/6/2022 7:00:00 PM 18.55 65.39 0.436 8.28 318.3 9.45
6/6/2022 7:15:00 PM 18.53 65.354 0.429 8.28 368.9 9.16
6/6/2022 7:30:00 PM 18.49 65.282 0.421 8.3 367.5 8.97
6/6/2022 7:45:00 PM 18.45 65.21 0.419 8.22 334 8.78
6/6/2022 8:00:00 PM 18.41 65.138 0.418 8.21 304.6 8.67
6/6/2022 8:15:00 PM 18.4 65.12 0.417 8.24 263.1 8.47
6/6/2022 8:30:00 PM 18.37 65.066 0.417 8.22 274.8 8.34
6/6/2022 8:45:00 PM 18.36 65.048 0.417 8.22 355.5 8.14
6/6/2022 9:00:00 PM 18.34 65.012 0.417 8.22 281.1 8.02
6/6/2022 9:15:00 PM 18.32 64.976 0.416 8.35 279.5 7.87
6/6/2022 9:30:00 PM 18.3 64.94 0.416 8.22 284.7 7.68
6/6/2022 9:45:00 PM 18.28 64.904 0.416 8.19 272.2 7.57
6/6/2022 10:00:00 PM 18.26 64.868 0.416 8.19 312.3 7.39
6/6/2022 10:15:00 PM 18.23 64.814 0.416 8.2 243.6 7.3
6/6/2022 10:30:00 PM 18.19 64.742 0.416 8.19 293.1 7.21
6/6/2022 10:45:00 PM 18.16 64.688 0.415 8.3 281.4 7.07
6/6/2022 11:00:00 PM 18.12 64.616 0.415 8.17 278.9 7.02
6/6/2022 11:15:00 PM 18.08 64.544 0.415 8.18 287.2 6.98
6/6/2022 11:30:00 PM 18.03 64.454 0.415 8.19 273.1 6.89
6/6/2022 11:45:00 PM 17.97 64.346 0.414 8.16 274.3 6.82
6/7/2022 12:00:00 AM 17.91 64.238 0.414 8.3 271.5 6.78
6/7/2022 12:15:00 AM 17.85 64.13 0.414 8.18 287.9 6.76
6/7/2022 12:30:00 AM 17.78 64.004 0.414 8.16 303 6.68
6/7/2022 12:45:00 AM 17.71 63.878 0.414 8.18 312.7 6.68
6/7/2022 1:00:00 AM 17.64 63.752 0.414 8.14 301.6 6.65
6/7/2022 1:15:00 AM 17.57 63.626 0.414 8.18 305.5 6.63
6/7/2022 1:30:00 AM 17.49 63.482 0.414 8.34 283.1 6.63
6/7/2022 1:45:00 AM 17.41 63.338 0.414 8.16 440.7 6.64
6/7/2022 2:00:00 AM 17.33 63.194 0.414 8.22 282 6.67
6/7/2022 2:15:00 AM 17.24 63.032 0.414 8.24 208.1 6.65
6/7/2022 2:30:00 AM 17.17 62.906 0.414 8.22 290.5 6.65
6/7/2022 2:45:00 AM 17.09 62.762 0.414 8.25 285.7 6.7
6/7/2022 3:00:00 AM 17.01 62.618 0.415 8.3 285.9 6.66
6/7/2022 3:15:00 AM 16.94 62.492 0.415 8.28 293.9 6.71
6/7/2022 3:30:00 AM 16.86 62.348 0.416 8.43 296.1 6.73
6/7/2022 3:45:00 AM 16.78 62.204 0.416 8.32 282.8 6.74
6/7/2022 4:00:00 AM 16.7 62.06 0.416 8.28 282.7 6.75
6/7/2022 4:15:00 AM 16.63 61.934 0.417 8.33 285.6 6.73
6/7/2022 4:30:00 AM 16.54 61.772 0.418 8.32 284.9 6.83
6/7/2022 4:45:00 AM 16.47 61.646 0.418 8.46 295.6 6.85
6/7/2022 5:00:00 AM 16.39 61.502 0.419 8.3 310.3 6.88
6/7/2022 5:15:00 AM 16.32 61.376 0.419 8.39 299.6 6.89
6/7/2022 5:30:00 AM 16.24 61.232 0.42 8.4 312.3 6.9
6/7/2022 5:45:00 AM 16.17 61.106 0.421 8.35 313.7 6.94
6/7/2022 6:00:00 AM 16.11 60.998 0.422 8.43 335.2 6.96
6/7/2022 6:15:00 AM 16.04 60.872 0.422 8.43 322.5 7.03
6/7/2022 6:30:00 AM 15.97 60.746 0.423 8.58 340.8 7.08
6/7/2022 6:45:00 AM 15.91 60.638 0.424 8.44 350.7 7.15
6/7/2022 7:00:00 AM 15.87 60.566 0.424 8.46 332.8 7.27
6/7/2022 7:15:00 AM 15.83 60.494 0.424 8.48 326.5 7.41
6/7/2022 7:30:00 AM 15.81 60.458 0.425 8.59 317.3 7.59
6/7/2022 7:45:00 AM 15.79 60.422 0.426 8.43 342.9 7.76
6/7/2022 8:00:00 AM 15.78 60.404 0.426 8.43 323 7.9
6/7/2022 8:15:00 AM 15.76 60.368 0.426 8.44 269.1 8.08
6/7/2022 8:30:00 AM 15.74 60.332 0.427 8.42 273.8 8.2
6/7/2022 8:45:00 AM 15.73 60.314 0.427 8.5 281.1 8.31
6/7/2022 9:00:00 AM 15.71 60.278 0.428 8.51 293 8.42
6/7/2022 9:15:00 AM 15.72 60.296 0.428 8.42 277.1 8.57
6/7/2022 9:30:00 AM 15.72 60.296 0.428 8.42 285.3 8.72
6/7/2022 9:45:00 AM 15.73 60.314 0.428 8.48 289.3 8.91
6/7/2022 10:00:00 AM 15.74 60.332 0.428 8.48 311.5 9.06
6/7/2022 10:15:00 AM 15.74 60.332 0.429 8.44 281.1 9.12
6/7/2022 10:30:00 AM 15.76 60.368 0.429 8.44 279.5 9.22
6/7/2022 10:45:00 AM 15.83 60.494 0.429 8.46 282.1 9.45
6/7/2022 11:00:00 AM 15.85 60.53 0.429 8.45 294.8 9.51
6/7/2022 11:15:00 AM 15.82 60.476 0.429 8.47 304.9 9.41
6/7/2022 11:30:00 AM 15.83 60.494 0.429 8.46 294.8 9.4
6/7/2022 11:45:00 AM 15.82 60.476 0.429 8.47 300.3 9.34
6/7/2022 12:00:00 PM 15.77 60.386 0.429 8.5 300.4 9.19
6/7/2022 12:15:00 PM 15.74 60.332 0.429 8.63 293.9 9.18
6/7/2022 12:30:00 PM 15.74 60.332 0.43 8.58 292.1 9.09
6/7/2022 12:45:00 PM 15.76 60.368 0.433 8.52 301.6 9.06
6/7/2022 1:00:00 PM 15.76 60.368 0.434 8.55 299.1 9.01
6/7/2022 1:15:00 PM 15.87 60.566 0.452 8.5 284.7 8.93
6/7/2022 1:30:00 PM 15.89 60.602 0.439 8.46 263.2 8.97
6/7/2022 1:45:00 PM 15.9 60.62 0.433 8.47 259.6 8.86
6/7/2022 2:00:00 PM 16.16 61.088 0.423 8.47 294.5 8.65
6/7/2022 2:15:00 PM 16.02 60.836 0.427 8.49 290.5 8.69
6/7/2022 2:30:00 PM 15.92 60.656 0.445 8.32 262.4 8.79
6/7/2022 2:45:00 PM 15.85 60.53 0.43 8.28 256.5 8.78
6/7/2022 3:00:00 PM 15.79 60.422 0.425 8.32 266.7 8.89
6/7/2022 3:15:00 PM 15.76 60.368 0.423 8.4 277.9 8.97
6/7/2022 3:30:00 PM 15.75 60.35 0.422 8.48 274.3 9.05
6/7/2022 3:45:00 PM 15.76 60.368 0.421 8.44 270.8 9.06
6/7/2022 4:00:00 PM 15.76 60.368 0.42 8.5 267.4 8.92
6/7/2022 4:15:00 PM 15.8 60.44 0.417 8.45 284.7 9
6/7/2022 4:30:00 PM 15.86 60.548 0.416 8.45 277.3 8.95
6/7/2022 4:45:00 PM 15.89 60.602 0.414 8.36 276.7 8.98
6/7/2022 5:00:00 PM 15.91 60.638 0.411 8.39 288.4 8.95
6/7/2022 5:15:00 PM 15.96 60.728 0.407 8.38 282.9 8.93
6/7/2022 5:30:00 PM 16.03 60.854 0.401 8.37 291.9 8.87
6/7/2022 5:45:00 PM 16.1 60.98 0.399 8.36 284.9 8.81
6/7/2022 6:00:00 PM 16.17 61.106 0.396 8.37 290.1 8.79
6/7/2022 6:15:00 PM 16.22 61.196 0.394 8.35 311.2 8.7
6/7/2022 6:30:00 PM 16.27 61.286 0.392 8.37 273.9 8.6
6/7/2022 6:45:00 PM 16.36 61.448 0.392 8.4 290.1 8.67
6/7/2022 7:00:00 PM 16.36 61.448 0.391 8.37 289.3 8.55
6/7/2022 7:15:00 PM 16.35 61.43 0.391 8.39 278.1 8.42
6/7/2022 7:30:00 PM 16.35 61.43 0.392 8.46 278.9 8.34
6/7/2022 7:45:00 PM 16.33 61.394 0.394 8.51 303.4 8.22
6/7/2022 8:00:00 PM 16.28 61.304 0.396 8.52 298.4 8.09
6/7/2022 8:15:00 PM 16.24 61.232 0.399 8.53 284.2 8.02
6/7/2022 8:30:00 PM 16.19 61.142 0.401 8.54 287.6 8.08
6/7/2022 8:45:00 PM 16.13 61.034 0.403 8.55 278.8 8.01
6/7/2022 9:00:00 PM 16.09 60.962 0.405 8.57 280.4 7.98
6/7/2022 9:15:00 PM 16.05 60.89 0.406 8.6 268.9 7.91
6/7/2022 9:30:00 PM 16.01 60.818 0.407 8.61 268.2 7.87
6/7/2022 9:45:00 PM 15.98 60.764 0.408 8.7 273.6 7.82
6/7/2022 10:00:00 PM 15.95 60.71 0.408 8.72 2391 7.77
6/7/2022 10:15:00 PM 15.92 60.656 0.408 8.79 127.3 7.71
6/7/2022 10:30:00 PM 15.9 60.62 0.408 8.7 138.2 7.64
6/7/2022 10:45:00 PM 15.88 60.584 0.407 8.84 132 7.61
6/7/2022 11:00:00 PM 15.86 60.548 0.406 8.54 116.8 7.57
6/7/2022 11:15:00 PM 15.85 60.53 0.406 8.67 129.1 7.48
6/7/2022 11:30:00 PM 15.86 60.548 0.402 8.58 135.5 7.52
6/7/2022 11:45:00 PM 16.13 61.034 0.398 8.39 149.6 7.36
6/8/2022 12:00:00 AM 15.96 60.728 0.401 8.48 154.1 7.31
6/8/2022 12:15:00 AM 15.88 60.584 0.4 8.4 136.9 7.31
6/8/2022 12:30:00 AM 15.84 60.512 0.399 8.41 131.5 7.33
6/8/2022 12:45:00 AM 15.82 60.476 0.399 8.33 134.6 7.24
6/8/2022 1:00:00 AM 15.79 60.422 0.398 8.34 129.6 7.26
6/8/2022 1:15:00 AM 15.76 60.368 0.397 8.37 130.3 7.3
6/8/2022 1:30:00 AM 15.74 60.332 0.396 8.41 136.9 7.31
6/8/2022 1:45:00 AM 15.71 60.278 0.397 8.42 133.8 7.25
6/8/2022 2:00:00 AM 15.69 60.242 0.397 8.34 125.8 7.27
6/8/2022 2:15:00 AM 15.67 60.206 0.397 8.33 132.3 7.29
6/8/2022 2:30:00 AM 15.63 60.134 0.397 8.43 126.7 7.26
6/8/2022 2:45:00 AM 15.61 60.098 0.396 8.32 127.3 7.27
6/8/2022 3:00:00 AM 15.59 60.062 0.396 8.32 147 7.27
6/8/2022 3:15:00 AM 15.56 60.008 0.395 8.32 151 7.22
6/8/2022 3:30:00 AM 15.55 59.99 0.395 8.39 154.9 7.2
6/8/2022 3:45:00 AM 15.53 59.954 0.394 8.46 149.3 7.18
6/8/2022 4:00:00 AM 15.52 59.936 0.394 8.52 146.2 7.19
6/8/2022 4:15:00 AM 15.5 59.9 0.388 8.47 114.9 7.2
6/8/2022 4:30:00 AM 15.47 59.846 0.393 8.5 139.1 7.14
6/8/2022 4:45:00 AM 15.43 59.774 0.393 8.47 105.9 7.16
6/8/2022 5:00:00 AM 15.4 59.72 0.393 8.55 96.44 7.14
6/8/2022 5:15:00 AM 15.35 59.63 0.394 8.52 98.93 7.13
6/8/2022 5:30:00 AM 15.3 59.54 0.394 8.53 104.8 7.17
6/8/2022 5:45:00 AM 15.25 59.45 0.396 8.64 99.13 7.22
6/8/2022 6:00:00 AM 15.19 59.342 0.398 8.6 113.9 7.24
6/8/2022 6:15:00 AM 15.14 59.252 0.399 8.67 112.3 7.26
6/8/2022 6:30:00 AM 15.08 59.144 0.401 8.63 116.8 7.36
6/8/2022 6:45:00 AM 15.04 59.072 0.402 8.6 115.6 7.43
6/8/2022 7:00:00 AM 15 59 0.403 8.63 109.7 7.47
6/8/2022 7:15:00 AM 14.96 58.928 0.404 8.6 103.9 7.56
6/8/2022 7:30:00 AM 14.93 58.874 0.404 8.67 113.9 7.63
6/8/2022 7:45:00 AM 14.9 58.82 0.405 8.69 112.4 7.7
6/8/2022 8:00:00 AM 14.88 58.784 0.405 8.67 129.8 7.82
6/8/2022 8:15:00 AM 14.89 58.802 0.406 8.65 103.8 7.89
6/8/2022 8:30:00 AM 14.9 58.82 0.406 8.6 119.9 7.89
6/8/2022 8:45:00 AM 14.92 58.856 0.406 8.66 125.7 8.08
6/8/2022 9:00:00 AM 14.96 58.928 0.405 8.72 119.3 8.38
6/8/2022 9:15:00 AM 15.02 59.036 0.405 8.71 128.2 8.56
6/8/2022 9:30:00 AM 15.08 59.144 0.405 8.72 122.5 8.7
6/8/2022 9:45:00 AM 15.15 59.27 0.405 8.73 133.4 8.91
6/8/2022 10:00:00 AM 15.25 59.45 0.404 8.67 127.3 9.11
6/8/2022 10:15:00 AM 15.35 59.63 0.404 8.65 132.7 9.29
6/8/2022 10:30:00 AM 15.44 59.792 0.404 8.77 124.4 9.43
6/8/2022 10:45:00 AM 15.58 60.044 0.403 8.7 132.3 9.64
6/8/2022 11:00:00 AM 15.74 60.332 0.403 8.71 141.3 9.87
6/8/2022 11:15:00 AM 15.92 60.656 0.403 8.73 113.3 10.06
6/8/2022 11:30:00 AM 16.13 61.034 0.403 8.74 121.7 10.21
6/8/2022 11:45:00 AM 16.3 61.34 0.403 8.7 117.6 10.31
6/8/2022 12:00:00 PM 16.52 61.736 0.403 8.63 128 10.47
6/8/2022 12:15:00 PM 16.74 62.132 0.403 8.59 120.1 10.57
6/8/2022 12:30:00 PM 16.95 62.51 0.403 8.63 124.9 10.62
6/8/2022 12:45:00 PM 17.16 62.888 0.404 8.53 153.5 10.72
6/8/2022 1:00:00 PM 17.37 63.266 0.404 8.52 181.2 10.8
6/8/2022 1:15:00 PM 17.58 63.644 0.404 8.48 128.8 10.9
6/8/2022 1:30:00 PM 17.78 64.004 0.405 8.54 144.5 11.02
6/8/2022 1:45:00 PM 17.97 64.346 0.405 8.44 133.6 11.06
6/8/2022 2:00:00 PM 18.15 64.67 0.405 8.4 134.6 11.11
6/8/2022 2:15:00 PM 18.33 64.994 0.406 8.4 125.4 11.13
6/8/2022 2:30:00 PM 18.5 65.3 0.406 8.43 135.1 11.25
6/8/2022 2:45:00 PM 18.65 65.57 0.406 8.46 148.4 11.21
6/8/2022 3:00:00 PM 18.8 65.84 0.407 8.42 158.3 11.22
6/8/2022 3:15:00 PM 18.94 66.092 0.407 8.4 182.5 11.15
6/8/2022 3:30:00 PM 19.05 66.29 0.407 8.45 204.2 11.13
6/8/2022 3:45:00 PM 19.15 66.47 0.408 8.35 210.1 11.08
6/8/2022 4:00:00 PM 19.22 66.596 0.408 8.35 234.2 10.99
6/8/2022 4:15:00 PM 19.3 66.74 0.408 8.24 140.3 10.93
6/8/2022 4:30:00 PM 19.36 66.848 0.408 8.32 143.1 10.79
6/8/2022 4:45:00 PM 19.4 66.92 0.408 8.25 135 10.64
6/8/2022 5:00:00 PM 19.45 67.01 0.408 8.38 118.6 10.59
6/8/2022 5:15:00 PM 19.49 67.082 0.409 8.27 137 10.36
6/8/2022 5:30:00 PM 19.52 67.136 0.409 8.26 124.1 10.2
6/8/2022 5:45:00 PM 19.55 67.19 0.409 8.29 141.7 10.02
6/8/2022 6:00:00 PM 19.59 67.262 0.409 8.3 133.6 9.91
6/8/2022 6:15:00 PM 19.57 67.226 0.409 8.26 136.7 9.65
6/8/2022 6:30:00 PM 19.57 67.226 0.409 8.21 138.3 9.48
6/8/2022 6:45:00 PM 19.56 67.208 0.409 8.26 130.3 9.21
6/8/2022 7:00:00 PM 19.56 67.208 0.409 8.22 141.4 9.03
6/8/2022 7:15:00 PM 19.56 67.208 0.409 8.18 123.9 8.88
6/8/2022 7:30:00 PM 19.56 67.208 0.409 8.2 122.8 8.65
6/8/2022 7:45:00 PM 19.55 67.19 0.409 8.19 124.8 8.44
6/8/2022 8:00:00 PM 19.56 67.208 0.409 8.25 122.6 8.25
6/8/2022 8:15:00 PM 19.55 67.19 0.409 8.31 127.5 8.03
6/8/2022 8:30:00 PM 19.53 67.154 0.409 8.28 130.1 7.87
6/8/2022 8:45:00 PM 19.51 67.118 0.41 8.23 137.5 7.66
6/8/2022 9:00:00 PM 19.49 67.082 0.409 8.2 130.7 7.5
6/8/2022 9:15:00 PM 19.47 67.046 0.41 8.24 120.9 7.3
6/8/2022 9:30:00 PM 19.45 67.01 0.409 8.16 2588 7.17
6/8/2022 9:45:00 PM 19.42 66.956 0.409 8.18 105.9 6.98
6/8/2022 10:00:00 PM 19.39 66.902 0.409 8.2 59.65 6.91
6/8/2022 10:15:00 PM 19.35 66.83 0.409 8.35 53.46 6.72
6/8/2022 10:30:00 PM 19.31 66.758 0.409 8.31 4229 6.63
6/8/2022 10:45:00 PM 19.28 66.704 0.409 8.24 9.67 6.54
6/8/2022 11:00:00 PM 19.23 66.614 0.41 8.24 10.84 6.42
6/8/2022 11:15:00 PM 19.18 66.524 0.409 8.25 9.05 6.34
6/8/2022 11:30:00 PM 19.13 66.434 0.424 8.23 11.1 6.3
6/8/2022 11:45:00 PM 19.09 66.362 0.45 8.17 11.99 6.26
6/9/2022 12:00:00 AM 19.06 66.308 0.421 8.19 13.73 6.2
6/9/2022 12:15:00 AM 18.98 66.164 0.417 8.14 17.68 6.04
6/9/2022 12:30:00 AM 18.93 66.074 0.411 8.25 21.37 6.09
6/9/2022 12:45:00 AM 18.9 66.02 0.406 8.32 34.16 6.08
6/9/2022 1:00:00 AM 18.79 65.82201 0.369 8.28 186.3 6.76
6/9/2022 1:15:00 AM 18.54 65.372 0.396 8.24 198.3 6.97
6/9/2022 1:30:00 AM 18.44 65.192 0.395 8.22 51.2 6.66
6/9/2022 1:45:00 AM 18.36 65.048 0.385 8.42 59.92 6.79
6/9/2022 2:00:00 AM 18.3 64.94 0.38 8.47 85.54 6.92
6/9/2022 2:15:00 AM 18.22 64.796 0.367 8.37 72.95 6.87
6/9/2022 2:30:00 AM 18.14 64.652 0.354 8.39 55.06 6.83
6/9/2022 2:45:00 AM 18.08 64.544 0.338 8.4 54.45 6.71
6/9/2022 3:00:00 AM 18.03 64.454 0.318 8.47 63.87 6.53
6/9/2022 3:15:00 AM 17.98 64.364 0.3 8.6 71.33 6.49
6/9/2022 3:30:00 AM 17.93 64.274 0.287 8.55 81.67 6.44
6/9/2022 3:45:00 AM 17.88 64.184 0.277 8.37 91.11 6.34
6/9/2022 4:00:00 AM 17.82 64.076 0.272 8.23 97.56 6.29
6/9/2022 4:15:00 AM 17.77 63.986 0.267 8.18 105.7 6.28
6/9/2022 4:30:00 AM 17.71 63.878 0.265 8.2 104.7 6.27
6/9/2022 4:45:00 AM 17.68 63.824 0.264 8.25 98.44 6.22
6/9/2022 5:00:00 AM 17.66 63.788 0.265 8.2 93.42 6.24
6/9/2022 5:15:00 AM 17.63 63.734 0.277 8.19 89.31 6.25
6/9/2022 5:30:00 AM 17.53 63.554 0.304 8.23 79.24 6.37
6/9/2022 5:45:00 AM 17.39 63.302 0.333 8.26 67.62 6.43
6/9/2022 6:00:00 AM 17.22 62.996 0.355 8.25 56.24 6.53
6/9/2022 6:15:00 AM 17.09 62.762 0.368 8.27 52.08 6.64
6/9/2022 6:30:00 AM 17 62.6 0.373 8.45 48.73 6.7
6/9/2022 6:45:00 AM 16.94 62.492 0.372 8.41 50.93 6.8
6/9/2022 7:00:00 AM 16.9 62.42 0.368 8.4 49.38 6.8
6/9/2022 7:15:00 AM 16.88 62.384 0.364 8.4 46.76 6.78
6/9/2022 7:30:00 AM 16.85 62.33 0.361 8.37 43.5 6.89
6/9/2022 7:45:00 AM 16.84 62.312 0.359 8.39 46.39 6.94
6/9/2022 8:00:00 AM 16.81 62.258 0.356 8.4 52.57 6.93
6/9/2022 8:15:00 AM 16.77 62.186 0.352 8.42 53.75 6.91
6/9/2022 8:30:00 AM 16.73 62.114 0.35 8.44 54.78 6.91
6/9/2022 8:45:00 AM 16.67 62.006 0.349 8.47 55.51 6.95
6/9/2022 9:00:00 AM 16.61 61.898 0.35 8.54 56.69 7.03
6/9/2022 9:15:00 AM 16.54 61.772 0.352 8.65 52.33 7.11
6/9/2022 9:30:00 AM 16.46 61.628 0.355 8.52 50.65 7.16
6/9/2022 9:45:00 AM 16.38 61.484 0.357 8.48 47.25 7.24
6/9/2022 10:00:00 AM 16.29 61.322 0.359 8.48 45.68 7.3
6/9/2022 10:15:00 AM 16.21 61.178 0.36 8.48 44.6 7.35
6/9/2022 10:30:00 AM 16.15 61.07 0.36 8.5 44.29 7.42
6/9/2022 10:45:00 AM 16.08 60.944 0.358 8.5 46.52 7.43
6/9/2022 11:00:00 AM 16.04 60.872 0.357 8.5 46.15 7.41
6/9/2022 11:15:00 AM 16.03 60.854 0.355 8.5 45.62 7.5
6/9/2022 11:30:00 AM 16.02 60.836 0.353 8.52 46.8 7.52
6/9/2022 11:45:00 AM 16 60.8 0.352 8.65 47.16 7.58
6/9/2022 12:00:00 PM 16 60.8 0.352 8.55 50.65 7.61
6/9/2022 12:15:00 PM 16 60.8 0.352 8.52 49.25 7.7
6/9/2022 12:30:00 PM 16.01 60.818 0.354 8.52 47.1 7.79
6/9/2022 12:45:00 PM 16.03 60.854 0.355 8.54 47.64 7.89
6/9/2022 1:00:00 PM 16.06 60.908 0.357 8.58 45.08 8.02
6/9/2022 1:15:00 PM 16.06 60.908 0.359 8.53 46.66 8.1
6/9/2022 1:30:00 PM 16.09 60.962 0.361 8.52 49.82 8.18
6/9/2022 1:45:00 PM 16.1 60.98 0.363 8.53 51.11 8.34
6/9/2022 2:00:00 PM 16.13 61.034 0.365 8.51 43.87 8.4
6/9/2022 2:15:00 PM 16.2 61.16 0.367 8.51 42.83 8.57
6/9/2022 2:30:00 PM 16.22 61.196 0.368 8.52 42.97 8.61
6/9/2022 2:45:00 PM 16.28 61.304 0.368 8.48 42.37 8.71
6/9/2022 3:00:00 PM 16.36 61.448 0.368 8.41 44.7 8.8
6/9/2022 3:15:00 PM 16.57 61.826 0.368 8.41 44.03 9.06
6/9/2022 3:30:00 PM 16.62 61.916 0.367 8.38 41.97 9.15
6/9/2022 3:45:00 PM 16.72 62.096 0.366 8.57 45.28 9.18
6/9/2022 4:00:00 PM 16.76 62.168 0.365 8.5 43.03 9.15
6/9/2022 4:15:00 PM 16.97 62.546 0.363 8.44 43.57 9.26
6/9/2022 4:30:00 PM 17.07 62.726 0.362 8.62 44.22 9.28
6/9/2022 4:45:00 PM 17.02 62.636 0.361 8.61 45.65 9.03
6/9/2022 5:00:00 PM 17.07 62.726 0.36 8.45 45.29 9
6/9/2022 5:15:00 PM 17.18 62.924 0.36 8.36 45.99 9.03
6/9/2022 5:30:00 PM 17.21 62.978 0.359 8.34 44.32 9.02
6/9/2022 5:45:00 PM 17.36 63.248 0.36 8.33 44.42 9.2
6/9/2022 6:00:00 PM 17.45 63.41 0.36 8.28 45.76 9.21
6/9/2022 6:15:00 PM 17.49 63.482 0.361 8.35 42.77 9.13
6/9/2022 6:30:00 PM 17.51 63.518 0.363 8.17 43.36 9.03
6/9/2022 6:45:00 PM 17.55 63.59 0.365 8.18 44.01 8.96
6/9/2022 7:00:00 PM 17.53 63.554 0.366 8.13 44.17 8.77
6/9/2022 7:15:00 PM 17.49 63.482 0.368 8.15 43.93 8.65
6/9/2022 7:30:00 PM 17.46 63.428 0.37 8.15 43.33 8.48
6/9/2022 7:45:00 PM 17.44 63.392 0.373 8.18 43.89 8.37
6/9/2022 8:00:00 PM 17.41 63.338 0.375 8.22 41.26 8.26
6/9/2022 8:15:00 PM 17.4 63.32 0.377 8.43 41.57 8.18
6/9/2022 8:30:00 PM 17.38 63.284 0.379 8.23 43.06 8.09
6/9/2022 8:45:00 PM 17.36 63.248 0.381 8.25 64.02 7.96
6/9/2022 9:00:00 PM 17.32 63.176 0.383 8.28 38.76 7.86
6/9/2022 9:15:00 PM 17.28 63.104 0.385 8.31 40.27 7.75
6/9/2022 9:30:00 PM 17.23 63.014 0.387 8.33 39.56 7.69
6/9/2022 9:45:00 PM 17.17 62.906 0.388 8.32 42.01 7.58
6/9/2022 10:00:00 PM 17.12 62.816 0.39 8.34 41.82 7.49
6/9/2022 10:15:00 PM 17.07 62.726 0.392 8.33 41 7.44
6/9/2022 10:30:00 PM 17.02 62.636 0.393 8.36 41.01 7.38
6/9/2022 10:45:00 PM 16.97 62.546 0.394 8.35 39.39 7.31
6/9/2022 11:00:00 PM 16.92 62.456 0.396 8.33 39.77 7.27
6/9/2022 11:15:00 PM 16.87 62.366 0.397 8.33 40.99 7.24
6/9/2022 11:30:00 PM 16.8 62.24 0.399 8.36 39.38 7.17
6/9/2022 11:45:00 PM 16.74 62.132 0.4 8.37 43.12 7.14
6/10/2022 12:00:00 AM 16.67 62.006 0.402 8.54 41.59 7.1
6/10/2022 12:15:00 AM 16.6 61.88 0.403 8.4 41.96 7.11
6/10/2022 12:30:00 AM 16.53 61.754 0.405 8.4 100.8 7.09
6/10/2022 12:45:00 AM 16.46 61.628 0.406 8.37 500.5 7.07
6/10/2022 1:00:00 AM 16.39 61.502 0.407 8.36 25.67 7.03
6/10/2022 1:15:00 AM 16.32 61.376 0.408 8.37 23.96 7.04
6/10/2022 1:30:00 AM 16.25 61.25 0.408 8.38 25.65 7.03
6/10/2022 1:45:00 AM 16.18 61.124 0.409 8.57 32.75 7.06
6/10/2022 2:00:00 AM 16.11 60.998 0.409 8.55 25.32 7.01
6/10/2022 2:15:00 AM 16.04 60.872 0.41 8.55 24.91 7.04
6/10/2022 2:30:00 AM 15.96 60.728 0.41 8.61 24.55 7.04
6/10/2022 2:45:00 AM 15.89 60.602 0.411 8.63 25.11 7.03
6/10/2022 3:00:00 AM 15.81 60.458 0.411 8.73 23.05 7.06
6/10/2022 3:15:00 AM 15.74 60.332 0.412 8.6 21.8 7.09
6/10/2022 3:30:00 AM 15.66 60.188 0.412 8.62 21.59 7.11
6/10/2022 3:45:00 AM 15.59 60.062 0.413 8.58 21.74 7.1
6/10/2022 4:00:00 AM 15.51 59.918 0.413 8.56 20.33 7.14
6/10/2022 4:15:00 AM 15.43 59.774 0.414 8.58 20.2 7.21
6/10/2022 4:30:00 AM 15.35 59.63 0.414 8.59 21.47 7.23
6/10/2022 4:45:00 AM 15.26 59.468 0.415 8.58 24.24 7.25
6/10/2022 5:00:00 AM 15.17 59.306 0.415 8.63 22.15 7.3
6/10/2022 5:15:00 AM 15.09 59.162 0.416 8.62 22.34 7.3
6/10/2022 5:30:00 AM 15 59 0.417 8.61 20.97 7.34
6/10/2022 5:45:00 AM 14.92 58.856 0.418 8.62 21.26 7.35
6/10/2022 6:00:00 AM 14.84 58.712 0.418 8.6 19.87 7.42
6/10/2022 6:15:00 AM 14.76 58.568 0.419 8.64 20.18 7.38
6/10/2022 6:30:00 AM 14.69 58.442 0.419 8.69 19.95 7.45
6/10/2022 6:45:00 AM 14.62 58.316 0.42 8.7 20.63 7.56
6/10/2022 7:00:00 AM 14.57 58.226 0.42 8.59 21.14 7.6
6/10/2022 7:15:00 AM 14.52 58.136 0.42 8.58 21.22 7.7
6/10/2022 7:30:00 AM 14.49 58.082 0.421 8.6 21.12 7.79
6/10/2022 7:45:00 AM 14.47 58.046 0.421 8.63 20.39 7.91
6/10/2022 8:00:00 AM 14.46 58.028 0.421 8.57 20.61 8.03
6/10/2022 8:15:00 AM 14.45 58.01 0.421 8.58 21.02 8.12
6/10/2022 8:30:00 AM 14.47 58.046 0.421 8.53 20.48 8.22
6/10/2022 8:45:00 AM 14.48 58.064 0.421 8.57 20.08 8.32
6/10/2022 9:00:00 AM 14.51 58.118 0.421 8.57 20.75 8.43
6/10/2022 9:15:00 AM 14.56 58.208 0.421 8.57 23.48 8.58
6/10/2022 9:30:00 AM 14.61 58.298 0.421 8.57 21.98 8.71